Time,TemperatureF,DewpointF,PressureIn,WindDirection,WindDirectionDegrees,WindSpeedMPH,WindSpeedGustMPH,Humidity,HourlyPrecipIn,Conditions,Clouds,dailyrainin,SoftwareType,DateUTC
2013-10-23 00:00:00,43.3,34.2,30.12,NW,315,3.8,15.2,70,0.00,,SKC,0.04,VWS V14.01,2013-10-23 05:00:00,
2013-10-23 00:01:00,43.3,34.2,30.12,WSW,248,2.0,8.1,70,0.00,,SKC,0.04,VWS V14.01,2013-10-23 05:01:00,
2013-10-23 00:02:00,42.4,34.4,30.12,West,270,2.9,11.6,73,0.00,,SKC,0.00,VWS V14.01,2013-10-23 05:02:00,
2013-10-23 00:03:00,43.2,34.4,30.12,SSW,202,4.3,17.0,71,0.00,,SKC,0.04,VWS V14.01,2013-10-23 05:03:00,
2013-10-23 00:04:00,43.2,34.4,30.12,NNW,338,3.1,12.5,71,0.00,,SKC,0.04,VWS V14.01,2013-10-23 05:04:00,
2013-10-23 00:05:00,43.2,34.4,30.12,North,0,3.4,13.4,71,0.00,,SKC,0.04,VWS V14.01,2013-10-23 05:05:00,
2013-10-23 00:06:00,43.2,34.8,30.12,North,0,3.1,12.5,72,0.00,,SKC,0.04,VWS V14.01,2013-10-23 05:06:00,
2013-10-23 00:07:00,42.3,33.9,30.12,NW,315,3.4,13.4,72,0.00,,SKC,0.00,VWS V14.01,2013-10-23 05:07:00,
2013-10-23 00:08:00,43.2,34.8,30.12,NW,315,1.3,5.4,72,0.00,,SKC,0.04,VWS V14.01,2013-10-23 05:08:00,
2013-10-23 00:09:00,43.2,34.8,30.12,North,0,4.0,16.1,72,0.00,,SKC,0.04,VWS V14.01,2013-10-23 05:09:00,
2013-10-23 00:10:00,43.2,34.8,30.12,SE,135,2.5,9.8,72,0.00,,SKC,0.04,VWS V14.01,2013-10-23 05:10:00,
2013-10-23 00:11:00,43.2,34.8,30.12,WNW,292,1.6,6.3,72,0.00,,SKC,0.04,VWS V14.01,2013-10-23 05:11:00,
2013-10-23 00:12:00,42.1,33.7,30.12,ENE,68,3.6,14.3,72,0.00,,SKC,0.00,VWS V14.01,2013-10-23 05:12:00,
2013-10-23 00:13:00,43.2,34.8,30.12,North,0,3.6,14.3,72,0.00,,SKC,0.04,VWS V14.01,2013-10-23 05:13:00,
2013-10-23 00:14:00,43.2,34.8,30.12,West,270,2.9,11.6,72,0.00,,SKC,0.04,VWS V14.01,2013-10-23 05:14:00,
2013-10-23 00:15:00,43.2,34.8,30.12,WSW,248,0.0,0.0,72,0.00,,SKC,0.04,VWS V14.01,2013-10-23 05:15:00,
2013-10-23 00:16:00,43.2,34.8,30.12,SW,225,2.2,9.0,72,0.00,,SKC,0.04,VWS V14.01,2013-10-23 05:16:00,
2013-10-23 00:17:00,42.1,33.4,30.12,SW,225,0.0,0.0,71,0.00,,SKC,0.00,VWS V14.01,2013-10-23 05:17:00,
2013-10-23 00:18:00,43.2,34.8,30.12,NW,315,3.8,15.2,72,0.00,,SKC,0.04,VWS V14.01,2013-10-23 05:18:00,
2013-10-23 00:19:00,43.2,34.8,30.12,WNW,292,2.5,9.8,72,0.00,,SKC,0.04,VWS V14.01,2013-10-23 05:19:00,
2013-10-23 00:20:00,43.2,34.8,30.12,North,0,2.5,9.8,72,0.00,,SKC,0.04,VWS V14.01,2013-10-23 05:20:00,
2013-10-23 00:21:00,43.2,34.8,30.12,West,270,3.8,15.2,72,0.00,,SKC,0.04,VWS V14.01,2013-10-23 05:21:00,
2013-10-23 00:22:00,42.1,33.7,30.12,NE,45,0.9,3.6,72,0.00,,SKC,0.00,VWS V14.01,2013-10-23 05:22:00,
2013-10-23 00:23:00,43.2,34.8,30.12,WSW,248,0.9,3.6,72,0.00,,SKC,0.04,VWS V14.01,2013-10-23 05:23:00,
2013-10-23 00:24:00,43.0,34.6,30.12,North,0,1.3,5.4,72,0.00,,SKC,0.04,VWS V14.01,2013-10-23 05:24:00,
2013-10-23 00:25:00,43.0,34.9,30.12,NNE,22,7.8,31.3,73,0.00,,SKC,0.04,VWS V14.01,2013-10-23 05:25:00,
2013-10-23 00:26:00,43.0,34.6,30.12,SW,225,2.0,8.1,72,0.00,,SKC,0.04,VWS V14.01,2013-10-23 05:26:00,
2013-10-23 00:27:00,41.9,33.5,30.12,SSW,202,2.0,8.1,72,0.00,,SKC,0.00,VWS V14.01,2013-10-23 05:27:00,
2013-10-23 00:28:00,43.0,34.6,30.12,West,270,2.9,11.6,72,0.00,,SKC,0.04,VWS V14.01,2013-10-23 05:28:00,
2013-10-23 00:29:00,43.0,34.6,30.12,WNW,292,3.4,13.4,72,0.00,,SKC,0.04,VWS V14.01,2013-10-23 05:29:00,
2013-10-23 00:30:00,43.0,34.6,30.12,NW,315,4.0,16.1,72,0.00,,SKC,0.04,VWS V14.01,2013-10-23 05:30:00,
2013-10-23 00:31:00,43.0,34.9,30.12,West,270,2.0,8.1,73,0.00,,SKC,0.04,VWS V14.01,2013-10-23 05:31:00,
2013-10-23 00:32:00,41.9,33.5,30.12,North,0,3.4,13.4,72,0.00,,SKC,0.00,VWS V14.01,2013-10-23 05:32:00,
2013-10-23 00:33:00,43.0,34.9,30.12,NNW,338,2.9,11.6,73,0.00,,SKC,0.04,VWS V14.01,2013-10-23 05:33:00,
2013-10-23 00:34:00,43.0,34.9,30.12,NNE,22,3.4,13.4,73,0.00,,SKC,0.04,VWS V14.01,2013-10-23 05:34:00,
2013-10-23 00:35:00,43.0,34.9,30.12,NNW,338,4.0,16.1,73,0.00,,SKC,0.04,VWS V14.01,2013-10-23 05:35:00,
2013-10-23 00:36:00,43.0,34.9,30.12,NE,45,2.2,9.0,73,0.00,,SKC,0.04,VWS V14.01,2013-10-23 05:36:00,
2013-10-23 00:37:00,41.9,33.2,30.12,NNE,22,2.0,8.1,71,0.00,,SKC,0.00,VWS V14.01,2013-10-23 05:37:00,
2013-10-23 00:38:00,43.0,34.9,30.12,NE,45,3.1,12.5,73,0.00,,SKC,0.04,VWS V14.01,2013-10-23 05:38:00,
2013-10-23 00:39:00,43.0,34.9,30.12,WSW,248,2.7,10.7,73,0.00,,SKC,0.04,VWS V14.01,2013-10-23 05:39:00,
2013-10-23 00:40:00,43.0,34.9,30.12,NW,315,4.7,18.8,73,0.00,,SKC,0.04,VWS V14.01,2013-10-23 05:40:00,
2013-10-23 00:41:00,43.0,34.9,30.12,North,0,2.5,9.8,73,0.00,,SKC,0.04,VWS V14.01,2013-10-23 05:41:00,
2013-10-23 00:42:00,41.9,33.2,30.12,WSW,248,2.5,9.8,71,0.00,,SKC,0.00,VWS V14.01,2013-10-23 05:42:00,
2013-10-23 00:43:00,43.0,34.9,30.12,NW,315,4.3,17.0,73,0.00,,SKC,0.04,VWS V14.01,2013-10-23 05:43:00,
2013-10-23 00:44:00,43.0,34.9,30.12,WNW,292,1.1,4.5,73,0.00,,SKC,0.04,VWS V14.01,2013-10-23 05:44:00,
2013-10-23 00:45:00,43.0,34.9,30.12,WSW,248,4.0,16.1,73,0.00,,SKC,0.04,VWS V14.01,2013-10-23 05:45:00,
2013-10-23 00:46:00,43.0,34.9,30.12,NNE,22,4.3,17.0,73,0.00,,SKC,0.04,VWS V14.01,2013-10-23 05:46:00,
2013-10-23 00:47:00,41.9,33.2,30.12,NW,315,4.3,17.0,71,0.00,,SKC,0.00,VWS V14.01,2013-10-23 05:47:00,
2013-10-23 00:48:00,42.8,34.8,30.12,NNW,338,6.5,26.0,73,0.00,,SKC,0.04,VWS V14.01,2013-10-23 05:48:00,
2013-10-23 00:49:00,42.8,34.8,30.12,NW,315,3.4,13.4,73,0.00,,SKC,0.04,VWS V14.01,2013-10-23 05:49:00,
2013-10-23 00:50:00,42.8,34.8,30.12,SW,225,0.0,0.0,73,0.00,,SKC,0.04,VWS V14.01,2013-10-23 05:50:00,
2013-10-23 00:51:00,42.8,34.8,30.12,WNW,292,3.4,13.4,73,0.00,,SKC,0.04,VWS V14.01,2013-10-23 05:51:00,
2013-10-23 00:52:00,42.1,33.0,30.15,WSW,248,2.0,8.1,70,0.00,,SKC,0.00,VWS V14.01,2013-10-23 05:52:00,
2013-10-23 00:53:00,42.8,34.8,30.12,NW,315,2.5,9.8,73,0.00,,SKC,0.04,VWS V14.01,2013-10-23 05:53:00,
2013-10-23 00:54:00,42.8,34.8,30.12,ESE,112,0.0,0.0,73,0.00,,SKC,0.04,VWS V14.01,2013-10-23 05:54:00,
2013-10-23 00:55:00,42.8,34.8,30.12,ESE,112,0.0,0.0,73,0.00,,SKC,0.04,VWS V14.01,2013-10-23 05:55:00,
2013-10-23 00:56:00,42.8,34.8,30.12,North,0,2.7,10.7,73,0.00,,SKC,0.04,VWS V14.01,2013-10-23 05:56:00,
2013-10-23 00:57:00,42.1,33.0,30.15,NW,315,1.1,4.5,70,0.00,,SKC,0.00,VWS V14.01,2013-10-23 05:57:00,
2013-10-23 00:58:00,42.8,34.8,30.12,NNE,22,1.3,5.4,73,0.00,,SKC,0.04,VWS V14.01,2013-10-23 05:58:00,
2013-10-23 00:59:00,42.8,34.8,30.12,NNW,338,3.1,12.5,73,0.00,,SKC,0.04,VWS V14.01,2013-10-23 05:59:00,
2013-10-23 01:00:00,42.8,34.8,30.12,WNW,292,0.9,3.6,73,0.00,,SKC,0.00,VWS V14.01,2013-10-23 06:00:00,
2013-10-23 01:01:00,42.8,34.8,30.12,WNW,292,0.0,0.0,73,0.00,,SKC,0.00,VWS V14.01,2013-10-23 06:01:00,
2013-10-23 01:02:00,42.1,33.0,30.15,WNW,292,0.0,0.0,70,0.00,,SKC,0.00,VWS V14.01,2013-10-23 06:02:00,
2013-10-23 01:03:00,42.8,34.8,30.12,NW,315,1.3,5.4,73,0.00,,SKC,0.00,VWS V14.01,2013-10-23 06:03:00,
2013-10-23 01:04:00,42.6,34.6,30.12,North,0,2.5,9.8,73,0.00,,SKC,0.00,VWS V14.01,2013-10-23 06:04:00,
2013-10-23 01:05:00,42.6,34.9,30.12,West,270,2.0,8.1,74,0.00,,SKC,0.00,VWS V14.01,2013-10-23 06:05:00,
2013-10-23 01:06:00,42.6,34.9,30.12,West,270,3.6,14.3,74,0.00,,SKC,0.00,VWS V14.01,2013-10-23 06:06:00,
2013-10-23 01:07:00,42.1,33.0,30.15,NNE,22,4.0,16.1,70,0.00,,SKC,0.00,VWS V14.01,2013-10-23 06:07:00,
2013-10-23 01:08:00,42.6,34.9,30.12,North,0,1.6,6.3,74,0.00,,SKC,0.00,VWS V14.01,2013-10-23 06:08:00,
2013-10-23 01:09:00,42.6,34.9,30.12,WNW,292,2.5,9.8,74,0.00,,SKC,0.00,VWS V14.01,2013-10-23 06:09:00,
2013-10-23 01:10:00,42.6,34.9,30.12,NW,315,5.4,21.5,74,0.00,,SKC,0.00,VWS V14.01,2013-10-23 06:10:00,
2013-10-23 01:11:00,42.4,34.4,30.12,West,270,2.9,11.6,73,0.00,,SKC,0.00,VWS V14.01,2013-10-23 06:11:00,
2013-10-23 01:12:00,42.1,33.0,30.15,SW,225,2.2,9.0,70,0.00,,SKC,0.00,VWS V14.01,2013-10-23 06:12:00,
2013-10-23 01:13:00,42.4,34.4,30.12,WNW,292,3.4,13.4,73,0.00,,SKC,0.00,VWS V14.01,2013-10-23 06:13:00,
2013-10-23 01:14:00,42.4,34.4,30.12,SW,225,6.3,25.1,73,0.00,,SKC,0.00,VWS V14.01,2013-10-23 06:14:00,
2013-10-23 01:15:00,42.3,34.2,30.12,North,0,2.2,9.0,73,0.00,,SKC,0.00,VWS V14.01,2013-10-23 06:15:00,
2013-10-23 01:16:00,42.3,33.9,30.12,NW,315,2.5,9.8,72,0.00,,SKC,0.00,VWS V14.01,2013-10-23 06:16:00,
2013-10-23 01:17:00,42.1,33.0,30.15,ENE,68,3.4,13.4,70,0.00,,SKC,0.00,VWS V14.01,2013-10-23 06:17:00,
2013-10-23 01:18:00,42.3,33.9,30.12,WNW,292,6.0,24.2,72,0.00,,SKC,0.00,VWS V14.01,2013-10-23 06:18:00,
2013-10-23 01:19:00,42.3,33.9,30.12,NNW,338,2.5,9.8,72,0.00,,SKC,0.00,VWS V14.01,2013-10-23 06:19:00,
2013-10-23 01:20:00,42.3,33.9,30.12,NNW,338,4.0,16.1,72,0.00,,SKC,0.00,VWS V14.01,2013-10-23 06:20:00,
2013-10-23 01:21:00,42.1,33.7,30.12,WNW,292,1.3,5.4,72,0.00,,SKC,0.00,VWS V14.01,2013-10-23 06:21:00,
2013-10-23 01:22:00,42.3,33.2,30.15,ENE,68,2.9,11.6,70,0.00,,SKC,0.00,VWS V14.01,2013-10-23 06:22:00,
2013-10-23 01:23:00,42.1,33.4,30.12,WNW,292,0.9,3.6,71,0.00,,SKC,0.00,VWS V14.01,2013-10-23 06:23:00,
2013-10-23 01:24:00,42.1,33.4,30.12,NNW,338,2.0,8.1,71,0.00,,SKC,0.00,VWS V14.01,2013-10-23 06:24:00,
2013-10-23 01:25:00,42.1,33.4,30.12,NNW,338,3.8,15.2,71,0.00,,SKC,0.00,VWS V14.01,2013-10-23 06:25:00,
2013-10-23 01:26:00,42.1,33.4,30.12,North,0,5.8,23.3,71,0.00,,SKC,0.00,VWS V14.01,2013-10-23 06:26:00,
2013-10-23 01:27:00,42.3,33.2,30.15,WSW,248,1.1,4.5,70,0.00,,SKC,0.00,VWS V14.01,2013-10-23 06:27:00,
2013-10-23 01:28:00,42.1,33.4,30.12,WSW,248,2.9,11.6,71,0.00,,SKC,0.00,VWS V14.01,2013-10-23 06:28:00,
2013-10-23 01:29:00,42.1,33.7,30.12,WSW,248,2.0,8.1,72,0.00,,SKC,0.00,VWS V14.01,2013-10-23 06:29:00,
2013-10-23 01:30:00,42.1,33.7,30.12,NW,315,3.1,12.5,72,0.00,,SKC,0.00,VWS V14.01,2013-10-23 06:30:00,
2013-10-23 01:31:00,42.1,33.7,30.12,North,0,3.8,15.2,72,0.00,,SKC,0.00,VWS V14.01,2013-10-23 06:31:00,
2013-10-23 01:32:00,42.3,33.2,30.15,West,270,2.5,9.8,70,0.00,,SKC,0.00,VWS V14.01,2013-10-23 06:32:00,
2013-10-23 01:33:00,42.1,33.7,30.12,NW,315,3.8,15.2,72,0.00,,SKC,0.00,VWS V14.01,2013-10-23 06:33:00,
2013-10-23 01:34:00,41.9,33.5,30.12,ESE,112,3.1,12.5,72,0.00,,SKC,0.00,VWS V14.01,2013-10-23 06:34:00,
2013-10-23 01:35:00,41.9,33.5,30.12,WNW,292,3.1,12.5,72,0.00,,SKC,0.00,VWS V14.01,2013-10-23 06:35:00,
2013-10-23 01:36:00,41.9,33.5,30.12,NNE,22,1.6,6.3,72,0.00,,SKC,0.00,VWS V14.01,2013-10-23 06:36:00,
2013-10-23 01:37:00,42.3,33.2,30.15,NNE,22,2.9,11.6,70,0.00,,SKC,0.00,VWS V14.01,2013-10-23 06:37:00,
2013-10-23 01:38:00,41.9,33.5,30.12,West,270,1.1,4.5,72,0.00,,SKC,0.00,VWS V14.01,2013-10-23 06:38:00,
2013-10-23 01:39:00,41.9,33.5,30.12,WSW,248,4.0,16.1,72,0.00,,SKC,0.00,VWS V14.01,2013-10-23 06:39:00,
2013-10-23 01:40:00,41.9,33.5,30.12,NNW,338,2.9,11.6,72,0.00,,SKC,0.00,VWS V14.01,2013-10-23 06:40:00,
2013-10-23 01:41:00,41.9,33.5,30.12,WSW,248,2.9,11.6,72,0.00,,SKC,0.00,VWS V14.01,2013-10-23 06:41:00,
2013-10-23 01:42:00,42.3,33.2,30.15,West,270,2.0,8.1,70,0.00,,SKC,0.00,VWS V14.01,2013-10-23 06:42:00,
2013-10-23 01:43:00,41.9,33.2,30.12,WNW,292,1.1,4.5,71,0.00,,SKC,0.00,VWS V14.01,2013-10-23 06:43:00,
2013-10-23 01:44:00,41.9,33.2,30.12,WNW,292,1.6,6.3,71,0.00,,SKC,0.00,VWS V14.01,2013-10-23 06:44:00,
2013-10-23 01:45:00,41.9,33.2,30.12,WNW,292,1.3,5.4,71,0.00,,SKC,0.00,VWS V14.01,2013-10-23 06:45:00,
2013-10-23 01:46:00,41.9,33.2,30.12,SW,225,0.0,0.0,71,0.00,,SKC,0.00,VWS V14.01,2013-10-23 06:46:00,
2013-10-23 01:47:00,42.3,33.2,30.15,NE,45,0.0,0.0,70,0.00,,SKC,0.00,VWS V14.01,2013-10-23 06:47:00,
2013-10-23 01:48:00,41.9,33.2,30.12,NW,315,1.6,6.3,71,0.00,,SKC,0.00,VWS V14.01,2013-10-23 06:48:00,
2013-10-23 01:49:00,41.9,33.2,30.12,North,0,1.6,6.3,71,0.00,,SKC,0.00,VWS V14.01,2013-10-23 06:49:00,
2013-10-23 01:50:00,41.9,33.2,30.12,NW,315,2.5,9.8,71,0.00,,SKC,0.00,VWS V14.01,2013-10-23 06:50:00,
2013-10-23 01:51:00,41.9,33.2,30.12,East,90,1.3,5.4,71,0.00,,SKC,0.00,VWS V14.01,2013-10-23 06:51:00,
2013-10-23 01:52:00,42.3,33.2,30.15,NW,315,3.8,15.2,70,0.00,,SKC,0.00,VWS V14.01,2013-10-23 06:52:00,
2013-10-23 01:53:00,41.9,33.2,30.12,WSW,248,0.9,3.6,71,0.00,,SKC,0.00,VWS V14.01,2013-10-23 06:53:00,
2013-10-23 01:54:00,41.9,33.2,30.12,NNW,338,3.1,12.5,71,0.00,,SKC,0.00,VWS V14.01,2013-10-23 06:54:00,
2013-10-23 01:55:00,41.9,33.2,30.12,North,0,1.3,5.4,71,0.00,,SKC,0.00,VWS V14.01,2013-10-23 06:55:00,
2013-10-23 01:56:00,41.9,33.2,30.12,West,270,1.3,5.4,71,0.00,,SKC,0.00,VWS V14.01,2013-10-23 06:56:00,
2013-10-23 01:57:00,42.3,33.2,30.15,West,270,5.8,23.3,70,0.00,,SKC,0.00,VWS V14.01,2013-10-23 06:57:00,
2013-10-23 01:58:00,42.1,33.4,30.12,West,270,0.0,0.0,71,0.00,,SKC,0.00,VWS V14.01,2013-10-23 06:58:00,
2013-10-23 01:59:00,42.1,33.4,30.15,NW,315,3.8,15.2,71,0.00,,SKC,0.00,VWS V14.01,2013-10-23 06:59:00,
2013-10-23 02:00:00,42.1,33.4,30.15,WNW,292,5.6,22.4,71,0.00,,SKC,0.00,VWS V14.01,2013-10-23 07:00:00,
2013-10-23 02:01:00,42.1,33.4,30.15,WSW,248,3.6,14.3,71,0.00,,SKC,0.00,VWS V14.01,2013-10-23 07:01:00,
2013-10-23 02:02:00,42.3,33.2,30.15,WNW,292,2.7,10.7,70,0.00,,SKC,0.00,VWS V14.01,2013-10-23 07:02:00,
2013-10-23 02:03:00,42.1,33.0,30.15,WNW,292,4.9,19.7,70,0.00,,SKC,0.00,VWS V14.01,2013-10-23 07:03:00,
2013-10-23 02:04:00,42.1,33.0,30.15,WNW,292,3.6,14.3,70,0.00,,SKC,0.00,VWS V14.01,2013-10-23 07:04:00,
2013-10-23 02:06:00,42.1,33.0,30.15,North,0,2.2,9.0,70,0.00,,SKC,0.00,VWS V14.01,2013-10-23 07:06:00,
2013-10-23 02:07:00,42.3,33.2,30.15,WSW,248,1.3,5.4,70,0.00,,SKC,0.00,VWS V14.01,2013-10-23 07:07:00,
2013-10-23 02:08:00,42.1,33.0,30.15,North,0,4.3,17.0,70,0.00,,SKC,0.00,VWS V14.01,2013-10-23 07:08:00,
2013-10-23 02:09:00,42.1,33.0,30.15,WSW,248,1.6,6.3,70,0.00,,SKC,0.00,VWS V14.01,2013-10-23 07:09:00,
2013-10-23 02:10:00,42.1,33.0,30.15,ENE,68,4.7,18.8,70,0.00,,SKC,0.00,VWS V14.01,2013-10-23 07:10:00,
2013-10-23 02:11:00,42.1,33.0,30.15,North,0,1.6,6.3,70,0.00,,SKC,0.00,VWS V14.01,2013-10-23 07:11:00,
2013-10-23 02:12:00,42.3,33.2,30.15,South,180,0.9,3.6,70,0.00,,SKC,0.00,VWS V14.01,2013-10-23 07:12:00,
2013-10-23 02:13:00,42.1,33.0,30.15,WSW,248,3.8,15.2,70,0.00,,SKC,0.00,VWS V14.01,2013-10-23 07:13:00,
2013-10-23 02:14:00,42.1,33.0,30.15,SSW,202,4.0,16.1,70,0.00,,SKC,0.00,VWS V14.01,2013-10-23 07:14:00,
2013-10-23 02:15:00,42.1,33.0,30.15,NNE,22,4.3,17.0,70,0.00,,SKC,0.00,VWS V14.01,2013-10-23 07:15:00,
2013-10-23 02:16:00,42.1,33.0,30.15,SW,225,0.0,0.0,70,0.00,,SKC,0.00,VWS V14.01,2013-10-23 07:16:00,
2013-10-23 02:17:00,42.3,33.5,30.15,West,270,3.6,14.3,71,0.00,,SKC,0.00,VWS V14.01,2013-10-23 07:17:00,
2013-10-23 02:18:00,42.1,33.0,30.15,NE,45,1.1,4.5,70,0.00,,SKC,0.00,VWS V14.01,2013-10-23 07:18:00,
2013-10-23 02:19:00,42.1,33.0,30.15,WNW,292,0.0,0.0,70,0.00,,SKC,0.00,VWS V14.01,2013-10-23 07:19:00,
2013-10-23 02:20:00,42.1,33.0,30.15,North,0,1.1,4.5,70,0.00,,SKC,0.00,VWS V14.01,2013-10-23 07:20:00,
2013-10-23 02:21:00,42.1,33.0,30.15,WNW,292,1.1,4.5,70,0.00,,SKC,0.00,VWS V14.01,2013-10-23 07:21:00,
2013-10-23 02:22:00,42.3,33.5,30.15,WNW,292,4.3,17.0,71,0.00,,SKC,0.00,VWS V14.01,2013-10-23 07:22:00,
2013-10-23 02:23:00,42.1,33.0,30.15,NW,315,2.0,8.1,70,0.00,,SKC,0.00,VWS V14.01,2013-10-23 07:23:00,
2013-10-23 02:24:00,42.1,33.0,30.15,WNW,292,1.6,6.3,70,0.00,,SKC,0.00,VWS V14.01,2013-10-23 07:24:00,
2013-10-23 02:25:00,42.1,33.0,30.15,West,270,0.0,0.0,70,0.00,,SKC,0.00,VWS V14.01,2013-10-23 07:25:00,
2013-10-23 02:26:00,42.1,33.0,30.15,ENE,68,2.0,8.1,70,0.00,,SKC,0.00,VWS V14.01,2013-10-23 07:26:00,
2013-10-23 02:27:00,42.3,33.5,30.15,North,0,5.6,22.4,71,0.00,,SKC,0.00,VWS V14.01,2013-10-23 07:27:00,
2013-10-23 02:28:00,42.1,33.0,30.15,North,0,1.6,6.3,70,0.00,,SKC,0.00,VWS V14.01,2013-10-23 07:28:00,
2013-10-23 02:29:00,42.1,33.0,30.15,ENE,68,0.0,0.0,70,0.00,,SKC,0.00,VWS V14.01,2013-10-23 07:29:00,
2013-10-23 02:30:00,42.3,33.2,30.15,North,0,1.1,4.5,70,0.00,,SKC,0.00,VWS V14.01,2013-10-23 07:30:00,
2013-10-23 02:31:00,42.1,33.0,30.15,SW,225,1.1,4.5,70,0.00,,SKC,0.00,VWS V14.01,2013-10-23 07:31:00,
2013-10-23 02:32:00,42.3,33.9,30.15,West,270,0.0,0.0,72,0.00,,SKC,0.00,VWS V14.01,2013-10-23 07:32:00,
2013-10-23 02:33:00,42.3,33.2,30.15,ENE,68,2.9,11.6,70,0.00,,SKC,0.00,VWS V14.01,2013-10-23 07:33:00,
2013-10-23 02:34:00,42.3,33.2,30.15,WSW,248,0.0,0.0,70,0.00,,SKC,0.00,VWS V14.01,2013-10-23 07:34:00,
2013-10-23 02:35:00,42.1,33.0,30.15,WSW,248,0.0,0.0,70,0.00,,SKC,0.00,VWS V14.01,2013-10-23 07:35:00,
2013-10-23 02:36:00,42.1,33.0,30.15,West,270,1.1,4.5,70,0.00,,SKC,0.00,VWS V14.01,2013-10-23 07:36:00,
2013-10-23 02:37:00,42.3,33.9,30.15,WSW,248,1.3,5.4,72,0.00,,SKC,0.00,VWS V14.01,2013-10-23 07:37:00,
2013-10-23 02:39:00,42.3,33.2,30.15,SW,225,4.3,17.0,70,0.00,,SKC,0.00,VWS V14.01,2013-10-23 07:39:00,
2013-10-23 02:40:00,42.3,33.2,30.15,ENE,68,3.4,13.4,70,0.00,,SKC,0.00,VWS V14.01,2013-10-23 07:40:00,
2013-10-23 02:41:00,42.1,33.0,30.15,NNW,338,4.0,16.1,70,0.00,,SKC,0.00,VWS V14.01,2013-10-23 07:41:00,
2013-10-23 02:42:00,42.3,33.9,30.15,SSW,202,0.0,0.0,72,0.00,,SKC,0.00,VWS V14.01,2013-10-23 07:42:00,
2013-10-23 02:43:00,42.3,33.2,30.15,WNW,292,3.1,12.5,70,0.00,,SKC,0.00,VWS V14.01,2013-10-23 07:43:00,
2013-10-23 02:44:00,42.3,33.2,30.15,East,90,2.9,11.6,70,0.00,,SKC,0.00,VWS V14.01,2013-10-23 07:44:00,
2013-10-23 02:45:00,42.3,33.2,30.15,SW,225,2.9,11.6,70,0.00,,SKC,0.00,VWS V14.01,2013-10-23 07:45:00,
2013-10-23 02:46:00,42.3,33.2,30.15,WSW,248,3.6,14.3,70,0.00,,SKC,0.00,VWS V14.01,2013-10-23 07:46:00,
2013-10-23 02:47:00,42.3,33.9,30.15,NW,315,1.3,5.4,72,0.00,,SKC,0.00,VWS V14.01,2013-10-23 07:47:00,
2013-10-23 02:48:00,42.3,33.2,30.15,West,270,3.4,13.4,70,0.00,,SKC,0.00,VWS V14.01,2013-10-23 07:48:00,
2013-10-23 02:49:00,42.3,33.2,30.15,NE,45,2.9,11.6,70,0.00,,SKC,0.00,VWS V14.01,2013-10-23 07:49:00,
2013-10-23 02:50:00,42.3,33.2,30.15,SSE,158,3.8,15.2,70,0.00,,SKC,0.00,VWS V14.01,2013-10-23 07:50:00,
2013-10-23 02:51:00,42.3,33.2,30.15,North,0,0.9,3.6,70,0.00,,SKC,0.00,VWS V14.01,2013-10-23 07:51:00,
2013-10-23 02:52:00,42.3,34.2,30.15,NNW,338,3.4,13.4,73,0.00,,SKC,0.00,VWS V14.01,2013-10-23 07:52:00,
2013-10-23 02:53:00,42.3,33.2,30.15,NW,315,0.9,3.6,70,0.00,,SKC,0.00,VWS V14.01,2013-10-23 07:53:00,
2013-10-23 02:54:00,42.3,33.2,30.15,North,0,2.9,11.6,70,0.00,,SKC,0.00,VWS V14.01,2013-10-23 07:54:00,
2013-10-23 02:55:00,42.3,33.2,30.15,West,270,1.6,6.3,70,0.00,,SKC,0.00,VWS V14.01,2013-10-23 07:55:00,
2013-10-23 02:56:00,42.3,33.2,30.15,NE,45,0.0,0.0,70,0.00,,SKC,0.00,VWS V14.01,2013-10-23 07:56:00,
2013-10-23 02:57:00,42.3,34.2,30.15,North,0,2.0,8.1,73,0.00,,SKC,0.00,VWS V14.01,2013-10-23 07:57:00,
2013-10-23 02:58:00,42.3,33.2,30.15,NNW,338,4.3,17.0,70,0.00,,SKC,0.00,VWS V14.01,2013-10-23 07:58:00,
2013-10-23 02:59:00,42.3,33.2,30.15,North,0,3.1,12.5,70,0.00,,SKC,0.00,VWS V14.01,2013-10-23 07:59:00,
2013-10-23 03:00:00,42.3,33.2,30.15,NE,45,5.6,22.4,70,0.00,,SKC,0.00,VWS V14.01,2013-10-23 08:00:00,
2013-10-23 03:01:00,42.3,33.2,30.15,WNW,292,5.4,21.5,70,0.00,,SKC,0.00,VWS V14.01,2013-10-23 08:01:00,
2013-10-23 03:02:00,42.3,34.2,30.15,NNW,338,1.6,6.3,73,0.00,,SKC,0.00,VWS V14.01,2013-10-23 08:02:00,
2013-10-23 03:03:00,42.3,33.2,30.15,North,0,3.4,13.4,70,0.00,,SKC,0.00,VWS V14.01,2013-10-23 08:03:00,
2013-10-23 03:04:00,42.3,33.2,30.15,West,270,2.9,11.6,70,0.00,,SKC,0.00,VWS V14.01,2013-10-23 08:04:00,
2013-10-23 03:05:00,42.3,33.2,30.15,WNW,292,2.0,8.1,70,0.00,,SKC,0.00,VWS V14.01,2013-10-23 08:05:00,
2013-10-23 03:06:00,42.3,33.2,30.15,WNW,292,2.0,8.1,70,0.00,,SKC,0.00,VWS V14.01,2013-10-23 08:06:00,
2013-10-23 03:07:00,42.3,34.6,30.15,NW,315,1.6,6.3,74,0.00,,SKC,0.00,VWS V14.01,2013-10-23 08:07:00,
2013-10-23 03:08:00,42.3,33.2,30.15,East,90,3.4,13.4,70,0.00,,SKC,0.00,VWS V14.01,2013-10-23 08:08:00,
2013-10-23 03:09:00,42.3,33.2,30.15,NE,45,1.6,6.3,70,0.00,,SKC,0.00,VWS V14.01,2013-10-23 08:09:00,
2013-10-23 03:10:00,42.3,33.2,30.15,West,270,2.9,11.6,70,0.00,,SKC,0.00,VWS V14.01,2013-10-23 08:10:00,
2013-10-23 03:11:00,42.3,33.2,30.15,North,0,2.2,9.0,70,0.00,,SKC,0.00,VWS V14.01,2013-10-23 08:11:00,
2013-10-23 03:12:00,42.3,34.6,30.15,West,270,0.0,0.0,74,0.00,,SKC,0.00,VWS V14.01,2013-10-23 08:12:00,
2013-10-23 03:14:00,42.3,33.2,30.15,North,0,4.0,16.1,70,0.00,,SKC,0.00,VWS V14.01,2013-10-23 08:14:00,
2013-10-23 03:15:00,42.3,33.2,30.15,SE,135,6.9,27.7,70,0.00,,SKC,0.00,VWS V14.01,2013-10-23 08:15:00,
2013-10-23 03:16:00,42.3,33.2,30.15,North,0,2.0,8.1,70,0.00,,SKC,0.00,VWS V14.01,2013-10-23 08:16:00,
2013-10-23 03:17:00,42.3,34.9,30.15,North,0,2.9,11.6,75,0.00,,SKC,0.00,VWS V14.01,2013-10-23 08:17:00,
2013-10-23 03:18:00,42.3,33.2,30.15,SW,225,0.0,0.0,70,0.00,,SKC,0.00,VWS V14.01,2013-10-23 08:18:00,
2013-10-23 03:19:00,42.3,33.2,30.15,West,270,0.0,0.0,70,0.00,,SKC,0.00,VWS V14.01,2013-10-23 08:19:00,
2013-10-23 03:20:00,42.3,33.2,30.15,NNW,338,2.0,8.1,70,0.00,,SKC,0.00,VWS V14.01,2013-10-23 08:20:00,
2013-10-23 03:21:00,42.3,33.2,30.15,WSW,248,4.0,16.1,70,0.00,,SKC,0.00,VWS V14.01,2013-10-23 08:21:00,
2013-10-23 03:22:00,42.3,34.9,30.15,WNW,292,0.0,0.0,75,0.00,,SKC,0.00,VWS V14.01,2013-10-23 08:22:00,
2013-10-23 03:23:00,42.3,33.2,30.15,NNW,338,3.1,12.5,70,0.00,,SKC,0.00,VWS V14.01,2013-10-23 08:23:00,
2013-10-23 03:24:00,42.3,33.5,30.15,NE,45,2.9,11.6,71,0.00,,SKC,0.00,VWS V14.01,2013-10-23 08:24:00,
2013-10-23 03:25:00,42.3,33.5,30.15,WNW,292,3.1,12.5,71,0.00,,SKC,0.00,VWS V14.01,2013-10-23 08:25:00,
2013-10-23 03:26:00,42.3,33.5,30.15,NNW,338,2.7,10.7,71,0.00,,SKC,0.00,VWS V14.01,2013-10-23 08:26:00,
2013-10-23 03:27:00,42.3,34.9,30.15,West,270,2.0,8.1,75,0.00,,SKC,0.00,VWS V14.01,2013-10-23 08:27:00,
2013-10-23 03:28:00,42.3,33.5,30.15,WNW,292,4.0,16.1,71,0.00,,SKC,0.00,VWS V14.01,2013-10-23 08:28:00,
2013-10-23 03:29:00,42.3,33.5,30.15,West,270,0.0,0.0,71,0.00,,SKC,0.00,VWS V14.01,2013-10-23 08:29:00,
2013-10-23 03:30:00,42.3,33.5,30.15,West,270,3.6,14.3,71,0.00,,SKC,0.00,VWS V14.01,2013-10-23 08:30:00,
2013-10-23 03:31:00,42.3,33.5,30.15,NW,315,4.0,16.1,71,0.00,,SKC,0.00,VWS V14.01,2013-10-23 08:31:00,
2013-10-23 03:32:00,42.3,35.2,30.15,NNE,22,0.0,0.0,76,0.00,,SKC,0.00,VWS V14.01,2013-10-23 08:32:00,
2013-10-23 03:33:00,42.3,33.5,30.15,NNW,338,3.6,14.3,71,0.00,,SKC,0.00,VWS V14.01,2013-10-23 08:33:00,
2013-10-23 03:34:00,42.3,33.5,30.15,SSW,202,2.0,8.1,71,0.00,,SKC,0.00,VWS V14.01,2013-10-23 08:34:00,
2013-10-23 03:35:00,42.3,33.5,30.15,NE,45,0.0,0.0,71,0.00,,SKC,0.00,VWS V14.01,2013-10-23 08:35:00,
2013-10-23 03:36:00,42.3,33.5,30.15,WSW,248,1.3,5.4,71,0.00,,SKC,0.00,VWS V14.01,2013-10-23 08:36:00,
2013-10-23 03:37:00,42.3,35.2,30.15,West,270,1.3,5.4,76,0.00,,SKC,0.00,VWS V14.01,2013-10-23 08:37:00,
2013-10-23 03:38:00,42.3,33.9,30.15,West,270,0.0,0.0,72,0.00,,SKC,0.00,VWS V14.01,2013-10-23 08:38:00,
2013-10-23 03:39:00,42.3,33.9,30.15,WNW,292,0.0,0.0,72,0.00,,SKC,0.00,VWS V14.01,2013-10-23 08:39:00,
2013-10-23 03:40:00,42.3,33.9,30.15,North,0,0.0,0.0,72,0.00,,SKC,0.00,VWS V14.01,2013-10-23 08:40:00,
2013-10-23 03:41:00,42.3,33.5,30.15,West,270,0.0,0.0,71,0.00,,SKC,0.00,VWS V14.01,2013-10-23 08:41:00,
2013-10-23 03:42:00,42.3,35.2,30.15,WNW,292,1.1,4.5,76,0.00,,SKC,0.00,VWS V14.01,2013-10-23 08:42:00,
2013-10-23 03:43:00,42.3,33.9,30.15,West,270,0.9,3.6,72,0.00,,SKC,0.00,VWS V14.01,2013-10-23 08:43:00,
2013-10-23 03:44:00,42.3,33.9,30.15,NW,315,0.0,0.0,72,0.00,,SKC,0.00,VWS V14.01,2013-10-23 08:44:00,
2013-10-23 03:45:00,42.3,33.9,30.15,North,0,0.0,0.0,72,0.00,,SKC,0.00,VWS V14.01,2013-10-23 08:45:00,
2013-10-23 03:46:00,42.3,33.9,30.15,WNW,292,2.5,9.8,72,0.00,,SKC,0.00,VWS V14.01,2013-10-23 08:46:00,
2013-10-23 03:47:00,42.3,35.2,30.15,WSW,248,1.1,4.5,76,0.00,,SKC,0.00,VWS V14.01,2013-10-23 08:47:00,
2013-10-23 03:48:00,42.3,33.9,30.15,WNW,292,3.6,14.3,72,0.00,,SKC,0.00,VWS V14.01,2013-10-23 08:48:00,
2013-10-23 03:49:00,42.3,33.9,30.15,North,0,2.7,10.7,72,0.00,,SKC,0.00,VWS V14.01,2013-10-23 08:49:00,
2013-10-23 03:50:00,42.3,33.9,30.15,WSW,248,1.6,6.3,72,0.00,,SKC,0.00,VWS V14.01,2013-10-23 08:50:00,
2013-10-23 03:51:00,42.3,33.9,30.15,WNW,292,0.0,0.0,72,0.00,,SKC,0.00,VWS V14.01,2013-10-23 08:51:00,
2013-10-23 03:52:00,42.1,35.1,30.15,West,270,2.5,9.8,76,0.00,,SKC,0.00,VWS V14.01,2013-10-23 08:52:00,
2013-10-23 03:53:00,42.3,33.9,30.15,NW,315,0.9,3.6,72,0.00,,SKC,0.00,VWS V14.01,2013-10-23 08:53:00,
2013-10-23 03:54:00,42.3,33.9,30.15,North,0,1.3,5.4,72,0.00,,SKC,0.00,VWS V14.01,2013-10-23 08:54:00,
2013-10-23 03:55:00,42.3,33.9,30.15,NNE,22,1.1,4.5,72,0.00,,SKC,0.00,VWS V14.01,2013-10-23 08:55:00,
2013-10-23 03:56:00,42.3,33.9,30.15,SSW,202,2.0,8.1,72,0.00,,SKC,0.00,VWS V14.01,2013-10-23 08:56:00,
2013-10-23 03:57:00,42.3,35.2,30.15,North,0,0.0,0.0,76,0.00,,SKC,0.00,VWS V14.01,2013-10-23 08:57:00,
2013-10-23 03:58:00,42.3,34.2,30.15,NE,45,2.9,11.6,73,0.00,,SKC,0.00,VWS V14.01,2013-10-23 08:58:00,
2013-10-23 03:59:00,42.3,34.2,30.15,West,270,0.0,0.0,73,0.00,,SKC,0.00,VWS V14.01,2013-10-23 08:59:00,
2013-10-23 04:00:00,42.3,34.2,30.15,West,270,0.0,0.0,73,0.00,,SKC,0.00,VWS V14.01,2013-10-23 09:00:00,
2013-10-23 04:01:00,42.3,34.2,30.15,NW,315,3.1,12.5,73,0.00,,SKC,0.00,VWS V14.01,2013-10-23 09:01:00,
2013-10-23 04:02:00,42.1,35.4,30.15,NNW,338,0.0,0.0,77,0.00,,SKC,0.00,VWS V14.01,2013-10-23 09:02:00,
2013-10-23 04:03:00,42.3,34.2,30.15,NNW,338,3.4,13.4,73,0.00,,SKC,0.00,VWS V14.01,2013-10-23 09:03:00,
2013-10-23 04:04:00,42.3,34.2,30.15,NW,315,0.0,0.0,73,0.00,,SKC,0.00,VWS V14.01,2013-10-23 09:04:00,
2013-10-23 04:05:00,42.3,34.2,30.15,WSW,248,0.9,3.6,73,0.00,,SKC,0.00,VWS V14.01,2013-10-23 09:05:00,
2013-10-23 04:06:00,42.3,34.2,30.15,NNW,338,2.0,8.1,73,0.00,,SKC,0.00,VWS V14.01,2013-10-23 09:06:00,
2013-10-23 04:07:00,42.1,35.4,30.15,West,270,1.1,4.5,77,0.00,,SKC,0.00,VWS V14.01,2013-10-23 09:07:00,
2013-10-23 04:08:00,42.3,34.2,30.15,West,270,0.0,0.0,73,0.00,,SKC,0.00,VWS V14.01,2013-10-23 09:08:00,
2013-10-23 04:09:00,42.3,34.2,30.15,SW,225,0.0,0.0,73,0.00,,SKC,0.00,VWS V14.01,2013-10-23 09:09:00,
2013-10-23 04:10:00,42.3,34.2,30.15,WSW,248,3.4,13.4,73,0.00,,SKC,0.00,VWS V14.01,2013-10-23 09:10:00,
2013-10-23 04:11:00,42.3,34.2,30.15,West,270,1.3,5.4,73,0.00,,SKC,0.00,VWS V14.01,2013-10-23 09:11:00,
2013-10-23 04:12:00,42.1,35.4,30.15,West,270,0.0,0.0,77,0.00,,SKC,0.00,VWS V14.01,2013-10-23 09:12:00,
2013-10-23 04:13:00,42.3,34.6,30.15,East,90,2.7,10.7,74,0.00,,SKC,0.00,VWS V14.01,2013-10-23 09:13:00,
2013-10-23 04:14:00,42.3,34.6,30.15,North,0,2.5,9.8,74,0.00,,SKC,0.00,VWS V14.01,2013-10-23 09:14:00,
2013-10-23 04:15:00,42.3,34.6,30.15,West,270,0.9,3.6,74,0.00,,SKC,0.00,VWS V14.01,2013-10-23 09:15:00,
2013-10-23 04:16:00,42.3,34.6,30.15,North,0,2.7,10.7,74,0.00,,SKC,0.00,VWS V14.01,2013-10-23 09:16:00,
2013-10-23 04:17:00,42.1,35.4,30.15,NW,315,1.1,4.5,77,0.00,,SKC,0.00,VWS V14.01,2013-10-23 09:17:00,
2013-10-23 04:18:00,42.3,34.6,30.15,West,270,2.5,9.8,74,0.00,,SKC,0.00,VWS V14.01,2013-10-23 09:18:00,
2013-10-23 04:19:00,42.3,34.6,30.15,West,270,0.0,0.0,74,0.00,,SKC,0.00,VWS V14.01,2013-10-23 09:19:00,
2013-10-23 04:20:00,42.3,34.6,30.15,West,270,0.0,0.0,74,0.00,,SKC,0.00,VWS V14.01,2013-10-23 09:20:00,
2013-10-23 04:21:00,42.3,34.6,30.15,West,270,0.0,0.0,74,0.00,,SKC,0.00,VWS V14.01,2013-10-23 09:21:00,
2013-10-23 04:22:00,42.1,35.4,30.15,NW,315,2.9,11.6,77,0.00,,SKC,0.00,VWS V14.01,2013-10-23 09:22:00,
2013-10-23 04:23:00,42.3,34.6,30.15,West,270,1.1,4.5,74,0.00,,SKC,0.00,VWS V14.01,2013-10-23 09:23:00,
2013-10-23 04:24:00,42.3,34.6,30.15,North,0,2.0,8.1,74,0.00,,SKC,0.00,VWS V14.01,2013-10-23 09:24:00,
2013-10-23 04:25:00,42.3,34.6,30.15,West,270,1.6,6.3,74,0.00,,SKC,0.00,VWS V14.01,2013-10-23 09:25:00,
2013-10-23 04:26:00,42.3,34.6,30.15,SSE,158,0.0,0.0,74,0.00,,SKC,0.00,VWS V14.01,2013-10-23 09:26:00,
2013-10-23 04:27:00,42.1,35.4,30.15,SE,135,0.0,0.0,77,0.00,,SKC,0.00,VWS V14.01,2013-10-23 09:27:00,
2013-10-23 04:28:00,42.3,34.9,30.15,WNW,292,1.1,4.5,75,0.00,,SKC,0.00,VWS V14.01,2013-10-23 09:28:00,
2013-10-23 04:29:00,42.3,34.9,30.15,WNW,292,2.9,11.6,75,0.00,,SKC,0.00,VWS V14.01,2013-10-23 09:29:00,
2013-10-23 04:30:00,42.3,34.9,30.15,NNE,22,2.0,8.1,75,0.00,,SKC,0.00,VWS V14.01,2013-10-23 09:30:00,
2013-10-23 04:31:00,42.3,34.9,30.15,WNW,292,1.3,5.4,75,0.00,,SKC,0.00,VWS V14.01,2013-10-23 09:31:00,
2013-10-23 04:32:00,42.1,35.4,30.15,NNE,22,0.0,0.0,77,0.00,,SKC,0.00,VWS V14.01,2013-10-23 09:32:00,
2013-10-23 04:33:00,42.3,34.9,30.15,WNW,292,0.0,0.0,75,0.00,,SKC,0.00,VWS V14.01,2013-10-23 09:33:00,
2013-10-23 04:34:00,42.3,34.9,30.15,NNE,22,0.9,3.6,75,0.00,,SKC,0.00,VWS V14.01,2013-10-23 09:34:00,
2013-10-23 04:35:00,42.3,34.9,30.15,WSW,248,1.6,6.3,75,0.00,,SKC,0.00,VWS V14.01,2013-10-23 09:35:00,
2013-10-23 04:36:00,42.3,34.9,30.15,SW,225,3.6,14.3,75,0.00,,SKC,0.00,VWS V14.01,2013-10-23 09:36:00,
2013-10-23 04:37:00,42.1,35.4,30.15,SW,225,2.2,9.0,77,0.00,,SKC,0.00,VWS V14.01,2013-10-23 09:37:00,
2013-10-23 04:38:00,42.3,34.9,30.15,NW,315,0.9,3.6,75,0.00,,SKC,0.00,VWS V14.01,2013-10-23 09:38:00,
2013-10-23 04:39:00,42.3,34.9,30.15,WNW,292,1.1,4.5,75,0.00,,SKC,0.00,VWS V14.01,2013-10-23 09:39:00,
2013-10-23 04:40:00,42.3,34.9,30.15,WSW,248,2.9,11.6,75,0.00,,SKC,0.00,VWS V14.01,2013-10-23 09:40:00,
2013-10-23 04:41:00,42.3,35.2,30.15,West,270,0.0,0.0,76,0.00,,SKC,0.00,VWS V14.01,2013-10-23 09:41:00,
2013-10-23 04:42:00,42.1,35.4,30.15,SSW,202,0.0,0.0,77,0.00,,SKC,0.00,VWS V14.01,2013-10-23 09:42:00,
2013-10-23 04:43:00,42.3,35.2,30.15,NW,315,2.7,10.7,76,0.00,,SKC,0.00,VWS V14.01,2013-10-23 09:43:00,
2013-10-23 04:44:00,42.3,35.2,30.15,WSW,248,2.9,11.6,76,0.00,,SKC,0.00,VWS V14.01,2013-10-23 09:44:00,
2013-10-23 04:45:00,42.3,35.2,30.15,West,270,0.0,0.0,76,0.00,,SKC,0.00,VWS V14.01,2013-10-23 09:45:00,
2013-10-23 04:46:00,42.3,35.2,30.15,SSE,158,0.9,3.6,76,0.00,,SKC,0.00,VWS V14.01,2013-10-23 09:46:00,
2013-10-23 04:47:00,42.1,35.4,30.15,West,270,1.1,4.5,77,0.00,,SKC,0.00,VWS V14.01,2013-10-23 09:47:00,
2013-10-23 04:48:00,42.3,35.2,30.15,NNW,338,0.0,0.0,76,0.00,,SKC,0.00,VWS V14.01,2013-10-23 09:48:00,
2013-10-23 04:49:00,42.3,35.2,30.15,ENE,68,1.1,4.5,76,0.00,,SKC,0.00,VWS V14.01,2013-10-23 09:49:00,
2013-10-23 04:50:00,42.3,35.2,30.15,NW,315,0.0,0.0,76,0.00,,SKC,0.00,VWS V14.01,2013-10-23 09:50:00,
2013-10-23 04:51:00,42.3,35.2,30.15,NW,315,1.1,4.5,76,0.00,,SKC,0.00,VWS V14.01,2013-10-23 09:51:00,
2013-10-23 04:52:00,42.1,35.7,30.15,WSW,248,0.9,3.6,78,0.00,,SKC,0.00,VWS V14.01,2013-10-23 09:52:00,
2013-10-23 04:53:00,42.3,35.2,30.15,WNW,292,2.5,9.8,76,0.00,,SKC,0.00,VWS V14.01,2013-10-23 09:53:00,
2013-10-23 04:54:00,42.3,35.2,30.15,NW,315,0.0,0.0,76,0.00,,SKC,0.00,VWS V14.01,2013-10-23 09:54:00,
2013-10-23 04:55:00,42.3,35.2,30.15,WNW,292,0.0,0.0,76,0.00,,SKC,0.00,VWS V14.01,2013-10-23 09:55:00,
2013-10-23 04:56:00,42.3,35.2,30.15,North,0,2.7,10.7,76,0.00,,SKC,0.00,VWS V14.01,2013-10-23 09:56:00,
2013-10-23 04:57:00,42.1,35.7,30.15,North,0,0.9,3.6,78,0.00,,SKC,0.00,VWS V14.01,2013-10-23 09:57:00,
2013-10-23 04:58:00,42.3,35.2,30.15,WNW,292,0.0,0.0,76,0.00,,SKC,0.00,VWS V14.01,2013-10-23 09:58:00,
2013-10-23 04:59:00,42.1,35.1,30.15,West,270,0.9,3.6,76,0.00,,SKC,0.00,VWS V14.01,2013-10-23 09:59:00,
2013-10-23 05:00:00,42.1,35.1,30.15,NW,315,1.1,4.5,76,0.00,,SKC,0.00,VWS V14.01,2013-10-23 10:00:00,
2013-10-23 05:01:00,42.1,35.1,30.15,NE,45,0.0,0.0,76,0.00,,SKC,0.00,VWS V14.01,2013-10-23 10:01:00,
2013-10-23 05:02:00,41.4,36.0,30.15,West,270,0.9,3.6,81,0.00,,SKC,0.00,VWS V14.01,2013-10-23 10:02:00,
2013-10-23 05:03:00,42.1,35.1,30.15,East,90,2.0,8.1,76,0.00,,SKC,0.00,VWS V14.01,2013-10-23 10:03:00,
2013-10-23 05:04:00,42.1,35.1,30.15,NNW,338,1.3,5.4,76,0.00,,SKC,0.00,VWS V14.01,2013-10-23 10:04:00,
2013-10-23 05:05:00,42.1,35.1,30.15,WNW,292,0.0,0.0,76,0.00,,SKC,0.00,VWS V14.01,2013-10-23 10:05:00,
2013-10-23 05:06:00,42.1,35.1,30.15,WSW,248,0.0,0.0,76,0.00,,SKC,0.00,VWS V14.01,2013-10-23 10:06:00,
2013-10-23 05:07:00,41.0,35.9,30.18,NE,45,3.6,14.3,82,0.00,,SKC,0.00,VWS V14.01,2013-10-23 10:07:00,
2013-10-23 05:08:00,42.3,35.2,30.15,North,0,3.1,12.5,76,0.00,,SKC,0.00,VWS V14.01,2013-10-23 10:08:00,
2013-10-23 05:09:00,42.1,35.1,30.15,SSE,158,1.6,6.3,76,0.00,,SKC,0.00,VWS V14.01,2013-10-23 10:09:00,
2013-10-23 05:10:00,42.1,35.4,30.15,NNE,22,4.0,16.1,77,0.00,,SKC,0.00,VWS V14.01,2013-10-23 10:10:00,
2013-10-23 05:11:00,42.1,35.4,30.15,WSW,248,1.3,5.4,77,0.00,,SKC,0.00,VWS V14.01,2013-10-23 10:11:00,
2013-10-23 05:12:00,40.6,36.5,30.18,North,0,1.1,4.5,85,0.00,,SKC,0.00,VWS V14.01,2013-10-23 10:12:00,
2013-10-23 05:13:00,42.1,35.4,30.15,WNW,292,0.0,0.0,77,0.00,,SKC,0.00,VWS V14.01,2013-10-23 10:13:00,
2013-10-23 05:14:00,42.1,35.4,30.15,SW,225,0.0,0.0,77,0.00,,SKC,0.00,VWS V14.01,2013-10-23 10:14:00,
2013-10-23 05:15:00,42.1,35.1,30.15,WNW,292,3.1,12.5,76,0.00,,SKC,0.00,VWS V14.01,2013-10-23 10:15:00,
2013-10-23 05:16:00,42.1,35.1,30.15,NW,315,2.7,10.7,76,0.00,,SKC,0.00,VWS V14.01,2013-10-23 10:16:00,
2013-10-23 05:17:00,40.5,36.3,30.18,WNW,292,2.5,9.8,85,0.04,,SKC,0.04,VWS V14.01,2013-10-23 10:17:00,
2013-10-23 05:18:00,42.1,35.4,30.15,SW,225,1.6,6.3,77,0.00,,SKC,0.00,VWS V14.01,2013-10-23 10:18:00,
2013-10-23 05:19:00,42.1,35.4,30.15,WNW,292,2.7,10.7,77,0.00,,SKC,0.00,VWS V14.01,2013-10-23 10:19:00,
2013-10-23 05:20:00,42.1,35.4,30.15,WNW,292,1.1,4.5,77,0.00,,SKC,0.00,VWS V14.01,2013-10-23 10:20:00,
2013-10-23 05:21:00,42.1,35.4,30.15,NW,315,0.9,3.6,77,0.00,,SKC,0.00,VWS V14.01,2013-10-23 10:21:00,
2013-10-23 05:22:00,40.1,36.0,30.15,West,270,0.9,3.6,85,0.04,,SKC,0.04,VWS V14.01,2013-10-23 10:22:00,
2013-10-23 05:23:00,42.1,35.4,30.15,West,270,1.6,6.3,77,0.00,,SKC,0.00,VWS V14.01,2013-10-23 10:23:00,
2013-10-23 05:24:00,42.1,35.4,30.15,West,270,1.6,6.3,77,0.00,,SKC,0.00,VWS V14.01,2013-10-23 10:24:00,
2013-10-23 05:25:00,42.1,35.4,30.15,WSW,248,2.9,11.6,77,0.00,,SKC,0.00,VWS V14.01,2013-10-23 10:25:00,
2013-10-23 05:26:00,42.1,35.4,30.15,NNW,338,5.8,23.3,77,0.00,,SKC,0.00,VWS V14.01,2013-10-23 10:26:00,
2013-10-23 05:27:00,39.9,35.8,30.15,WNW,292,1.1,4.5,85,0.04,,SKC,0.04,VWS V14.01,2013-10-23 10:27:00,
2013-10-23 05:28:00,42.1,35.4,30.15,West,270,2.5,9.8,77,0.00,,SKC,0.00,VWS V14.01,2013-10-23 10:28:00,
2013-10-23 05:29:00,42.1,35.4,30.15,NW,315,1.3,5.4,77,0.00,,SKC,0.00,VWS V14.01,2013-10-23 10:29:00,
2013-10-23 05:30:00,42.1,35.4,30.15,NNE,22,0.9,3.6,77,0.00,,SKC,0.00,VWS V14.01,2013-10-23 10:30:00,
2013-10-23 05:31:00,42.1,35.4,30.15,NNW,338,1.3,5.4,77,0.00,,SKC,0.00,VWS V14.01,2013-10-23 10:31:00,
2013-10-23 05:32:00,39.9,35.8,30.15,NNW,338,0.9,3.6,85,0.04,,SKC,0.04,VWS V14.01,2013-10-23 10:32:00,
2013-10-23 05:33:00,42.1,35.4,30.15,WNW,292,0.9,3.6,77,0.00,,SKC,0.00,VWS V14.01,2013-10-23 10:33:00,
2013-10-23 05:34:00,42.1,35.4,30.15,WNW,292,2.9,11.6,77,0.00,,SKC,0.00,VWS V14.01,2013-10-23 10:34:00,
2013-10-23 05:35:00,42.1,35.4,30.15,WSW,248,0.0,0.0,77,0.00,,SKC,0.00,VWS V14.01,2013-10-23 10:35:00,
2013-10-23 05:36:00,42.1,35.4,30.15,NE,45,1.6,6.3,77,0.00,,SKC,0.00,VWS V14.01,2013-10-23 10:36:00,
2013-10-23 05:37:00,39.4,35.2,30.18,SW,225,0.0,0.0,85,0.04,,SKC,0.04,VWS V14.01,2013-10-23 10:37:00,
2013-10-23 05:38:00,42.1,35.4,30.15,North,0,0.9,3.6,77,0.00,,SKC,0.00,VWS V14.01,2013-10-23 10:38:00,
2013-10-23 05:39:00,42.1,35.4,30.15,North,0,2.7,10.7,77,0.00,,SKC,0.00,VWS V14.01,2013-10-23 10:39:00,
2013-10-23 05:40:00,42.1,35.4,30.15,West,270,1.1,4.5,77,0.00,,SKC,0.00,VWS V14.01,2013-10-23 10:40:00,
2013-10-23 05:41:00,42.1,35.4,30.15,SW,225,1.3,5.4,77,0.00,,SKC,0.00,VWS V14.01,2013-10-23 10:41:00,
2013-10-23 05:42:00,39.2,35.1,30.18,WSW,248,1.1,4.5,85,0.04,,SKC,0.04,VWS V14.01,2013-10-23 10:42:00,
2013-10-23 05:43:00,42.1,35.4,30.15,NNW,338,2.0,8.1,77,0.00,,SKC,0.00,VWS V14.01,2013-10-23 10:43:00,
2013-10-23 05:44:00,42.1,35.4,30.15,North,0,1.6,6.3,77,0.00,,SKC,0.00,VWS V14.01,2013-10-23 10:44:00,
2013-10-23 05:45:00,42.1,35.4,30.15,NNE,22,2.7,10.7,77,0.00,,SKC,0.00,VWS V14.01,2013-10-23 10:45:00,
2013-10-23 05:46:00,42.1,35.4,30.15,WSW,248,0.0,0.0,77,0.00,,SKC,0.00,VWS V14.01,2013-10-23 10:46:00,
2013-10-23 05:47:00,39.0,35.2,30.18,WSW,248,4.0,16.1,86,0.04,,SKC,0.04,VWS V14.01,2013-10-23 10:47:00,
2013-10-23 05:48:00,42.1,35.4,30.15,SW,225,2.2,9.0,77,0.00,,SKC,0.00,VWS V14.01,2013-10-23 10:48:00,
2013-10-23 05:49:00,42.1,35.4,30.15,WSW,248,0.0,0.0,77,0.00,,SKC,0.00,VWS V14.01,2013-10-23 10:49:00,
2013-10-23 05:50:00,42.1,35.4,30.15,West,270,0.0,0.0,77,0.00,,SKC,0.00,VWS V14.01,2013-10-23 10:50:00,
2013-10-23 05:51:00,42.1,35.4,30.15,NE,45,2.0,8.1,77,0.00,,SKC,0.00,VWS V14.01,2013-10-23 10:51:00,
2013-10-23 05:52:00,38.8,35.0,30.18,West,270,1.6,6.3,86,0.04,,SKC,0.04,VWS V14.01,2013-10-23 10:52:00,
2013-10-23 05:53:00,42.1,35.4,30.15,SSW,202,0.0,0.0,77,0.00,,SKC,0.00,VWS V14.01,2013-10-23 10:53:00,
2013-10-23 05:54:00,42.1,35.4,30.15,NNE,22,0.9,3.6,77,0.00,,SKC,0.00,VWS V14.01,2013-10-23 10:54:00,
2013-10-23 05:55:00,42.1,35.4,30.15,West,270,0.9,3.6,77,0.00,,SKC,0.00,VWS V14.01,2013-10-23 10:55:00,
2013-10-23 05:56:00,42.1,35.4,30.15,NW,315,1.1,4.5,77,0.00,,SKC,0.00,VWS V14.01,2013-10-23 10:56:00,
2013-10-23 05:57:00,38.7,34.8,30.18,WSW,248,3.6,14.3,86,0.04,,SKC,0.04,VWS V14.01,2013-10-23 10:57:00,
2013-10-23 05:58:00,42.1,35.4,30.15,WSW,248,3.1,12.5,77,0.00,,SKC,0.00,VWS V14.01,2013-10-23 10:58:00,
2013-10-23 05:59:00,42.1,35.4,30.15,West,270,2.0,8.1,77,0.00,,SKC,0.00,VWS V14.01,2013-10-23 10:59:00,
2013-10-23 06:00:00,42.1,35.4,30.15,North,0,1.6,6.3,77,0.00,,SKC,0.00,VWS V14.01,2013-10-23 11:00:00,
2013-10-23 06:01:00,42.1,35.4,30.15,North,0,1.1,4.5,77,0.00,,SKC,0.00,VWS V14.01,2013-10-23 11:01:00,
2013-10-23 06:02:00,38.7,35.1,30.18,WSW,248,1.6,6.3,87,0.04,,SKC,0.04,VWS V14.01,2013-10-23 11:02:00,
2013-10-23 06:03:00,42.1,35.7,30.15,North,0,0.0,0.0,78,0.00,,SKC,0.00,VWS V14.01,2013-10-23 11:03:00,
2013-10-23 06:04:00,42.1,35.7,30.15,NNE,22,1.6,6.3,78,0.00,,SKC,0.00,VWS V14.01,2013-10-23 11:04:00,
2013-10-23 06:05:00,42.1,35.7,30.15,West,270,1.3,5.4,78,0.00,,SKC,0.00,VWS V14.01,2013-10-23 11:05:00,
2013-10-23 06:06:00,42.1,35.7,30.15,WSW,248,1.1,4.5,78,0.00,,SKC,0.00,VWS V14.01,2013-10-23 11:06:00,
2013-10-23 06:07:00,38.7,35.1,30.18,WSW,248,2.7,10.7,87,0.04,,SKC,0.04,VWS V14.01,2013-10-23 11:07:00,
2013-10-23 06:08:00,41.9,35.9,30.15,North,0,4.0,16.1,79,0.00,,SKC,0.00,VWS V14.01,2013-10-23 11:08:00,
2013-10-23 06:09:00,41.7,36.0,30.15,SW,225,1.1,4.5,80,0.00,,SKC,0.00,VWS V14.01,2013-10-23 11:09:00,
2013-10-23 06:10:00,41.7,36.0,30.15,WNW,292,3.4,13.4,80,0.00,,SKC,0.00,VWS V14.01,2013-10-23 11:10:00,
2013-10-23 06:11:00,41.5,36.2,30.15,North,0,1.3,5.4,81,0.00,,SKC,0.00,VWS V14.01,2013-10-23 11:11:00,
2013-10-23 06:12:00,38.5,35.0,30.18,WSW,248,0.9,3.6,87,0.04,,SKC,0.04,VWS V14.01,2013-10-23 11:12:00,
2013-10-23 06:13:00,41.4,36.0,30.15,West,270,0.9,3.6,81,0.00,,SKC,0.00,VWS V14.01,2013-10-23 11:13:00,
2013-10-23 06:14:00,41.2,36.1,30.18,NNE,22,3.1,12.5,82,0.00,,SKC,0.00,VWS V14.01,2013-10-23 11:14:00,
2013-10-23 06:15:00,41.2,36.1,30.18,WSW,248,0.0,0.0,82,0.00,,SKC,0.00,VWS V14.01,2013-10-23 11:15:00,
2013-10-23 06:16:00,41.2,36.1,30.18,SSW,202,2.0,8.1,82,0.00,,SKC,0.00,VWS V14.01,2013-10-23 11:16:00,
2013-10-23 06:17:00,38.5,35.0,30.18,NW,315,0.0,0.0,87,0.04,,SKC,0.04,VWS V14.01,2013-10-23 11:17:00,
2013-10-23 06:18:00,41.0,35.9,30.18,NNW,338,3.4,13.4,82,0.00,,SKC,0.00,VWS V14.01,2013-10-23 11:18:00,
2013-10-23 06:19:00,40.8,36.4,30.18,NNE,22,1.6,6.3,84,0.00,,SKC,0.00,VWS V14.01,2013-10-23 11:19:00,
2013-10-23 06:20:00,40.8,36.4,30.18,ENE,68,2.9,11.6,84,0.00,,SKC,0.00,VWS V14.01,2013-10-23 11:20:00,
2013-10-23 06:21:00,40.8,36.4,30.18,NW,315,1.6,6.3,84,0.00,,SKC,0.00,VWS V14.01,2013-10-23 11:21:00,
2013-10-23 06:22:00,38.3,34.8,30.18,WNW,292,1.3,5.4,87,0.00,,SKC,0.04,VWS V14.01,2013-10-23 11:22:00,
2013-10-23 06:23:00,40.6,36.5,30.18,North,0,1.1,4.5,85,0.00,,SKC,0.00,VWS V14.01,2013-10-23 11:23:00,
2013-10-23 06:24:00,40.6,36.5,30.18,SW,225,1.1,4.5,85,0.00,,SKC,0.00,VWS V14.01,2013-10-23 11:24:00,
2013-10-23 06:25:00,40.6,36.5,30.18,NW,315,2.0,8.1,85,0.00,,SKC,0.00,VWS V14.01,2013-10-23 11:25:00,
2013-10-23 06:26:00,40.5,36.3,30.18,WSW,248,0.0,0.0,85,0.00,,SKC,0.00,VWS V14.01,2013-10-23 11:26:00,
2013-10-23 06:27:00,38.3,34.8,30.18,SSW,202,0.0,0.0,87,0.00,,SKC,0.04,VWS V14.01,2013-10-23 11:27:00,
2013-10-23 06:28:00,40.5,36.3,30.18,West,270,1.6,6.3,85,0.04,,SKC,0.04,VWS V14.01,2013-10-23 11:28:00,
2013-10-23 06:29:00,40.3,36.1,30.15,WNW,292,2.9,11.6,85,0.04,,SKC,0.04,VWS V14.01,2013-10-23 11:29:00,
2013-10-23 06:30:00,40.3,36.1,30.15,West,270,2.7,10.7,85,0.04,,SKC,0.04,VWS V14.01,2013-10-23 11:30:00,
2013-10-23 06:31:00,40.3,36.1,30.15,NW,315,0.0,0.0,85,0.04,,SKC,0.04,VWS V14.01,2013-10-23 11:31:00,
2013-10-23 06:32:00,38.1,34.6,30.18,WSW,248,2.0,8.1,87,0.00,,SKC,0.04,VWS V14.01,2013-10-23 11:32:00,
2013-10-23 06:33:00,40.1,36.0,30.15,WSW,248,1.1,4.5,85,0.04,,SKC,0.04,VWS V14.01,2013-10-23 11:33:00,
2013-10-23 06:34:00,40.1,36.0,30.15,WNW,292,2.0,8.1,85,0.04,,SKC,0.04,VWS V14.01,2013-10-23 11:34:00,
2013-10-23 06:35:00,39.9,35.8,30.15,WNW,292,0.0,0.0,85,0.04,,SKC,0.04,VWS V14.01,2013-10-23 11:35:00,
2013-10-23 06:36:00,39.9,35.8,30.15,NW,315,0.0,0.0,85,0.04,,SKC,0.04,VWS V14.01,2013-10-23 11:36:00,
2013-10-23 06:37:00,38.1,34.6,30.18,WSW,248,0.0,0.0,87,0.00,,SKC,0.04,VWS V14.01,2013-10-23 11:37:00,
2013-10-23 06:38:00,39.9,35.8,30.15,WNW,292,1.1,4.5,85,0.04,,SKC,0.04,VWS V14.01,2013-10-23 11:38:00,
2013-10-23 06:39:00,39.9,35.8,30.15,WNW,292,0.0,0.0,85,0.04,,SKC,0.04,VWS V14.01,2013-10-23 11:39:00,
2013-10-23 06:40:00,39.9,35.8,30.15,WNW,292,0.0,0.0,85,0.04,,SKC,0.04,VWS V14.01,2013-10-23 11:40:00,
2013-10-23 06:41:00,39.9,35.8,30.15,WSW,248,0.0,0.0,85,0.04,,SKC,0.04,VWS V14.01,2013-10-23 11:41:00,
2013-10-23 06:42:00,37.9,34.4,30.18,SW,225,0.9,3.6,87,0.00,,SKC,0.04,VWS V14.01,2013-10-23 11:42:00,
2013-10-23 06:43:00,39.9,35.8,30.15,ENE,68,1.3,5.4,85,0.04,,SKC,0.04,VWS V14.01,2013-10-23 11:43:00,
2013-10-23 06:44:00,39.6,35.4,30.18,West,270,0.0,0.0,85,0.04,,SKC,0.04,VWS V14.01,2013-10-23 11:44:00,
2013-10-23 06:45:00,39.6,35.4,30.18,SW,225,0.0,0.0,85,0.04,,SKC,0.04,VWS V14.01,2013-10-23 11:45:00,
2013-10-23 06:46:00,39.4,35.3,30.18,North,0,2.0,8.1,85,0.04,,SKC,0.04,VWS V14.01,2013-10-23 11:46:00,
2013-10-23 06:47:00,37.9,34.4,30.18,SSE,158,1.6,6.3,87,0.00,,SKC,0.04,VWS V14.01,2013-10-23 11:47:00,
2013-10-23 06:48:00,39.4,35.3,30.18,SW,225,0.0,0.0,85,0.04,,SKC,0.04,VWS V14.01,2013-10-23 11:48:00,
2013-10-23 06:49:00,39.4,35.3,30.18,West,270,1.1,4.5,85,0.04,,SKC,0.04,VWS V14.01,2013-10-23 11:49:00,
2013-10-23 06:50:00,39.4,35.3,30.18,NW,315,1.1,4.5,85,0.04,,SKC,0.04,VWS V14.01,2013-10-23 11:50:00,
2013-10-23 06:51:00,39.2,35.1,30.18,SW,225,1.6,6.3,85,0.04,,SKC,0.04,VWS V14.01,2013-10-23 11:51:00,
2013-10-23 06:52:00,37.8,34.2,30.21,West,270,2.0,8.1,87,0.00,,SKC,0.04,VWS V14.01,2013-10-23 11:52:00,
2013-10-23 06:53:00,39.2,35.1,30.18,WSW,248,0.0,0.0,85,0.04,,SKC,0.04,VWS V14.01,2013-10-23 11:53:00,
2013-10-23 06:54:00,39.2,35.1,30.18,WSW,248,0.0,0.0,85,0.04,,SKC,0.04,VWS V14.01,2013-10-23 11:54:00,
2013-10-23 06:55:00,39.2,35.1,30.18,WSW,248,0.9,3.6,85,0.04,,SKC,0.04,VWS V14.01,2013-10-23 11:55:00,
2013-10-23 06:56:00,39.2,35.1,30.18,WSW,248,0.9,3.6,85,0.04,,SKC,0.04,VWS V14.01,2013-10-23 11:56:00,
2013-10-23 06:57:00,37.8,34.2,30.21,WNW,292,0.0,0.0,87,0.00,,SKC,0.04,VWS V14.01,2013-10-23 11:57:00,
2013-10-23 06:58:00,39.0,35.2,30.18,West,270,0.0,0.0,86,0.04,,SKC,0.04,VWS V14.01,2013-10-23 11:58:00,
2013-10-23 06:59:00,39.0,35.2,30.18,WNW,292,0.0,0.0,86,0.04,,SKC,0.04,VWS V14.01,2013-10-23 11:59:00,
2013-10-23 07:00:00,38.8,35.0,30.18,WSW,248,2.2,9.0,86,0.04,,SKC,0.04,VWS V14.01,2013-10-23 12:00:00,
2013-10-23 07:01:00,38.8,35.0,30.18,West,270,2.0,8.1,86,0.04,,SKC,0.04,VWS V14.01,2013-10-23 12:01:00,
2013-10-23 07:02:00,37.6,34.1,30.21,West,270,0.0,0.0,87,0.00,,SKC,0.04,VWS V14.01,2013-10-23 12:02:00,
2013-10-23 07:03:00,38.8,35.0,30.18,SW,225,0.0,0.0,86,0.04,,SKC,0.04,VWS V14.01,2013-10-23 12:03:00,
2013-10-23 07:04:00,38.8,35.0,30.18,WNW,292,1.3,5.4,86,0.04,,SKC,0.04,VWS V14.01,2013-10-23 12:04:00,
2013-10-23 07:05:00,38.8,35.0,30.18,NW,315,0.0,0.0,86,0.04,,SKC,0.04,VWS V14.01,2013-10-23 12:05:00,
2013-10-23 07:06:00,38.8,35.0,30.18,NW,315,0.0,0.0,86,0.04,,SKC,0.04,VWS V14.01,2013-10-23 12:06:00,
2013-10-23 07:07:00,37.6,34.1,30.24,WSW,248,0.0,0.0,87,0.00,,SKC,0.04,VWS V14.01,2013-10-23 12:07:00,
2013-10-23 07:08:00,38.7,34.8,30.18,North,0,2.0,8.1,86,0.04,,SKC,0.04,VWS V14.01,2013-10-23 12:08:00,
2013-10-23 07:09:00,38.7,34.8,30.18,NNE,22,1.1,4.5,86,0.04,,SKC,0.04,VWS V14.01,2013-10-23 12:09:00,
2013-10-23 07:10:00,38.7,34.8,30.18,West,270,1.1,4.5,86,0.04,,SKC,0.04,VWS V14.01,2013-10-23 12:10:00,
2013-10-23 07:11:00,38.7,34.8,30.18,SW,225,1.3,5.4,86,0.04,,SKC,0.04,VWS V14.01,2013-10-23 12:11:00,
2013-10-23 07:12:00,37.6,34.1,30.24,West,270,1.3,5.4,87,0.00,,SKC,0.04,VWS V14.01,2013-10-23 12:12:00,
2013-10-23 07:13:00,38.7,35.1,30.18,WSW,248,1.3,5.4,87,0.04,,SKC,0.04,VWS V14.01,2013-10-23 12:13:00,
2013-10-23 07:14:00,38.7,35.1,30.18,NNE,22,2.9,11.6,87,0.04,,SKC,0.04,VWS V14.01,2013-10-23 12:14:00,
2013-10-23 07:15:00,38.7,35.1,30.18,NW,315,2.7,10.7,87,0.04,,SKC,0.04,VWS V14.01,2013-10-23 12:15:00,
2013-10-23 07:16:00,38.7,35.1,30.18,WNW,292,0.0,0.0,87,0.04,,SKC,0.04,VWS V14.01,2013-10-23 12:16:00,
2013-10-23 07:17:00,37.6,34.1,30.24,WSW,248,0.0,0.0,87,0.00,,SKC,0.04,VWS V14.01,2013-10-23 12:17:00,
2013-10-23 07:19:00,38.7,35.1,30.18,WSW,248,2.7,10.7,87,0.04,,SKC,0.04,VWS V14.01,2013-10-23 12:19:00,
2013-10-23 07:20:00,38.7,35.1,30.18,WNW,292,0.0,0.0,87,0.04,,SKC,0.04,VWS V14.01,2013-10-23 12:20:00,
2013-10-23 07:21:00,38.5,35.0,30.18,West,270,1.6,6.3,87,0.04,,SKC,0.04,VWS V14.01,2013-10-23 12:21:00,
2013-10-23 07:22:00,37.4,33.9,30.24,SW,225,0.0,0.0,87,0.00,,SKC,0.04,VWS V14.01,2013-10-23 12:22:00,
2013-10-23 07:23:00,38.5,35.0,30.18,WNW,292,1.3,5.4,87,0.04,,SKC,0.04,VWS V14.01,2013-10-23 12:23:00,
2013-10-23 07:24:00,38.5,35.0,30.18,NE,45,2.0,8.1,87,0.04,,SKC,0.04,VWS V14.01,2013-10-23 12:24:00,
2013-10-23 07:25:00,38.5,35.0,30.18,NW,315,2.5,9.8,87,0.04,,SKC,0.04,VWS V14.01,2013-10-23 12:25:00,
2013-10-23 07:26:00,38.5,35.0,30.18,WNW,292,0.0,0.0,87,0.04,,SKC,0.04,VWS V14.01,2013-10-23 12:26:00,
2013-10-23 07:27:00,37.4,33.9,30.24,West,270,0.9,3.6,87,0.00,,SKC,0.04,VWS V14.01,2013-10-23 12:27:00,
2013-10-23 07:28:00,38.5,35.0,30.18,NW,315,0.0,0.0,87,0.04,,SKC,0.04,VWS V14.01,2013-10-23 12:28:00,
2013-10-23 07:29:00,38.5,35.0,30.18,WNW,292,0.9,3.6,87,0.00,,SKC,0.04,VWS V14.01,2013-10-23 12:29:00,
2013-10-23 07:30:00,38.5,35.0,30.18,WNW,292,0.0,0.0,87,0.00,,SKC,0.04,VWS V14.01,2013-10-23 12:30:00,
2013-10-23 07:31:00,38.3,34.8,30.18,North,0,0.0,0.0,87,0.00,,SKC,0.04,VWS V14.01,2013-10-23 12:31:00,
2013-10-23 07:32:00,37.4,33.9,30.24,North,0,0.9,3.6,87,0.00,,SKC,0.04,VWS V14.01,2013-10-23 12:32:00,
2013-10-23 07:33:00,38.3,34.8,30.18,NNW,338,1.3,5.4,87,0.00,,SKC,0.04,VWS V14.01,2013-10-23 12:33:00,
2013-10-23 07:34:00,38.3,34.8,30.18,North,0,0.0,0.0,87,0.00,,SKC,0.04,VWS V14.01,2013-10-23 12:34:00,
2013-10-23 07:35:00,38.3,34.8,30.18,West,270,1.3,5.4,87,0.00,,SKC,0.04,VWS V14.01,2013-10-23 12:35:00,
2013-10-23 07:36:00,38.3,34.8,30.18,West,270,0.0,0.0,87,0.00,,SKC,0.04,VWS V14.01,2013-10-23 12:36:00,
2013-10-23 07:37:00,37.6,34.3,30.24,WNW,292,3.4,13.4,88,0.00,,SKC,0.04,VWS V14.01,2013-10-23 12:37:00,
2013-10-23 07:38:00,38.1,34.6,30.18,SW,225,0.0,0.0,87,0.00,,SKC,0.04,VWS V14.01,2013-10-23 12:38:00,
2013-10-23 07:39:00,38.1,34.6,30.18,SW,225,0.0,0.0,87,0.00,,SKC,0.04,VWS V14.01,2013-10-23 12:39:00,
2013-10-23 07:40:00,38.1,34.6,30.18,West,270,2.5,9.8,87,0.00,,SKC,0.04,VWS V14.01,2013-10-23 12:40:00,
2013-10-23 07:41:00,38.1,34.6,30.18,NNW,338,0.0,0.0,87,0.00,,SKC,0.04,VWS V14.01,2013-10-23 12:41:00,
2013-10-23 07:42:00,37.6,34.3,30.24,West,270,1.6,6.3,88,0.00,,SKC,0.04,VWS V14.01,2013-10-23 12:42:00,
2013-10-23 07:43:00,38.1,34.6,30.18,NW,315,1.1,4.5,87,0.00,,SKC,0.04,VWS V14.01,2013-10-23 12:43:00,
2013-10-23 07:44:00,38.1,34.6,30.18,West,270,1.1,4.5,87,0.00,,SKC,0.04,VWS V14.01,2013-10-23 12:44:00,
2013-10-23 07:45:00,38.1,34.6,30.18,West,270,0.9,3.6,87,0.00,,SKC,0.04,VWS V14.01,2013-10-23 12:45:00,
2013-10-23 07:46:00,38.1,34.6,30.18,WSW,248,0.0,0.0,87,0.00,,SKC,0.04,VWS V14.01,2013-10-23 12:46:00,
2013-10-23 07:47:00,37.4,34.2,30.24,WNW,292,0.9,3.6,88,0.00,,SKC,0.04,VWS V14.01,2013-10-23 12:47:00,
2013-10-23 07:48:00,38.1,34.6,30.18,WSW,248,0.0,0.0,87,0.00,,SKC,0.04,VWS V14.01,2013-10-23 12:48:00,
2013-10-23 07:49:00,38.1,34.6,30.18,West,270,2.0,8.1,87,0.00,,SKC,0.04,VWS V14.01,2013-10-23 12:49:00,
2013-10-23 07:50:00,38.1,34.6,30.18,North,0,0.0,0.0,87,0.00,,SKC,0.04,VWS V14.01,2013-10-23 12:50:00,
2013-10-23 07:51:00,38.1,34.6,30.18,North,0,0.0,0.0,87,0.00,,SKC,0.04,VWS V14.01,2013-10-23 12:51:00,
2013-10-23 07:52:00,37.6,34.3,30.24,West,270,3.6,14.3,88,0.00,,SKC,0.04,VWS V14.01,2013-10-23 12:52:00,
2013-10-23 07:53:00,37.9,34.4,30.18,SW,225,0.9,3.6,87,0.00,,SKC,0.04,VWS V14.01,2013-10-23 12:53:00,
2013-10-23 07:54:00,37.9,34.4,30.18,North,0,0.0,0.0,87,0.00,,SKC,0.04,VWS V14.01,2013-10-23 12:54:00,
2013-10-23 07:55:00,37.9,34.4,30.18,WNW,292,1.6,6.3,87,0.00,,SKC,0.04,VWS V14.01,2013-10-23 12:55:00,
2013-10-23 07:56:00,37.9,34.4,30.18,NW,315,0.0,0.0,87,0.00,,SKC,0.04,VWS V14.01,2013-10-23 12:56:00,
2013-10-23 07:57:00,37.6,34.3,30.24,NW,315,1.1,4.5,88,0.00,,SKC,0.04,VWS V14.01,2013-10-23 12:57:00,
2013-10-23 07:58:00,37.9,34.4,30.18,West,270,1.1,4.5,87,0.00,,SKC,0.04,VWS V14.01,2013-10-23 12:58:00,
2013-10-23 07:59:00,37.9,34.4,30.21,WSW,248,1.6,6.3,87,0.00,,SKC,0.04,VWS V14.01,2013-10-23 12:59:00,
2013-10-23 08:00:00,37.9,34.4,30.21,WSW,248,0.0,0.0,87,0.00,,SKC,0.04,VWS V14.01,2013-10-23 13:00:00,
2013-10-23 08:01:00,37.9,34.4,30.21,WSW,248,0.0,0.0,87,0.00,,SKC,0.04,VWS V14.01,2013-10-23 13:01:00,
2013-10-23 08:02:00,37.6,34.1,30.24,West,270,0.0,0.0,87,0.00,,SKC,0.04,VWS V14.01,2013-10-23 13:02:00,
2013-10-23 08:03:00,37.8,34.2,30.21,West,270,2.0,8.1,87,0.00,,SKC,0.04,VWS V14.01,2013-10-23 13:03:00,
2013-10-23 08:04:00,37.8,34.2,30.21,North,0,0.0,0.0,87,0.00,,SKC,0.04,VWS V14.01,2013-10-23 13:04:00,
2013-10-23 08:05:00,37.8,34.2,30.21,NNW,338,3.8,15.2,87,0.00,,SKC,0.04,VWS V14.01,2013-10-23 13:05:00,
2013-10-23 08:06:00,37.8,34.2,30.21,WSW,248,0.0,0.0,87,0.00,,SKC,0.04,VWS V14.01,2013-10-23 13:06:00,
2013-10-23 08:07:00,37.6,34.1,30.24,West,270,2.2,9.0,87,0.00,,SKC,0.04,VWS V14.01,2013-10-23 13:07:00,
2013-10-23 08:08:00,37.8,34.2,30.21,West,270,1.3,5.4,87,0.00,,SKC,0.04,VWS V14.01,2013-10-23 13:08:00,
2013-10-23 08:09:00,37.8,34.2,30.21,NNE,22,2.5,9.8,87,0.00,,SKC,0.04,VWS V14.01,2013-10-23 13:09:00,
2013-10-23 08:10:00,37.8,34.2,30.21,WNW,292,1.3,5.4,87,0.00,,SKC,0.04,VWS V14.01,2013-10-23 13:10:00,
2013-10-23 08:11:00,37.6,34.1,30.21,NW,315,0.0,0.0,87,0.00,,SKC,0.04,VWS V14.01,2013-10-23 13:11:00,
2013-10-23 08:12:00,37.8,34.5,30.24,WSW,248,1.1,4.5,88,0.00,,SKC,0.04,VWS V14.01,2013-10-23 13:12:00,
2013-10-23 08:13:00,37.6,34.1,30.21,West,270,0.0,0.0,87,0.00,,SKC,0.04,VWS V14.01,2013-10-23 13:13:00,
2013-10-23 08:14:00,37.6,34.1,30.24,SSW,202,4.0,16.1,87,0.00,,SKC,0.04,VWS V14.01,2013-10-23 13:14:00,
2013-10-23 08:15:00,37.6,34.1,30.24,West,270,0.0,0.0,87,0.00,,SKC,0.04,VWS V14.01,2013-10-23 13:15:00,
2013-10-23 08:16:00,37.6,34.1,30.24,North,0,0.0,0.0,87,0.00,,SKC,0.04,VWS V14.01,2013-10-23 13:16:00,
2013-10-23 08:17:00,37.9,34.7,30.24,WSW,248,2.0,8.1,88,0.00,,SKC,0.04,VWS V14.01,2013-10-23 13:17:00,
2013-10-23 08:18:00,37.6,34.1,30.24,WSW,248,0.0,0.0,87,0.00,,SKC,0.04,VWS V14.01,2013-10-23 13:18:00,
2013-10-23 08:19:00,37.6,34.1,30.24,WNW,292,1.1,4.5,87,0.00,,SKC,0.04,VWS V14.01,2013-10-23 13:19:00,
2013-10-23 08:20:00,37.6,34.1,30.24,NNW,338,2.2,9.0,87,0.00,,SKC,0.04,VWS V14.01,2013-10-23 13:20:00,
2013-10-23 08:21:00,37.6,34.1,30.24,NNW,338,0.0,0.0,87,0.00,,SKC,0.04,VWS V14.01,2013-10-23 13:21:00,
2013-10-23 08:22:00,37.9,34.7,30.24,WSW,248,1.3,5.4,88,0.00,,SKC,0.04,VWS V14.01,2013-10-23 13:22:00,
2013-10-23 08:23:00,37.6,34.1,30.24,West,270,1.3,5.4,87,0.00,,SKC,0.04,VWS V14.01,2013-10-23 13:23:00,
2013-10-23 08:24:00,37.6,34.1,30.24,NW,315,2.2,9.0,87,0.00,,SKC,0.04,VWS V14.01,2013-10-23 13:24:00,
2013-10-23 08:25:00,37.6,34.1,30.24,NW,315,0.0,0.0,87,0.00,,SKC,0.04,VWS V14.01,2013-10-23 13:25:00,
2013-10-23 08:26:00,37.6,34.1,30.24,WSW,248,0.0,0.0,87,0.00,,SKC,0.04,VWS V14.01,2013-10-23 13:26:00,
2013-10-23 08:27:00,38.1,34.9,30.24,SW,225,2.0,8.1,88,0.00,,SKC,0.04,VWS V14.01,2013-10-23 13:27:00,
2013-10-23 08:28:00,37.6,34.1,30.24,WSW,248,0.0,0.0,87,0.00,,SKC,0.04,VWS V14.01,2013-10-23 13:28:00,
2013-10-23 08:29:00,37.6,34.1,30.24,West,270,0.9,3.6,87,0.00,,SKC,0.04,VWS V14.01,2013-10-23 13:29:00,
2013-10-23 08:30:00,37.4,33.9,30.24,SW,225,1.3,5.4,87,0.00,,SKC,0.04,VWS V14.01,2013-10-23 13:30:00,
2013-10-23 08:31:00,37.4,33.9,30.24,WNW,292,2.9,11.6,87,0.00,,SKC,0.04,VWS V14.01,2013-10-23 13:31:00,
2013-10-23 08:32:00,38.3,35.1,30.24,SSW,202,0.0,0.0,88,0.00,,SKC,0.04,VWS V14.01,2013-10-23 13:32:00,
2013-10-23 08:33:00,37.4,33.9,30.24,WSW,248,0.0,0.0,87,0.00,,SKC,0.04,VWS V14.01,2013-10-23 13:33:00,
2013-10-23 08:35:00,37.4,33.9,30.24,SW,225,0.0,0.0,87,0.00,,SKC,0.04,VWS V14.01,2013-10-23 13:35:00,
2013-10-23 08:36:00,37.4,33.9,30.24,West,270,3.6,14.3,87,0.00,,SKC,0.04,VWS V14.01,2013-10-23 13:36:00,
2013-10-23 08:37:00,38.5,35.0,30.24,WSW,248,1.3,5.4,87,0.00,,SKC,0.04,VWS V14.01,2013-10-23 13:37:00,
2013-10-23 08:38:00,37.4,33.9,30.24,West,270,0.9,3.6,87,0.00,,SKC,0.04,VWS V14.01,2013-10-23 13:38:00,
2013-10-23 08:39:00,37.4,33.9,30.24,WSW,248,0.0,0.0,87,0.00,,SKC,0.04,VWS V14.01,2013-10-23 13:39:00,
2013-10-23 08:40:00,37.4,33.9,30.24,NW,315,1.1,4.5,87,0.00,,SKC,0.04,VWS V14.01,2013-10-23 13:40:00,
2013-10-23 08:41:00,37.4,33.9,30.24,NW,315,0.0,0.0,87,0.00,,SKC,0.04,VWS V14.01,2013-10-23 13:41:00,
2013-10-23 08:42:00,38.7,35.1,30.24,WNW,292,2.7,10.7,87,0.00,,SKC,0.04,VWS V14.01,2013-10-23 13:42:00,
2013-10-23 08:43:00,37.4,33.9,30.24,WNW,292,0.9,3.6,87,0.00,,SKC,0.04,VWS V14.01,2013-10-23 13:43:00,
2013-10-23 08:44:00,37.4,33.9,30.24,WNW,292,3.1,12.5,87,0.00,,SKC,0.04,VWS V14.01,2013-10-23 13:44:00,
2013-10-23 08:45:00,37.4,33.9,30.24,West,270,0.9,3.6,87,0.00,,SKC,0.04,VWS V14.01,2013-10-23 13:45:00,
2013-10-23 08:46:00,37.4,33.9,30.24,West,270,2.5,9.8,87,0.00,,SKC,0.04,VWS V14.01,2013-10-23 13:46:00,
2013-10-23 08:47:00,38.8,35.0,30.24,SW,225,0.9,3.6,86,0.00,,SKC,0.04,VWS V14.01,2013-10-23 13:47:00,
2013-10-23 08:48:00,37.6,34.3,30.24,WNW,292,4.0,16.1,88,0.00,,SKC,0.04,VWS V14.01,2013-10-23 13:48:00,
2013-10-23 08:49:00,37.6,34.3,30.24,West,270,0.0,0.0,88,0.00,,SKC,0.04,VWS V14.01,2013-10-23 13:49:00,
2013-10-23 08:50:00,37.6,34.3,30.24,West,270,0.0,0.0,88,0.00,,SKC,0.04,VWS V14.01,2013-10-23 13:50:00,
2013-10-23 08:51:00,37.6,34.3,30.24,WNW,292,0.0,0.0,88,0.00,,SKC,0.04,VWS V14.01,2013-10-23 13:51:00,
2013-10-23 08:52:00,38.8,34.7,30.24,WNW,292,3.1,12.5,85,0.00,,SKC,0.04,VWS V14.01,2013-10-23 13:52:00,
2013-10-23 08:53:00,37.6,34.3,30.24,West,270,1.6,6.3,88,0.00,,SKC,0.04,VWS V14.01,2013-10-23 13:53:00,
2013-10-23 08:54:00,37.6,34.3,30.24,WNW,292,0.0,0.0,88,0.00,,SKC,0.04,VWS V14.01,2013-10-23 13:54:00,
2013-10-23 08:55:00,37.6,34.3,30.24,NW,315,0.9,3.6,88,0.00,,SKC,0.04,VWS V14.01,2013-10-23 13:55:00,
2013-10-23 08:56:00,37.4,34.2,30.24,North,0,0.0,0.0,88,0.00,,SKC,0.04,VWS V14.01,2013-10-23 13:56:00,
2013-10-23 08:57:00,39.0,34.3,30.24,West,270,2.5,9.8,83,0.00,,SKC,0.04,VWS V14.01,2013-10-23 13:57:00,
2013-10-23 08:58:00,37.4,34.2,30.24,WNW,292,0.0,0.0,88,0.00,,SKC,0.04,VWS V14.01,2013-10-23 13:58:00,
2013-10-23 08:59:00,37.6,34.3,30.24,SW,225,0.0,0.0,88,0.00,,SKC,0.04,VWS V14.01,2013-10-23 13:59:00,
2013-10-23 09:00:00,37.6,34.3,30.24,WNW,292,1.6,6.3,88,0.00,,SKC,0.04,VWS V14.01,2013-10-23 14:00:00,
2013-10-23 09:01:00,37.4,34.2,30.24,West,270,0.0,0.0,88,0.00,,SKC,0.04,VWS V14.01,2013-10-23 14:01:00,
2013-10-23 09:02:00,39.4,34.0,30.24,WSW,248,0.9,3.6,81,0.00,,SKC,0.04,VWS V14.01,2013-10-23 14:02:00,
2013-10-23 09:03:00,37.6,34.3,30.24,West,270,3.6,14.3,88,0.00,,SKC,0.04,VWS V14.01,2013-10-23 14:03:00,
2013-10-23 09:04:00,37.6,34.3,30.24,WSW,248,0.0,0.0,88,0.00,,SKC,0.04,VWS V14.01,2013-10-23 14:04:00,
2013-10-23 09:05:00,37.6,34.3,30.24,West,270,0.0,0.0,88,0.00,,SKC,0.04,VWS V14.01,2013-10-23 14:05:00,
2013-10-23 09:07:00,39.4,33.1,30.27,SW,225,2.7,10.7,78,0.00,,SKC,0.04,VWS V14.01,2013-10-23 14:07:00,
2013-10-23 09:08:00,37.6,34.3,30.24,NW,315,1.1,4.5,88,0.00,,SKC,0.04,VWS V14.01,2013-10-23 14:08:00,
2013-10-23 09:09:00,37.6,34.3,30.24,WNW,292,0.0,0.0,88,0.00,,SKC,0.04,VWS V14.01,2013-10-23 14:09:00,
2013-10-23 09:10:00,37.6,34.1,30.24,WSW,248,0.0,0.0,87,0.00,,SKC,0.04,VWS V14.01,2013-10-23 14:10:00,
2013-10-23 09:11:00,37.6,34.1,30.24,WSW,248,1.1,4.5,87,0.00,,SKC,0.04,VWS V14.01,2013-10-23 14:11:00,
2013-10-23 09:12:00,39.7,33.5,30.27,WNW,292,2.0,8.1,78,0.00,,SKC,0.04,VWS V14.01,2013-10-23 14:12:00,
2013-10-23 09:13:00,37.6,34.1,30.24,West,270,0.0,0.0,87,0.00,,SKC,0.04,VWS V14.01,2013-10-23 14:13:00,
2013-10-23 09:15:00,37.6,34.1,30.24,WSW,248,1.3,5.4,87,0.00,,SKC,0.04,VWS V14.01,2013-10-23 14:15:00,
2013-10-23 09:16:00,37.6,34.1,30.24,NW,315,0.9,3.6,87,0.00,,SKC,0.04,VWS V14.01,2013-10-23 14:16:00,
2013-10-23 09:17:00,39.9,33.0,30.27,WSW,248,2.7,10.7,76,0.00,,SKC,0.04,VWS V14.01,2013-10-23 14:17:00,
2013-10-23 09:18:00,37.6,34.1,30.24,West,270,0.0,0.0,87,0.00,,SKC,0.04,VWS V14.01,2013-10-23 14:18:00,
2013-10-23 09:19:00,37.8,34.2,30.24,WSW,248,0.0,0.0,87,0.00,,SKC,0.04,VWS V14.01,2013-10-23 14:19:00,
2013-10-23 09:20:00,37.8,34.5,30.24,WSW,248,1.6,6.3,88,0.00,,SKC,0.04,VWS V14.01,2013-10-23 14:20:00,
2013-10-23 09:21:00,37.8,34.5,30.24,WSW,248,0.0,0.0,88,0.00,,SKC,0.04,VWS V14.01,2013-10-23 14:21:00,
2013-10-23 09:22:00,39.9,32.3,30.27,WSW,248,6.0,24.2,74,0.00,,SKC,0.04,VWS V14.01,2013-10-23 14:22:00,
2013-10-23 09:23:00,37.8,34.5,30.24,WSW,248,1.1,4.5,88,0.00,,SKC,0.04,VWS V14.01,2013-10-23 14:23:00,
2013-10-23 09:24:00,37.8,34.5,30.24,SW,225,1.3,5.4,88,0.00,,SKC,0.04,VWS V14.01,2013-10-23 14:24:00,
2013-10-23 09:25:00,37.9,34.7,30.24,West,270,0.9,3.6,88,0.00,,SKC,0.04,VWS V14.01,2013-10-23 14:25:00,
2013-10-23 09:26:00,37.9,34.7,30.24,West,270,1.1,4.5,88,0.00,,SKC,0.04,VWS V14.01,2013-10-23 14:26:00,
2013-10-23 09:27:00,40.3,33.0,30.27,NNW,338,2.2,9.0,75,0.00,,SKC,0.04,VWS V14.01,2013-10-23 14:27:00,
2013-10-23 09:28:00,37.9,34.7,30.24,WSW,248,2.7,10.7,88,0.00,,SKC,0.04,VWS V14.01,2013-10-23 14:28:00,
2013-10-23 09:29:00,37.9,34.7,30.24,WSW,248,0.0,0.0,88,0.00,,SKC,0.04,VWS V14.01,2013-10-23 14:29:00,
2013-10-23 09:30:00,37.9,34.7,30.24,West,270,0.9,3.6,88,0.00,,SKC,0.04,VWS V14.01,2013-10-23 14:30:00,
2013-10-23 09:31:00,37.9,34.7,30.24,West,270,0.0,0.0,88,0.00,,SKC,0.04,VWS V14.01,2013-10-23 14:31:00,
2013-10-23 09:32:00,40.5,31.5,30.27,WNW,292,3.8,15.2,70,0.00,,SKC,0.04,VWS V14.01,2013-10-23 14:32:00,
2013-10-23 09:33:00,37.9,34.7,30.24,WSW,248,0.0,0.0,88,0.00,,SKC,0.04,VWS V14.01,2013-10-23 14:33:00,
2013-10-23 09:34:00,38.1,34.9,30.24,WNW,292,2.5,9.8,88,0.00,,SKC,0.04,VWS V14.01,2013-10-23 14:34:00,
2013-10-23 09:35:00,38.1,34.9,30.24,SSW,202,2.0,8.1,88,0.00,,SKC,0.04,VWS V14.01,2013-10-23 14:35:00,
2013-10-23 09:36:00,38.1,34.9,30.24,South,180,1.6,6.3,88,0.00,,SKC,0.04,VWS V14.01,2013-10-23 14:36:00,
2013-10-23 09:37:00,40.8,31.8,30.27,NW,315,2.9,11.6,70,0.00,,SKC,0.04,VWS V14.01,2013-10-23 14:37:00,
2013-10-23 09:38:00,38.1,34.9,30.24,SW,225,0.9,3.6,88,0.00,,SKC,0.04,VWS V14.01,2013-10-23 14:38:00,
2013-10-23 09:39:00,38.1,34.9,30.24,SW,225,0.0,0.0,88,0.00,,SKC,0.04,VWS V14.01,2013-10-23 14:39:00,
2013-10-23 09:40:00,38.1,34.9,30.24,WSW,248,1.6,6.3,88,0.00,,SKC,0.04,VWS V14.01,2013-10-23 14:40:00,
2013-10-23 09:41:00,38.3,35.1,30.24,WSW,248,2.9,11.6,88,0.00,,SKC,0.04,VWS V14.01,2013-10-23 14:41:00,
2013-10-23 09:42:00,41.2,32.2,30.27,NW,315,1.6,6.3,70,0.00,,SKC,0.04,VWS V14.01,2013-10-23 14:42:00,
2013-10-23 09:43:00,38.3,35.1,30.24,SSW,202,0.0,0.0,88,0.00,,SKC,0.04,VWS V14.01,2013-10-23 14:43:00,
2013-10-23 09:44:00,38.3,35.1,30.24,SSW,202,0.0,0.0,88,0.00,,SKC,0.04,VWS V14.01,2013-10-23 14:44:00,
2013-10-23 09:45:00,38.3,35.1,30.24,WSW,248,0.0,0.0,88,0.00,,SKC,0.04,VWS V14.01,2013-10-23 14:45:00,
2013-10-23 09:46:00,38.3,35.1,30.24,WNW,292,2.0,8.1,88,0.00,,SKC,0.04,VWS V14.01,2013-10-23 14:46:00,
2013-10-23 09:47:00,41.4,31.2,30.27,West,270,2.9,11.6,67,0.00,,SKC,0.04,VWS V14.01,2013-10-23 14:47:00,
2013-10-23 09:48:00,38.5,35.0,30.24,West,270,2.2,9.0,87,0.00,,SKC,0.04,VWS V14.01,2013-10-23 14:48:00,
2013-10-23 09:49:00,38.5,35.0,30.24,WSW,248,0.0,0.0,87,0.00,,SKC,0.04,VWS V14.01,2013-10-23 14:49:00,
2013-10-23 09:50:00,38.5,35.0,30.24,SW,225,0.0,0.0,87,0.00,,SKC,0.04,VWS V14.01,2013-10-23 14:50:00,
2013-10-23 09:51:00,38.5,35.0,30.24,West,270,0.0,0.0,87,0.00,,SKC,0.04,VWS V14.01,2013-10-23 14:51:00,
2013-10-23 09:52:00,41.7,31.6,30.27,North,0,0.9,3.6,67,0.00,,SKC,0.04,VWS V14.01,2013-10-23 14:52:00,
2013-10-23 09:53:00,38.7,35.1,30.24,WNW,292,2.7,10.7,87,0.00,,SKC,0.04,VWS V14.01,2013-10-23 14:53:00,
2013-10-23 09:54:00,38.7,35.1,30.24,WSW,248,2.2,9.0,87,0.00,,SKC,0.04,VWS V14.01,2013-10-23 14:54:00,
2013-10-23 09:55:00,38.7,35.1,30.24,WNW,292,2.2,9.0,87,0.00,,SKC,0.04,VWS V14.01,2013-10-23 14:55:00,
2013-10-23 09:56:00,38.7,35.1,30.24,NW,315,0.0,0.0,87,0.00,,SKC,0.04,VWS V14.01,2013-10-23 14:56:00,
2013-10-23 09:57:00,41.9,31.8,30.27,WSW,248,0.9,3.6,67,0.00,,SKC,0.04,VWS V14.01,2013-10-23 14:57:00,
2013-10-23 09:58:00,38.8,35.0,30.24,SW,225,1.1,4.5,86,0.00,,SKC,0.04,VWS V14.01,2013-10-23 14:58:00,
2013-10-23 09:59:00,38.8,35.0,30.24,NW,315,1.6,6.3,86,0.00,,SKC,0.04,VWS V14.01,2013-10-23 14:59:00,
2013-10-23 10:00:00,38.8,35.0,30.24,NNE,22,0.0,0.0,86,0.00,,SKC,0.04,VWS V14.01,2013-10-23 15:00:00,
2013-10-23 10:01:00,38.8,35.0,30.24,West,270,0.9,3.6,86,0.00,,SKC,0.04,VWS V14.01,2013-10-23 15:01:00,
2013-10-23 10:02:00,42.3,31.0,30.27,NNW,338,1.1,4.5,64,0.00,,SKC,0.04,VWS V14.01,2013-10-23 15:02:00,
2013-10-23 10:03:00,38.8,34.7,30.24,WNW,292,3.1,12.5,85,0.00,,SKC,0.04,VWS V14.01,2013-10-23 15:03:00,
2013-10-23 10:04:00,39.0,34.9,30.24,WSW,248,3.4,13.4,85,0.00,,SKC,0.04,VWS V14.01,2013-10-23 15:04:00,
2013-10-23 10:05:00,39.0,34.9,30.24,West,270,2.0,8.1,85,0.00,,SKC,0.04,VWS V14.01,2013-10-23 15:05:00,
2013-10-23 10:06:00,39.0,34.6,30.24,West,270,1.3,5.4,84,0.00,,SKC,0.04,VWS V14.01,2013-10-23 15:06:00,
2013-10-23 10:07:00,43.0,30.5,30.27,NE,45,3.6,14.3,61,0.00,,SKC,0.04,VWS V14.01,2013-10-23 15:07:00,
2013-10-23 10:08:00,39.0,34.3,30.24,West,270,2.5,9.8,83,0.00,,SKC,0.04,VWS V14.01,2013-10-23 15:08:00,
2013-10-23 10:09:00,39.2,34.2,30.24,West,270,0.9,3.6,82,0.00,,SKC,0.04,VWS V14.01,2013-10-23 15:09:00,
2013-10-23 10:10:00,39.2,34.2,30.24,WSW,248,2.2,9.0,82,0.00,,SKC,0.04,VWS V14.01,2013-10-23 15:10:00,
2013-10-23 10:11:00,39.2,33.9,30.24,NW,315,1.6,6.3,81,0.00,,SKC,0.04,VWS V14.01,2013-10-23 15:11:00,
2013-10-23 10:12:00,43.0,28.8,30.27,NW,315,1.1,4.5,57,0.00,,SKC,0.04,VWS V14.01,2013-10-23 15:12:00,
2013-10-23 10:13:00,39.4,34.0,30.24,WSW,248,0.9,3.6,81,0.00,,SKC,0.04,VWS V14.01,2013-10-23 15:13:00,
2013-10-23 10:14:00,39.4,34.0,30.27,WSW,248,1.3,5.4,81,0.00,,SKC,0.04,VWS V14.01,2013-10-23 15:14:00,
2013-10-23 10:15:00,39.4,34.0,30.27,WSW,248,3.8,15.2,81,0.00,,SKC,0.04,VWS V14.01,2013-10-23 15:15:00,
2013-10-23 10:16:00,39.4,33.4,30.27,NW,315,0.9,3.6,79,0.00,,SKC,0.04,VWS V14.01,2013-10-23 15:16:00,
2013-10-23 10:17:00,43.5,29.3,30.27,WSW,248,2.2,9.0,57,0.00,,SKC,0.04,VWS V14.01,2013-10-23 15:17:00,
2013-10-23 10:18:00,39.4,33.1,30.27,SW,225,2.7,10.7,78,0.00,,SKC,0.04,VWS V14.01,2013-10-23 15:18:00,
2013-10-23 10:19:00,39.4,33.1,30.27,SW,225,4.0,16.1,78,0.00,,SKC,0.04,VWS V14.01,2013-10-23 15:19:00,
2013-10-23 10:20:00,39.6,33.3,30.27,West,270,1.3,5.4,78,0.00,,SKC,0.04,VWS V14.01,2013-10-23 15:20:00,
2013-10-23 10:21:00,39.6,33.3,30.27,West,270,2.5,9.8,78,0.00,,SKC,0.04,VWS V14.01,2013-10-23 15:21:00,
2013-10-23 10:22:00,44.1,29.4,30.27,North,0,3.1,12.5,56,0.00,,SKC,0.04,VWS V14.01,2013-10-23 15:22:00,
2013-10-23 10:23:00,39.7,33.5,30.27,WNW,292,2.0,8.1,78,0.00,,SKC,0.04,VWS V14.01,2013-10-23 15:23:00,
2013-10-23 10:24:00,39.7,33.5,30.27,SW,225,2.9,11.6,78,0.00,,SKC,0.04,VWS V14.01,2013-10-23 15:24:00,
2013-10-23 10:25:00,39.7,33.1,30.27,West,270,0.0,0.0,77,0.00,,SKC,0.04,VWS V14.01,2013-10-23 15:25:00,
2013-10-23 10:26:00,39.7,33.1,30.27,North,0,0.0,0.0,77,0.00,,SKC,0.04,VWS V14.01,2013-10-23 15:26:00,
2013-10-23 10:27:00,44.6,28.5,30.27,NNW,338,2.2,9.0,53,0.00,,SKC,0.04,VWS V14.01,2013-10-23 15:27:00,
2013-10-23 10:29:00,39.9,33.0,30.27,WSW,248,2.7,10.7,76,0.00,,SKC,0.04,VWS V14.01,2013-10-23 15:29:00,
2013-10-23 10:30:00,39.9,33.0,30.27,NNW,338,2.7,10.7,76,0.00,,SKC,0.04,VWS V14.01,2013-10-23 15:30:00,
2013-10-23 10:31:00,39.9,33.0,30.27,West,270,5.8,23.3,76,0.00,,SKC,0.04,VWS V14.01,2013-10-23 15:31:00,
2013-10-23 10:32:00,39.9,32.7,30.27,WSW,248,3.8,15.2,75,0.00,,SKC,0.04,VWS V14.01,2013-10-23 15:32:00,
2013-10-23 10:33:00,45.7,28.6,30.27,NW,315,0.9,3.6,51,0.00,,SKC,0.04,VWS V14.01,2013-10-23 15:33:00,
2013-10-23 10:34:00,40.1,32.5,30.27,West,270,1.6,6.3,74,0.00,,SKC,0.04,VWS V14.01,2013-10-23 15:34:00,
2013-10-23 10:35:00,40.1,32.5,30.27,WNW,292,0.0,0.0,74,0.00,,SKC,0.04,VWS V14.01,2013-10-23 15:35:00,
2013-10-23 10:36:00,40.3,32.7,30.27,West,270,0.0,0.0,74,0.00,,SKC,0.04,VWS V14.01,2013-10-23 15:36:00,
2013-10-23 10:37:00,40.3,33.0,30.27,NW,315,1.3,5.4,75,0.00,,SKC,0.04,VWS V14.01,2013-10-23 15:37:00,
2013-10-23 10:38:00,46.0,28.5,30.27,NW,315,3.6,14.3,50,0.00,,SKC,0.04,VWS V14.01,2013-10-23 15:38:00,
2013-10-23 10:39:00,40.3,33.0,30.27,WSW,248,3.6,14.3,75,0.00,,SKC,0.04,VWS V14.01,2013-10-23 15:39:00,
2013-10-23 10:40:00,40.3,33.0,30.27,SW,225,3.6,14.3,75,0.00,,SKC,0.04,VWS V14.01,2013-10-23 15:40:00,
2013-10-23 10:41:00,40.5,32.2,30.27,West,270,1.3,5.4,72,0.00,,SKC,0.04,VWS V14.01,2013-10-23 15:41:00,
2013-10-23 10:42:00,40.5,31.8,30.27,SW,225,2.7,10.7,71,0.00,,SKC,0.04,VWS V14.01,2013-10-23 15:42:00,
2013-10-23 10:43:00,46.8,27.6,30.27,WNW,292,2.7,10.7,47,0.00,,SKC,0.04,VWS V14.01,2013-10-23 15:43:00,
2013-10-23 10:44:00,40.6,31.6,30.27,SW,225,1.1,4.5,70,0.00,,SKC,0.04,VWS V14.01,2013-10-23 15:44:00,
2013-10-23 10:45:00,40.6,31.6,30.27,WNW,292,3.1,12.5,70,0.00,,SKC,0.04,VWS V14.01,2013-10-23 15:45:00,
2013-10-23 10:46:00,40.6,32.0,30.27,WSW,248,1.6,6.3,71,0.00,,SKC,0.04,VWS V14.01,2013-10-23 15:46:00,
2013-10-23 10:47:00,40.8,32.2,30.27,West,270,1.3,5.4,71,0.00,,SKC,0.04,VWS V14.01,2013-10-23 15:47:00,
2013-10-23 10:48:00,46.0,27.0,30.30,WSW,248,2.5,9.8,47,0.00,,SKC,0.04,VWS V14.01,2013-10-23 15:48:00,
2013-10-23 10:49:00,40.8,31.8,30.27,NW,315,4.3,17.0,70,0.00,,SKC,0.04,VWS V14.01,2013-10-23 15:49:00,
2013-10-23 10:50:00,41.0,32.0,30.27,NW,315,0.0,0.0,70,0.00,,SKC,0.04,VWS V14.01,2013-10-23 15:50:00,
2013-10-23 10:51:00,41.2,32.2,30.27,WSW,248,0.0,0.0,70,0.00,,SKC,0.04,VWS V14.01,2013-10-23 15:51:00,
2013-10-23 10:52:00,41.2,32.5,30.27,SW,225,6.5,26.0,71,0.00,,SKC,0.04,VWS V14.01,2013-10-23 15:52:00,
2013-10-23 10:53:00,47.7,28.4,30.30,SW,225,2.7,10.7,47,0.00,,SKC,0.04,VWS V14.01,2013-10-23 15:53:00,
2013-10-23 10:54:00,41.2,31.8,30.27,NW,315,1.3,5.4,69,0.00,,SKC,0.04,VWS V14.01,2013-10-23 15:54:00,
2013-10-23 10:55:00,41.2,31.8,30.27,WSW,248,1.6,6.3,69,0.00,,SKC,0.04,VWS V14.01,2013-10-23 15:55:00,
2013-10-23 10:56:00,41.4,32.0,30.27,WNW,292,2.5,9.8,69,0.00,,SKC,0.04,VWS V14.01,2013-10-23 15:56:00,
2013-10-23 10:57:00,41.4,31.6,30.27,NE,45,0.9,3.6,68,0.00,,SKC,0.04,VWS V14.01,2013-10-23 15:57:00,
2013-10-23 10:58:00,47.7,28.4,30.30,NNW,338,2.7,10.7,47,0.00,,SKC,0.04,VWS V14.01,2013-10-23 15:58:00,
2013-10-23 10:59:00,41.4,30.5,30.27,WNW,292,0.0,0.0,65,0.00,,SKC,0.04,VWS V14.01,2013-10-23 15:59:00,
2013-10-23 11:00:00,41.5,31.0,30.27,NNE,22,1.3,5.4,66,0.00,,SKC,0.04,VWS V14.01,2013-10-23 16:00:00,
2013-10-23 11:02:00,41.7,31.6,30.27,NNW,338,0.0,0.0,67,0.00,,SKC,0.04,VWS V14.01,2013-10-23 16:02:00,
2013-10-23 11:03:00,49.1,27.0,30.27,South,180,1.6,6.3,42,0.00,,SKC,0.04,VWS V14.01,2013-10-23 16:03:00,
2013-10-23 11:04:00,41.7,31.6,30.27,WSW,248,1.1,4.5,67,0.00,,SKC,0.04,VWS V14.01,2013-10-23 16:04:00,
2013-10-23 11:05:00,41.9,31.8,30.27,West,270,0.9,3.6,67,0.00,,SKC,0.04,VWS V14.01,2013-10-23 16:05:00,
2013-10-23 11:06:00,41.9,31.8,30.27,WSW,248,0.0,0.0,67,0.00,,SKC,0.04,VWS V14.01,2013-10-23 16:06:00,
2013-10-23 11:07:00,41.9,31.8,30.27,NW,315,1.3,5.4,67,0.00,,SKC,0.04,VWS V14.01,2013-10-23 16:07:00,
2013-10-23 11:08:00,48.9,26.9,30.27,WSW,248,2.0,8.1,42,0.00,,SKC,0.04,VWS V14.01,2013-10-23 16:08:00,
2013-10-23 11:09:00,42.1,31.9,30.27,WSW,248,1.1,4.5,67,0.00,,SKC,0.04,VWS V14.01,2013-10-23 16:09:00,
2013-10-23 11:10:00,42.1,31.9,30.27,WSW,248,0.9,3.6,67,0.00,,SKC,0.04,VWS V14.01,2013-10-23 16:10:00,
2013-10-23 11:11:00,42.3,32.1,30.27,NW,315,2.2,9.0,67,0.00,,SKC,0.04,VWS V14.01,2013-10-23 16:11:00,
2013-10-23 11:12:00,42.3,31.4,30.27,NE,45,1.6,6.3,65,0.00,,SKC,0.04,VWS V14.01,2013-10-23 16:12:00,
2013-10-23 11:13:00,49.3,26.0,30.27,West,270,0.0,0.0,40,0.00,,SKC,0.04,VWS V14.01,2013-10-23 16:13:00,
2013-10-23 11:14:00,42.4,31.1,30.27,West,270,0.9,3.6,64,0.00,,SKC,0.04,VWS V14.01,2013-10-23 16:14:00,
2013-10-23 11:15:00,42.4,31.1,30.27,WSW,248,2.5,9.8,64,0.00,,SKC,0.04,VWS V14.01,2013-10-23 16:15:00,
2013-10-23 11:16:00,42.6,30.9,30.27,NE,45,1.1,4.5,63,0.00,,SKC,0.04,VWS V14.01,2013-10-23 16:16:00,
2013-10-23 11:17:00,42.8,31.1,30.27,North,0,3.8,15.2,63,0.00,,SKC,0.04,VWS V14.01,2013-10-23 16:17:00,
2013-10-23 11:18:00,50.0,27.2,30.27,NW,315,1.3,5.4,41,0.00,,SKC,0.04,VWS V14.01,2013-10-23 16:18:00,
2013-10-23 11:19:00,43.0,30.5,30.27,NNE,22,2.5,9.8,61,0.00,,SKC,0.04,VWS V14.01,2013-10-23 16:19:00,
2013-10-23 11:20:00,43.0,30.1,30.27,SW,225,2.0,8.1,60,0.00,,SKC,0.04,VWS V14.01,2013-10-23 16:20:00,
2013-10-23 11:21:00,43.0,29.6,30.27,West,270,4.3,17.0,59,0.00,,SKC,0.04,VWS V14.01,2013-10-23 16:21:00,
2013-10-23 11:22:00,43.0,28.8,30.27,NE,45,0.0,0.0,57,0.00,,SKC,0.04,VWS V14.01,2013-10-23 16:22:00,
2013-10-23 11:23:00,50.4,27.0,30.27,NNW,338,3.6,14.3,40,0.00,,SKC,0.04,VWS V14.01,2013-10-23 16:23:00,
2013-10-23 11:24:00,43.0,28.8,30.27,West,270,0.9,3.6,57,0.00,,SKC,0.04,VWS V14.01,2013-10-23 16:24:00,
2013-10-23 11:25:00,43.3,29.1,30.27,East,90,0.9,3.6,57,0.00,,SKC,0.04,VWS V14.01,2013-10-23 16:25:00,
2013-10-23 11:26:00,43.3,29.1,30.27,NW,315,2.2,9.0,57,0.00,,SKC,0.04,VWS V14.01,2013-10-23 16:26:00,
2013-10-23 11:27:00,43.3,28.7,30.27,SSE,158,1.3,5.4,56,0.00,,SKC,0.04,VWS V14.01,2013-10-23 16:27:00,
2013-10-23 11:28:00,50.0,26.0,30.27,West,270,3.8,15.2,39,0.00,,SKC,0.04,VWS V14.01,2013-10-23 16:28:00,
2013-10-23 11:29:00,43.5,29.3,30.27,SW,225,5.6,22.4,57,0.00,,SKC,0.04,VWS V14.01,2013-10-23 16:29:00,
2013-10-23 11:30:00,43.7,28.6,30.27,West,270,2.9,11.6,55,0.00,,SKC,0.04,VWS V14.01,2013-10-23 16:30:00,
2013-10-23 11:31:00,43.7,29.0,30.27,NNW,338,2.5,9.8,56,0.00,,SKC,0.04,VWS V14.01,2013-10-23 16:31:00,
2013-10-23 11:32:00,43.9,29.2,30.27,WNW,292,2.9,11.6,56,0.00,,SKC,0.04,VWS V14.01,2013-10-23 16:32:00,
2013-10-23 11:33:00,50.0,26.0,30.27,WSW,248,0.0,0.0,39,0.00,,SKC,0.04,VWS V14.01,2013-10-23 16:33:00,
2013-10-23 11:34:00,44.2,29.1,30.27,WSW,248,0.0,0.0,55,0.00,,SKC,0.04,VWS V14.01,2013-10-23 16:34:00,
2013-10-23 11:35:00,44.2,29.1,30.27,NE,45,3.1,12.5,55,0.00,,SKC,0.04,VWS V14.01,2013-10-23 16:35:00,
2013-10-23 11:36:00,44.2,29.1,30.27,NE,45,3.1,12.5,55,0.00,,SKC,0.04,VWS V14.01,2013-10-23 16:36:00,
2013-10-23 11:37:00,44.6,28.5,30.27,South,180,3.1,12.5,53,0.00,,SKC,0.04,VWS V14.01,2013-10-23 16:37:00,
2013-10-23 11:38:00,51.4,27.3,30.27,South,180,2.5,9.8,39,0.00,,SKC,0.04,VWS V14.01,2013-10-23 16:38:00,
2013-10-23 11:39:00,44.8,28.2,30.27,WSW,248,5.4,21.5,52,0.00,,SKC,0.04,VWS V14.01,2013-10-23 16:39:00,
2013-10-23 11:40:00,45.0,27.5,30.27,NNW,338,2.5,9.8,50,0.00,,SKC,0.04,VWS V14.01,2013-10-23 16:40:00,
2013-10-23 11:41:00,45.1,28.1,30.27,WNW,292,1.1,4.5,51,0.00,,SKC,0.04,VWS V14.01,2013-10-23 16:41:00,
2013-10-23 11:42:00,45.5,28.4,30.27,WSW,248,2.0,8.1,51,0.00,,SKC,0.04,VWS V14.01,2013-10-23 16:42:00,
2013-10-23 11:43:00,51.1,26.4,30.27,WSW,248,0.0,0.0,38,0.00,,SKC,0.04,VWS V14.01,2013-10-23 16:43:00,
2013-10-23 11:44:00,45.9,28.3,30.27,West,270,2.9,11.6,50,0.00,,SKC,0.04,VWS V14.01,2013-10-23 16:44:00,
2013-10-23 11:45:00,45.9,28.3,30.27,WSW,248,3.1,12.5,50,0.00,,SKC,0.04,VWS V14.01,2013-10-23 16:45:00,
2013-10-23 11:46:00,45.9,28.3,30.27,WSW,248,2.7,10.7,50,0.00,,SKC,0.04,VWS V14.01,2013-10-23 16:46:00,
2013-10-23 11:47:00,46.0,28.5,30.27,WSW,248,2.7,10.7,50,0.00,,SKC,0.04,VWS V14.01,2013-10-23 16:47:00,
2013-10-23 11:48:00,51.1,26.4,30.27,WSW,248,3.6,14.3,38,0.00,,SKC,0.04,VWS V14.01,2013-10-23 16:48:00,
2013-10-23 11:49:00,46.4,28.3,30.27,NNW,338,4.9,19.7,49,0.00,,SKC,0.04,VWS V14.01,2013-10-23 16:49:00,
2013-10-23 11:50:00,46.4,28.3,30.27,WSW,248,1.3,5.4,49,0.00,,SKC,0.04,VWS V14.01,2013-10-23 16:50:00,
2013-10-23 11:51:00,46.4,28.3,30.27,ENE,68,6.5,26.0,49,0.00,,SKC,0.04,VWS V14.01,2013-10-23 16:51:00,
2013-10-23 11:52:00,46.4,28.3,30.27,NNW,338,2.5,9.8,49,0.00,,SKC,0.04,VWS V14.01,2013-10-23 16:52:00,
2013-10-23 11:53:00,50.0,25.4,30.27,SW,225,4.7,18.8,38,0.00,,SKC,0.04,VWS V14.01,2013-10-23 16:53:00,
2013-10-23 11:54:00,46.4,27.8,30.27,NNE,22,2.7,10.7,48,0.00,,SKC,0.04,VWS V14.01,2013-10-23 16:54:00,
2013-10-23 11:55:00,46.2,27.6,30.27,East,90,4.3,17.0,48,0.00,,SKC,0.04,VWS V14.01,2013-10-23 16:55:00,
2013-10-23 11:56:00,46.0,27.0,30.27,SW,225,1.1,4.5,47,0.00,,SKC,0.04,VWS V14.01,2013-10-23 16:56:00,
2013-10-23 11:57:00,46.0,27.0,30.27,SW,225,1.1,4.5,47,0.00,,SKC,0.04,VWS V14.01,2013-10-23 16:57:00,
2013-10-23 11:58:00,50.2,25.6,30.27,West,270,1.6,6.3,38,0.00,,SKC,0.04,VWS V14.01,2013-10-23 16:58:00,
2013-10-23 11:59:00,46.0,27.0,30.30,WSW,248,7.4,29.5,47,0.00,,SKC,0.04,VWS V14.01,2013-10-23 16:59:00,
2013-10-23 12:00:00,46.0,27.0,30.30,West,270,2.9,11.6,47,0.00,,SKC,0.04,VWS V14.01,2013-10-23 17:00:00,
2013-10-23 12:01:00,47.7,28.4,30.30,West,270,1.6,6.3,47,0.00,,SKC,0.04,VWS V14.01,2013-10-23 17:01:00,
2013-10-23 12:02:00,47.7,28.4,30.30,West,270,3.4,13.4,47,0.00,,SKC,0.04,VWS V14.01,2013-10-23 17:02:00,
2013-10-23 12:03:00,50.0,24.8,30.30,WSW,248,2.7,10.7,37,0.00,,SKC,0.04,VWS V14.01,2013-10-23 17:03:00,
2013-10-23 12:04:00,47.7,28.4,30.30,SW,225,3.6,14.3,47,0.00,,SKC,0.04,VWS V14.01,2013-10-23 17:04:00,
2013-10-23 12:05:00,47.7,28.4,30.30,WSW,248,5.6,22.4,47,0.00,,SKC,0.04,VWS V14.01,2013-10-23 17:05:00,
2013-10-23 12:06:00,47.7,28.4,30.30,WSW,248,3.8,15.2,47,0.00,,SKC,0.04,VWS V14.01,2013-10-23 17:06:00,
2013-10-23 12:07:00,47.7,28.4,30.30,WSW,248,8.5,34.0,47,0.00,,SKC,0.04,VWS V14.01,2013-10-23 17:07:00,
2013-10-23 12:08:00,50.0,24.8,30.30,WSW,248,4.9,19.7,37,0.00,,SKC,0.04,VWS V14.01,2013-10-23 17:08:00,
2013-10-23 12:09:00,48.9,26.9,30.30,NE,45,3.4,13.4,42,0.00,,SKC,0.04,VWS V14.01,2013-10-23 17:09:00,
2013-10-23 12:10:00,48.7,26.7,30.30,NE,45,3.1,12.5,42,0.00,,SKC,0.04,VWS V14.01,2013-10-23 17:10:00,
2013-10-23 12:11:00,48.9,27.4,30.30,WNW,292,2.5,9.8,43,0.00,,SKC,0.04,VWS V14.01,2013-10-23 17:11:00,
2013-10-23 12:12:00,48.9,27.4,30.30,South,180,2.0,8.1,43,0.00,,SKC,0.04,VWS V14.01,2013-10-23 17:12:00,
2013-10-23 12:13:00,50.2,25.6,30.30,West,270,0.9,3.6,38,0.00,,SKC,0.04,VWS V14.01,2013-10-23 17:13:00,
2013-10-23 12:14:00,48.7,26.7,30.27,SW,225,3.4,13.4,42,0.00,,SKC,0.04,VWS V14.01,2013-10-23 17:14:00,
2013-10-23 12:15:00,48.7,26.7,30.27,North,0,2.0,8.1,42,0.00,,SKC,0.04,VWS V14.01,2013-10-23 17:15:00,
2013-10-23 12:16:00,48.0,26.6,30.27,NE,45,2.7,10.7,43,0.00,,SKC,0.04,VWS V14.01,2013-10-23 17:16:00,
2013-10-23 12:17:00,48.4,26.4,30.27,SW,225,3.8,15.2,42,0.00,,SKC,0.04,VWS V14.01,2013-10-23 17:17:00,
2013-10-23 12:18:00,50.4,25.7,30.27,WSW,248,2.5,9.8,38,0.00,,SKC,0.04,VWS V14.01,2013-10-23 17:18:00,
2013-10-23 12:19:00,48.9,26.9,30.27,SW,225,1.1,4.5,42,0.00,,SKC,0.04,VWS V14.01,2013-10-23 17:19:00,
2013-10-23 12:20:00,48.9,26.9,30.27,WSW,248,5.6,22.4,42,0.00,,SKC,0.04,VWS V14.01,2013-10-23 17:20:00,
2013-10-23 12:21:00,48.9,26.9,30.27,West,270,1.1,4.5,42,0.00,,SKC,0.04,VWS V14.01,2013-10-23 17:21:00,
2013-10-23 12:22:00,49.1,26.4,30.27,WNW,292,8.1,32.2,41,0.00,,SKC,0.04,VWS V14.01,2013-10-23 17:22:00,
2013-10-23 12:23:00,49.8,24.6,30.27,WSW,248,3.1,12.5,37,0.00,,SKC,0.04,VWS V14.01,2013-10-23 17:23:00,
2013-10-23 12:24:00,49.6,26.9,30.27,WSW,248,0.9,3.6,41,0.00,,SKC,0.04,VWS V14.01,2013-10-23 17:24:00,
2013-10-23 12:25:00,49.8,27.1,30.27,ENE,68,2.0,8.1,41,0.00,,SKC,0.04,VWS V14.01,2013-10-23 17:25:00,
2013-10-23 12:26:00,48.9,26.3,30.27,NW,315,3.1,12.5,41,0.00,,SKC,0.04,VWS V14.01,2013-10-23 17:26:00,
2013-10-23 12:27:00,49.6,26.9,30.27,ENE,68,1.3,5.4,41,0.00,,SKC,0.04,VWS V14.01,2013-10-23 17:27:00,
2013-10-23 12:28:00,50.0,24.8,30.27,West,270,2.5,9.8,37,0.00,,SKC,0.04,VWS V14.01,2013-10-23 17:28:00,
2013-10-23 12:29:00,50.4,27.6,30.27,North,0,1.6,6.3,41,0.00,,SKC,0.04,VWS V14.01,2013-10-23 17:29:00,
2013-10-23 12:30:00,50.7,27.9,30.27,NW,315,3.6,14.3,41,0.00,,SKC,0.04,VWS V14.01,2013-10-23 17:30:00,
2013-10-23 12:31:00,50.5,27.1,30.27,WSW,248,2.9,11.6,40,0.00,,SKC,0.04,VWS V14.01,2013-10-23 17:31:00,
2013-10-23 12:32:00,50.9,27.5,30.27,West,270,0.9,3.6,40,0.00,,SKC,0.04,VWS V14.01,2013-10-23 17:32:00,
2013-10-23 12:33:00,50.4,25.1,30.24,NE,45,0.0,0.0,37,0.00,,SKC,0.04,VWS V14.01,2013-10-23 17:33:00,
2013-10-23 12:34:00,49.8,26.5,30.27,WSW,248,3.1,12.5,40,0.00,,SKC,0.04,VWS V14.01,2013-10-23 17:34:00,
2013-10-23 12:35:00,50.0,26.6,30.27,WSW,248,2.7,10.7,40,0.00,,SKC,0.04,VWS V14.01,2013-10-23 17:35:00,
2013-10-23 12:36:00,50.0,26.6,30.27,West,270,4.9,19.7,40,0.00,,SKC,0.04,VWS V14.01,2013-10-23 17:36:00,
2013-10-23 12:37:00,50.0,26.6,30.27,North,0,2.2,9.0,40,0.00,,SKC,0.04,VWS V14.01,2013-10-23 17:37:00,
2013-10-23 12:38:00,50.2,24.9,30.24,West,270,2.9,11.6,37,0.00,,SKC,0.04,VWS V14.01,2013-10-23 17:38:00,
2013-10-23 12:39:00,49.5,25.5,30.27,SW,225,6.3,25.1,39,0.00,,SKC,0.04,VWS V14.01,2013-10-23 17:39:00,
2013-10-23 12:40:00,49.5,25.5,30.27,North,0,4.0,16.1,39,0.00,,SKC,0.04,VWS V14.01,2013-10-23 17:40:00,
2013-10-23 12:41:00,49.5,25.5,30.27,WNW,292,3.6,14.3,39,0.00,,SKC,0.04,VWS V14.01,2013-10-23 17:41:00,
2013-10-23 12:43:00,50.0,24.8,30.24,NNW,338,2.7,10.7,37,0.00,,SKC,0.04,VWS V14.01,2013-10-23 17:43:00,
2013-10-23 12:44:00,50.4,26.4,30.27,East,90,2.5,9.8,39,0.00,,SKC,0.04,VWS V14.01,2013-10-23 17:44:00,
2013-10-23 12:45:00,50.4,26.4,30.27,WSW,248,1.6,6.3,39,0.00,,SKC,0.04,VWS V14.01,2013-10-23 17:45:00,
2013-10-23 12:46:00,50.4,26.4,30.27,North,0,1.1,4.5,39,0.00,,SKC,0.04,VWS V14.01,2013-10-23 17:46:00,
2013-10-23 12:47:00,51.3,27.8,30.27,NW,315,4.9,19.7,40,0.00,,SKC,0.04,VWS V14.01,2013-10-23 17:47:00,
2013-10-23 12:48:00,50.2,24.9,30.27,North,0,3.4,13.4,37,0.00,,SKC,0.04,VWS V14.01,2013-10-23 17:48:00,
2013-10-23 12:49:00,51.6,28.1,30.27,West,270,1.3,5.4,40,0.00,,SKC,0.04,VWS V14.01,2013-10-23 17:49:00,
2013-10-23 12:50:00,51.6,28.1,30.27,WNW,292,1.6,6.3,40,0.00,,SKC,0.04,VWS V14.01,2013-10-23 17:50:00,
2013-10-23 12:51:00,50.9,26.2,30.27,WSW,248,2.0,8.1,38,0.00,,SKC,0.04,VWS V14.01,2013-10-23 17:51:00,
2013-10-23 12:52:00,51.3,27.2,30.27,ENE,68,0.0,0.0,39,0.00,,SKC,0.04,VWS V14.01,2013-10-23 17:52:00,
2013-10-23 12:53:00,50.5,25.2,30.27,NE,45,1.6,6.3,37,0.00,,SKC,0.04,VWS V14.01,2013-10-23 17:53:00,
2013-10-23 12:54:00,51.4,27.3,30.27,NNW,338,3.4,13.4,39,0.00,,SKC,0.04,VWS V14.01,2013-10-23 17:54:00,
2013-10-23 12:55:00,51.4,26.7,30.27,West,270,2.7,10.7,38,0.00,,SKC,0.04,VWS V14.01,2013-10-23 17:55:00,
2013-10-23 12:56:00,51.1,26.4,30.27,NNW,338,4.0,16.1,38,0.00,,SKC,0.04,VWS V14.01,2013-10-23 17:56:00,
2013-10-23 12:57:00,51.1,26.4,30.27,WSW,248,3.6,14.3,38,0.00,,SKC,0.04,VWS V14.01,2013-10-23 17:57:00,
2013-10-23 12:58:00,51.3,25.9,30.27,WSW,248,2.7,10.7,37,0.00,,SKC,0.04,VWS V14.01,2013-10-23 17:58:00,
2013-10-23 12:59:00,50.5,25.9,30.27,SW,225,6.3,25.1,38,0.00,,SKC,0.04,VWS V14.01,2013-10-23 17:59:00,
2013-10-23 13:00:00,50.2,25.6,30.27,WNW,292,2.0,8.1,38,0.00,,SKC,0.04,VWS V14.01,2013-10-23 18:00:00,
2013-10-23 13:01:00,50.2,25.6,30.27,NW,315,5.6,22.4,38,0.00,,SKC,0.04,VWS V14.01,2013-10-23 18:01:00,
2013-10-23 13:02:00,49.8,25.2,30.27,West,270,1.6,6.3,38,0.00,,SKC,0.04,VWS V14.01,2013-10-23 18:02:00,
2013-10-23 13:03:00,51.8,26.4,30.24,SW,225,6.3,25.1,37,0.00,,SKC,0.04,VWS V14.01,2013-10-23 18:03:00,
2013-10-23 13:04:00,50.2,25.6,30.27,East,90,2.0,8.1,38,0.00,,SKC,0.04,VWS V14.01,2013-10-23 18:04:00,
2013-10-23 13:05:00,50.0,25.4,30.27,North,0,5.6,22.4,38,0.00,,SKC,0.04,VWS V14.01,2013-10-23 18:05:00,
2013-10-23 13:06:00,50.0,25.4,30.27,North,0,2.7,10.7,38,0.00,,SKC,0.04,VWS V14.01,2013-10-23 18:06:00,
2013-10-23 13:07:00,50.2,25.6,30.27,North,0,2.9,11.6,38,0.00,,SKC,0.04,VWS V14.01,2013-10-23 18:07:00,
2013-10-23 13:08:00,51.3,25.9,30.24,WSW,248,1.3,5.4,37,0.00,,SKC,0.04,VWS V14.01,2013-10-23 18:08:00,
2013-10-23 13:09:00,50.2,25.6,30.27,NNE,22,4.0,16.1,38,0.00,,SKC,0.04,VWS V14.01,2013-10-23 18:09:00,
2013-10-23 13:10:00,50.2,25.6,30.27,West,270,1.1,4.5,38,0.00,,SKC,0.04,VWS V14.01,2013-10-23 18:10:00,
2013-10-23 13:11:00,50.2,24.9,30.27,West,270,4.3,17.0,37,0.00,,SKC,0.04,VWS V14.01,2013-10-23 18:11:00,
2013-10-23 13:12:00,50.2,24.9,30.27,West,270,3.4,13.4,37,0.00,,SKC,0.04,VWS V14.01,2013-10-23 18:12:00,
2013-10-23 13:13:00,51.1,25.7,30.24,NNE,22,0.9,3.6,37,0.00,,SKC,0.04,VWS V14.01,2013-10-23 18:13:00,
2013-10-23 13:14:00,50.2,25.6,30.30,West,270,2.0,8.1,38,0.00,,SKC,0.04,VWS V14.01,2013-10-23 18:14:00,
2013-10-23 13:15:00,50.2,24.9,30.30,West,270,2.5,9.8,37,0.00,,SKC,0.04,VWS V14.01,2013-10-23 18:15:00,
2013-10-23 13:16:00,50.2,25.6,30.30,WSW,248,1.3,5.4,38,0.00,,SKC,0.04,VWS V14.01,2013-10-23 18:16:00,
2013-10-23 13:17:00,50.2,25.6,30.30,WSW,248,1.3,5.4,38,0.00,,SKC,0.04,VWS V14.01,2013-10-23 18:17:00,
2013-10-23 13:18:00,50.4,25.1,30.21,NW,315,3.8,15.2,37,0.00,,SKC,0.04,VWS V14.01,2013-10-23 18:18:00,
2013-10-23 13:19:00,50.0,24.8,30.30,West,270,3.1,12.5,37,0.00,,SKC,0.04,VWS V14.01,2013-10-23 18:19:00,
2013-10-23 13:20:00,50.0,25.4,30.30,West,270,1.6,6.3,38,0.00,,SKC,0.04,VWS V14.01,2013-10-23 18:20:00,
2013-10-23 13:21:00,50.2,24.9,30.30,West,270,1.6,6.3,37,0.00,,SKC,0.04,VWS V14.01,2013-10-23 18:21:00,
2013-10-23 13:22:00,50.2,25.6,30.30,NNW,338,1.1,4.5,38,0.00,,SKC,0.04,VWS V14.01,2013-10-23 18:22:00,
2013-10-23 13:23:00,50.5,25.2,30.21,SW,225,0.0,0.0,37,0.00,,SKC,0.04,VWS V14.01,2013-10-23 18:23:00,
2013-10-23 13:24:00,50.2,24.9,30.30,West,270,0.9,3.6,37,0.00,,SKC,0.04,VWS V14.01,2013-10-23 18:24:00,
2013-10-23 13:25:00,50.2,24.9,30.30,NW,315,3.6,14.3,37,0.00,,SKC,0.04,VWS V14.01,2013-10-23 18:25:00,
2013-10-23 13:26:00,50.2,24.9,30.30,SW,225,2.9,11.6,37,0.00,,SKC,0.04,VWS V14.01,2013-10-23 18:26:00,
2013-10-23 13:27:00,50.2,24.9,30.30,SSW,202,1.6,6.3,37,0.00,,SKC,0.04,VWS V14.01,2013-10-23 18:27:00,
2013-10-23 13:28:00,50.7,25.4,30.21,North,0,1.1,4.5,37,0.00,,SKC,0.04,VWS V14.01,2013-10-23 18:28:00,
2013-10-23 13:29:00,50.2,24.9,30.27,NW,315,2.5,9.8,37,0.00,,SKC,0.04,VWS V14.01,2013-10-23 18:29:00,
2013-10-23 13:30:00,50.2,24.9,30.27,WSW,248,3.6,14.3,37,0.00,,SKC,0.04,VWS V14.01,2013-10-23 18:30:00,
2013-10-23 13:31:00,50.2,24.9,30.27,WSW,248,2.5,9.8,37,0.00,,SKC,0.04,VWS V14.01,2013-10-23 18:31:00,
2013-10-23 13:32:00,49.8,24.6,30.27,SW,225,0.9,3.6,37,0.00,,SKC,0.04,VWS V14.01,2013-10-23 18:32:00,
2013-10-23 13:33:00,50.7,25.4,30.24,NNW,338,1.6,6.3,37,0.00,,SKC,0.04,VWS V14.01,2013-10-23 18:33:00,
2013-10-23 13:34:00,49.8,24.6,30.27,West,270,2.7,10.7,37,0.00,,SKC,0.04,VWS V14.01,2013-10-23 18:34:00,
2013-10-23 13:35:00,49.8,24.6,30.27,West,270,2.0,8.1,37,0.00,,SKC,0.04,VWS V14.01,2013-10-23 18:35:00,
2013-10-23 13:36:00,49.8,25.2,30.27,NNW,338,2.5,9.8,38,0.00,,SKC,0.04,VWS V14.01,2013-10-23 18:36:00,
2013-10-23 13:37:00,50.0,24.8,30.27,WNW,292,1.1,4.5,37,0.00,,SKC,0.04,VWS V14.01,2013-10-23 18:37:00,
2013-10-23 13:38:00,50.2,24.9,30.24,SW,225,5.8,23.3,37,0.00,,SKC,0.04,VWS V14.01,2013-10-23 18:38:00,
2013-10-23 13:39:00,50.0,24.8,30.27,NW,315,0.0,0.0,37,0.00,,SKC,0.04,VWS V14.01,2013-10-23 18:39:00,
2013-10-23 13:40:00,50.2,25.6,30.27,NNW,338,1.6,6.3,38,0.00,,SKC,0.04,VWS V14.01,2013-10-23 18:40:00,
2013-10-23 13:41:00,50.4,25.7,30.27,NNE,22,0.0,0.0,38,0.00,,SKC,0.04,VWS V14.01,2013-10-23 18:41:00,
2013-10-23 13:42:00,50.4,25.7,30.27,NNE,22,1.3,5.4,38,0.00,,SKC,0.04,VWS V14.01,2013-10-23 18:42:00,
2013-10-23 13:43:00,50.2,24.9,30.24,WSW,248,3.8,15.2,37,0.00,,SKC,0.04,VWS V14.01,2013-10-23 18:43:00,
2013-10-23 13:44:00,50.4,25.1,30.24,SW,225,3.8,15.2,37,0.00,,SKC,0.04,VWS V14.01,2013-10-23 18:44:00,
2013-10-23 13:45:00,50.4,25.1,30.24,WSW,248,2.2,9.0,37,0.00,,SKC,0.04,VWS V14.01,2013-10-23 18:45:00,
2013-10-23 13:46:00,50.2,24.9,30.24,WNW,292,2.9,11.6,37,0.00,,SKC,0.04,VWS V14.01,2013-10-23 18:46:00,
2013-10-23 13:47:00,50.4,25.7,30.24,SW,225,0.0,0.0,38,0.00,,SKC,0.04,VWS V14.01,2013-10-23 18:47:00,
2013-10-23 13:48:00,50.0,24.8,30.24,WNW,292,2.9,11.6,37,0.00,,SKC,0.04,VWS V14.01,2013-10-23 18:48:00,
2013-10-23 13:49:00,50.2,24.9,30.24,NNW,338,3.8,15.2,37,0.00,,SKC,0.04,VWS V14.01,2013-10-23 18:49:00,
2013-10-23 13:50:00,50.2,24.9,30.24,WNW,292,2.7,10.7,37,0.00,,SKC,0.04,VWS V14.01,2013-10-23 18:50:00,
2013-10-23 13:51:00,50.2,24.9,30.24,WSW,248,2.0,8.1,37,0.00,,SKC,0.04,VWS V14.01,2013-10-23 18:51:00,
2013-10-23 13:52:00,50.2,24.9,30.24,WNW,292,2.0,8.1,37,0.00,,SKC,0.04,VWS V14.01,2013-10-23 18:52:00,
2013-10-23 13:53:00,50.0,24.8,30.24,NW,315,2.5,9.8,37,0.00,,SKC,0.04,VWS V14.01,2013-10-23 18:53:00,
2013-10-23 13:54:00,50.0,24.8,30.24,NW,315,2.7,10.7,37,0.00,,SKC,0.04,VWS V14.01,2013-10-23 18:54:00,
2013-10-23 13:55:00,50.0,24.8,30.24,NNW,338,2.9,11.6,37,0.00,,SKC,0.04,VWS V14.01,2013-10-23 18:55:00,
2013-10-23 13:56:00,50.0,24.8,30.24,NNE,22,2.7,10.7,37,0.00,,SKC,0.04,VWS V14.01,2013-10-23 18:56:00,
2013-10-23 13:57:00,50.0,24.8,30.24,NNW,338,4.5,17.9,37,0.00,,SKC,0.04,VWS V14.01,2013-10-23 18:57:00,
2013-10-23 13:58:00,50.7,25.4,30.24,NNE,22,1.3,5.4,37,0.00,,SKC,0.04,VWS V14.01,2013-10-23 18:58:00,
2013-10-23 13:59:00,50.2,24.9,30.27,NW,315,4.9,19.7,37,0.00,,SKC,0.04,VWS V14.01,2013-10-23 18:59:00,
2013-10-23 14:00:00,50.4,25.1,30.27,WNW,292,1.1,4.5,37,0.00,,SKC,0.04,VWS V14.01,2013-10-23 19:00:00,
2013-10-23 14:01:00,50.4,25.1,30.27,WSW,248,2.0,8.1,37,0.00,,SKC,0.04,VWS V14.01,2013-10-23 19:01:00,
2013-10-23 14:02:00,50.5,25.2,30.27,West,270,2.0,8.1,37,0.00,,SKC,0.04,VWS V14.01,2013-10-23 19:02:00,
2013-10-23 14:03:00,50.9,25.6,30.24,NNW,338,3.4,13.4,37,0.00,,SKC,0.04,VWS V14.01,2013-10-23 19:03:00,
2013-10-23 14:04:00,50.5,25.2,30.27,NNW,338,1.1,4.5,37,0.00,,SKC,0.04,VWS V14.01,2013-10-23 19:04:00,
2013-10-23 14:05:00,50.9,26.2,30.27,NW,315,1.1,4.5,38,0.00,,SKC,0.04,VWS V14.01,2013-10-23 19:05:00,
2013-10-23 14:06:00,51.1,26.4,30.27,NW,315,2.0,8.1,38,0.00,,SKC,0.04,VWS V14.01,2013-10-23 19:06:00,
2013-10-23 14:07:00,51.1,25.7,30.27,West,270,3.6,14.3,37,0.00,,SKC,0.04,VWS V14.01,2013-10-23 19:07:00,
2013-10-23 14:08:00,51.3,25.9,30.24,West,270,1.3,5.4,37,0.00,,SKC,0.04,VWS V14.01,2013-10-23 19:08:00,
2013-10-23 14:09:00,51.6,26.2,30.27,NW,315,3.1,12.5,37,0.00,,SKC,0.04,VWS V14.01,2013-10-23 19:09:00,
2013-10-23 14:10:00,51.8,26.4,30.27,WNW,292,1.3,5.4,37,0.00,,SKC,0.04,VWS V14.01,2013-10-23 19:10:00,
2013-10-23 14:11:00,52.2,26.7,30.27,NNW,338,2.5,9.8,37,0.00,,SKC,0.04,VWS V14.01,2013-10-23 19:11:00,
2013-10-23 14:12:00,52.0,26.5,30.27,North,0,1.6,6.3,37,0.00,,SKC,0.04,VWS V14.01,2013-10-23 19:12:00,
2013-10-23 14:13:00,51.3,25.9,30.24,WSW,248,2.7,10.7,37,0.00,,SKC,0.04,VWS V14.01,2013-10-23 19:13:00,
2013-10-23 14:14:00,51.6,26.2,30.24,WNW,292,2.7,10.7,37,0.00,,SKC,0.04,VWS V14.01,2013-10-23 19:14:00,
2013-10-23 14:15:00,51.6,26.2,30.24,WSW,248,0.9,3.6,37,0.00,,SKC,0.04,VWS V14.01,2013-10-23 19:15:00,
2013-10-23 14:16:00,51.6,26.2,30.24,WNW,292,2.9,11.6,37,0.00,,SKC,0.04,VWS V14.01,2013-10-23 19:16:00,
2013-10-23 14:17:00,51.6,26.2,30.24,NNW,338,0.9,3.6,37,0.00,,SKC,0.04,VWS V14.01,2013-10-23 19:17:00,
2013-10-23 14:18:00,52.0,26.5,30.24,NNE,22,1.1,4.5,37,0.00,,SKC,0.04,VWS V14.01,2013-10-23 19:18:00,
2013-10-23 14:19:00,51.3,25.9,30.24,WSW,248,2.9,11.6,37,0.00,,SKC,0.04,VWS V14.01,2013-10-23 19:19:00,
2013-10-23 14:20:00,50.9,25.6,30.24,SW,225,0.0,0.0,37,0.00,,SKC,0.04,VWS V14.01,2013-10-23 19:20:00,
2013-10-23 14:21:00,50.9,25.6,30.24,WNW,292,0.9,3.6,37,0.00,,SKC,0.04,VWS V14.01,2013-10-23 19:21:00,
2013-10-23 14:22:00,50.9,25.6,30.24,North,0,0.9,3.6,37,0.00,,SKC,0.04,VWS V14.01,2013-10-23 19:22:00,
2013-10-23 14:23:00,52.2,26.7,30.24,West,270,2.0,8.1,37,0.00,,SKC,0.04,VWS V14.01,2013-10-23 19:23:00,
2013-10-23 14:24:00,50.9,25.6,30.24,NE,45,3.4,13.4,37,0.00,,SKC,0.04,VWS V14.01,2013-10-23 19:24:00,
2013-10-23 14:25:00,50.9,25.6,30.24,North,0,3.4,13.4,37,0.00,,SKC,0.04,VWS V14.01,2013-10-23 19:25:00,
2013-10-23 14:26:00,50.7,25.4,30.24,North,0,4.0,16.1,37,0.00,,SKC,0.04,VWS V14.01,2013-10-23 19:26:00,
2013-10-23 14:27:00,50.5,25.2,30.24,NNE,22,5.6,22.4,37,0.00,,SKC,0.04,VWS V14.01,2013-10-23 19:27:00,
2013-10-23 14:28:00,51.8,26.4,30.24,West,270,0.9,3.6,37,0.00,,SKC,0.04,VWS V14.01,2013-10-23 19:28:00,
2013-10-23 14:29:00,50.4,25.1,30.21,NW,315,1.6,6.3,37,0.00,,SKC,0.04,VWS V14.01,2013-10-23 19:29:00,
2013-10-23 14:30:00,50.4,25.1,30.21,East,90,0.0,0.0,37,0.00,,SKC,0.04,VWS V14.01,2013-10-23 19:30:00,
2013-10-23 14:31:00,50.5,25.2,30.21,SW,225,2.5,9.8,37,0.00,,SKC,0.04,VWS V14.01,2013-10-23 19:31:00,
2013-10-23 14:32:00,50.5,25.2,30.21,NE,45,2.9,11.6,37,0.00,,SKC,0.04,VWS V14.01,2013-10-23 19:32:00,
2013-10-23 14:33:00,51.6,26.2,30.24,SSW,202,2.7,10.7,37,0.00,,SKC,0.04,VWS V14.01,2013-10-23 19:33:00,
2013-10-23 14:34:00,50.5,25.2,30.21,SW,225,0.0,0.0,37,0.00,,SKC,0.04,VWS V14.01,2013-10-23 19:34:00,
2013-10-23 14:35:00,50.9,26.2,30.21,SW,225,2.5,9.8,38,0.00,,SKC,0.04,VWS V14.01,2013-10-23 19:35:00,
2013-10-23 14:36:00,50.7,25.4,30.21,WSW,248,2.7,10.7,37,0.00,,SKC,0.04,VWS V14.01,2013-10-23 19:36:00,
2013-10-23 14:37:00,50.7,25.4,30.21,NNW,338,3.4,13.4,37,0.00,,SKC,0.04,VWS V14.01,2013-10-23 19:37:00,
2013-10-23 14:38:00,51.1,25.7,30.24,SW,225,1.6,6.3,37,0.00,,SKC,0.04,VWS V14.01,2013-10-23 19:38:00,
2013-10-23 14:39:00,50.7,25.4,30.21,NNW,338,7.4,29.5,37,0.00,,SKC,0.04,VWS V14.01,2013-10-23 19:39:00,
2013-10-23 14:40:00,50.7,25.4,30.21,WNW,292,2.9,11.6,37,0.00,,SKC,0.04,VWS V14.01,2013-10-23 19:40:00,
2013-10-23 14:41:00,50.7,25.4,30.21,SSW,202,2.5,9.8,37,0.00,,SKC,0.04,VWS V14.01,2013-10-23 19:41:00,
2013-10-23 14:42:00,50.7,25.4,30.21,South,180,0.0,0.0,37,0.00,,SKC,0.04,VWS V14.01,2013-10-23 19:42:00,
2013-10-23 14:43:00,50.9,25.6,30.24,WNW,292,1.3,5.4,37,0.00,,SKC,0.04,VWS V14.01,2013-10-23 19:43:00,
2013-10-23 14:44:00,50.4,25.1,30.24,NW,315,1.1,4.5,37,0.00,,SKC,0.04,VWS V14.01,2013-10-23 19:44:00,
2013-10-23 14:45:00,50.4,25.1,30.24,SSW,202,0.0,0.0,37,0.00,,SKC,0.04,VWS V14.01,2013-10-23 19:45:00,
2013-10-23 14:46:00,50.4,25.1,30.24,West,270,3.1,12.5,37,0.00,,SKC,0.04,VWS V14.01,2013-10-23 19:46:00,
2013-10-23 14:47:00,50.2,24.9,30.24,SW,225,3.4,13.4,37,0.00,,SKC,0.04,VWS V14.01,2013-10-23 19:47:00,
2013-10-23 14:48:00,50.9,25.6,30.24,SW,225,1.1,4.5,37,0.00,,SKC,0.04,VWS V14.01,2013-10-23 19:48:00,
2013-10-23 14:49:00,50.2,24.9,30.24,WSW,248,1.6,6.3,37,0.00,,SKC,0.04,VWS V14.01,2013-10-23 19:49:00,
2013-10-23 14:50:00,50.2,24.9,30.24,SSW,202,3.1,12.5,37,0.00,,SKC,0.04,VWS V14.01,2013-10-23 19:50:00,
2013-10-23 14:51:00,50.2,24.9,30.24,West,270,2.2,9.0,37,0.00,,SKC,0.04,VWS V14.01,2013-10-23 19:51:00,
2013-10-23 14:52:00,50.2,24.9,30.24,WSW,248,2.5,9.8,37,0.00,,SKC,0.04,VWS V14.01,2013-10-23 19:52:00,
2013-10-23 14:53:00,50.7,25.4,30.24,SW,225,1.1,4.5,37,0.00,,SKC,0.04,VWS V14.01,2013-10-23 19:53:00,
2013-10-23 14:54:00,50.2,24.9,30.24,WNW,292,1.6,6.3,37,0.00,,SKC,0.04,VWS V14.01,2013-10-23 19:54:00,
2013-10-23 14:55:00,50.2,24.9,30.24,North,0,0.0,0.0,37,0.00,,SKC,0.04,VWS V14.01,2013-10-23 19:55:00,
2013-10-23 14:56:00,50.0,24.8,30.24,WSW,248,0.0,0.0,37,0.00,,SKC,0.04,VWS V14.01,2013-10-23 19:56:00,
2013-10-23 14:57:00,50.0,24.8,30.24,West,270,1.3,5.4,37,0.00,,SKC,0.04,VWS V14.01,2013-10-23 19:57:00,
2013-10-23 14:58:00,50.7,25.4,30.24,WNW,292,0.0,0.0,37,0.00,,SKC,0.04,VWS V14.01,2013-10-23 19:58:00,
2013-10-23 14:59:00,50.0,24.8,30.24,SW,225,4.9,19.7,37,0.00,,SKC,0.04,VWS V14.01,2013-10-23 19:59:00,
2013-10-23 15:00:00,49.8,24.6,30.24,WSW,248,3.6,14.3,37,0.00,,SKC,0.04,VWS V14.01,2013-10-23 20:00:00,
2013-10-23 15:01:00,49.8,24.6,30.24,NNE,22,1.1,4.5,37,0.00,,SKC,0.04,VWS V14.01,2013-10-23 20:01:00,
2013-10-23 15:02:00,49.8,25.2,30.24,SSW,202,0.0,0.0,38,0.00,,SKC,0.04,VWS V14.01,2013-10-23 20:02:00,
2013-10-23 15:03:00,50.7,25.4,30.24,WNW,292,0.9,3.6,37,0.00,,SKC,0.04,VWS V14.01,2013-10-23 20:03:00,
2013-10-23 15:04:00,50.0,24.8,30.24,WSW,248,2.0,8.1,37,0.00,,SKC,0.04,VWS V14.01,2013-10-23 20:04:00,
2013-10-23 15:05:00,50.2,25.6,30.24,West,270,0.9,3.6,38,0.00,,SKC,0.04,VWS V14.01,2013-10-23 20:05:00,
2013-10-23 15:06:00,50.4,25.7,30.24,South,180,0.0,0.0,38,0.00,,SKC,0.04,VWS V14.01,2013-10-23 20:06:00,
2013-10-23 15:07:00,50.5,25.9,30.24,NW,315,2.0,8.1,38,0.00,,SKC,0.04,VWS V14.01,2013-10-23 20:07:00,
2013-10-23 15:08:00,50.9,26.2,30.24,NW,315,0.0,0.0,38,0.00,,SKC,0.04,VWS V14.01,2013-10-23 20:08:00,
2013-10-23 15:09:00,50.7,25.4,30.24,WNW,292,1.6,6.3,37,0.00,,SKC,0.04,VWS V14.01,2013-10-23 20:09:00,
2013-10-23 15:10:00,50.9,26.2,30.24,North,0,0.9,3.6,38,0.00,,SKC,0.04,VWS V14.01,2013-10-23 20:10:00,
2013-10-23 15:11:00,50.9,25.6,30.24,WNW,292,2.2,9.0,37,0.00,,SKC,0.04,VWS V14.01,2013-10-23 20:11:00,
2013-10-23 15:12:00,51.1,25.7,30.24,NNW,338,1.6,6.3,37,0.00,,SKC,0.04,VWS V14.01,2013-10-23 20:12:00,
2013-10-23 15:13:00,51.1,26.4,30.24,SW,225,2.2,9.0,38,0.00,,SKC,0.04,VWS V14.01,2013-10-23 20:13:00,
2013-10-23 15:14:00,50.9,25.6,30.24,North,0,1.1,4.5,37,0.00,,SKC,0.04,VWS V14.01,2013-10-23 20:14:00,
2013-10-23 15:15:00,51.1,25.7,30.24,NNW,338,2.5,9.8,37,0.00,,SKC,0.04,VWS V14.01,2013-10-23 20:15:00,
2013-10-23 15:16:00,51.1,25.7,30.24,WSW,248,0.0,0.0,37,0.00,,SKC,0.04,VWS V14.01,2013-10-23 20:16:00,
2013-10-23 15:17:00,51.3,25.9,30.24,North,0,1.6,6.3,37,0.00,,SKC,0.04,VWS V14.01,2013-10-23 20:17:00,
2013-10-23 15:18:00,50.9,25.6,30.24,WSW,248,1.6,6.3,37,0.00,,SKC,0.04,VWS V14.01,2013-10-23 20:18:00,
2013-10-23 15:19:00,51.3,25.9,30.24,SSW,202,2.5,9.8,37,0.00,,SKC,0.04,VWS V14.01,2013-10-23 20:19:00,
2013-10-23 15:20:00,51.3,25.9,30.24,WSW,248,2.0,8.1,37,0.00,,SKC,0.04,VWS V14.01,2013-10-23 20:20:00,
2013-10-23 15:21:00,51.3,25.9,30.24,West,270,3.6,14.3,37,0.00,,SKC,0.04,VWS V14.01,2013-10-23 20:21:00,
2013-10-23 15:22:00,51.3,25.9,30.24,WNW,292,3.1,12.5,37,0.00,,SKC,0.04,VWS V14.01,2013-10-23 20:22:00,
2013-10-23 15:23:00,50.7,26.0,30.24,WNW,292,2.0,8.1,38,0.00,,SKC,0.04,VWS V14.01,2013-10-23 20:23:00,
2013-10-23 15:24:00,51.3,25.9,30.24,SW,225,1.6,6.3,37,0.00,,SKC,0.04,VWS V14.01,2013-10-23 20:24:00,
2013-10-23 15:25:00,51.4,26.1,30.24,WSW,248,2.9,11.6,37,0.00,,SKC,0.04,VWS V14.01,2013-10-23 20:25:00,
2013-10-23 15:26:00,51.4,26.1,30.24,NW,315,3.1,12.5,37,0.00,,SKC,0.04,VWS V14.01,2013-10-23 20:26:00,
2013-10-23 15:27:00,51.6,26.2,30.24,East,90,0.0,0.0,37,0.00,,SKC,0.04,VWS V14.01,2013-10-23 20:27:00,
2013-10-23 15:28:00,50.2,25.6,30.24,SW,225,2.0,8.1,38,0.00,,SKC,0.04,VWS V14.01,2013-10-23 20:28:00,
2013-10-23 15:29:00,52.0,26.5,30.24,WNW,292,2.2,9.0,37,0.00,,SKC,0.04,VWS V14.01,2013-10-23 20:29:00,
2013-10-23 15:30:00,52.0,26.5,30.24,NW,315,2.9,11.6,37,0.00,,SKC,0.04,VWS V14.01,2013-10-23 20:30:00,
2013-10-23 15:31:00,52.2,26.7,30.24,SE,135,1.1,4.5,37,0.00,,SKC,0.04,VWS V14.01,2013-10-23 20:31:00,
2013-10-23 15:32:00,52.2,26.7,30.24,WNW,292,0.0,0.0,37,0.00,,SKC,0.04,VWS V14.01,2013-10-23 20:32:00,
2013-10-23 15:33:00,49.8,25.2,30.24,SW,225,0.0,0.0,38,0.00,,SKC,0.04,VWS V14.01,2013-10-23 20:33:00,
2013-10-23 15:34:00,52.2,26.7,30.24,NNE,22,2.0,8.1,37,0.00,,SKC,0.04,VWS V14.01,2013-10-23 20:34:00,
2013-10-23 15:35:00,52.0,26.5,30.24,NW,315,1.3,5.4,37,0.00,,SKC,0.04,VWS V14.01,2013-10-23 20:35:00,
2013-10-23 15:36:00,51.8,26.4,30.24,SSW,202,0.9,3.6,37,0.00,,SKC,0.04,VWS V14.01,2013-10-23 20:36:00,
2013-10-23 15:37:00,51.8,26.4,30.24,NW,315,0.0,0.0,37,0.00,,SKC,0.04,VWS V14.01,2013-10-23 20:37:00,
2013-10-23 15:38:00,49.6,25.7,30.24,West,270,1.6,6.3,39,0.00,,SKC,0.04,VWS V14.01,2013-10-23 20:38:00,
2013-10-23 15:39:00,51.8,26.4,30.24,West,270,2.5,9.8,37,0.00,,SKC,0.04,VWS V14.01,2013-10-23 20:39:00,
2013-10-23 15:40:00,51.8,26.4,30.24,SSE,158,1.3,5.4,37,0.00,,SKC,0.04,VWS V14.01,2013-10-23 20:40:00,
2013-10-23 15:41:00,51.8,26.4,30.24,WSW,248,0.0,0.0,37,0.00,,SKC,0.04,VWS V14.01,2013-10-23 20:41:00,
2013-10-23 15:42:00,51.8,26.4,30.24,West,270,3.6,14.3,37,0.00,,SKC,0.04,VWS V14.01,2013-10-23 20:42:00,
2013-10-23 15:43:00,49.8,25.9,30.24,WSW,248,4.3,17.0,39,0.00,,SKC,0.04,VWS V14.01,2013-10-23 20:43:00,
2013-10-23 15:44:00,51.6,26.2,30.24,SSW,202,2.7,10.7,37,0.00,,SKC,0.04,VWS V14.01,2013-10-23 20:44:00,
2013-10-23 15:45:00,51.3,25.9,30.24,WSW,248,1.1,4.5,37,0.00,,SKC,0.04,VWS V14.01,2013-10-23 20:45:00,
2013-10-23 15:46:00,51.3,25.9,30.24,West,270,1.6,6.3,37,0.00,,SKC,0.04,VWS V14.01,2013-10-23 20:46:00,
2013-10-23 15:47:00,51.3,25.9,30.24,WNW,292,2.2,9.0,37,0.00,,SKC,0.04,VWS V14.01,2013-10-23 20:47:00,
2013-10-23 15:48:00,50.2,25.6,30.24,WNW,292,2.7,10.7,38,0.00,,SKC,0.04,VWS V14.01,2013-10-23 20:48:00,
2013-10-23 15:49:00,51.1,25.7,30.24,SW,225,3.8,15.2,37,0.00,,SKC,0.04,VWS V14.01,2013-10-23 20:49:00,
2013-10-23 15:50:00,51.1,25.7,30.24,NNW,338,0.0,0.0,37,0.00,,SKC,0.04,VWS V14.01,2013-10-23 20:50:00,
2013-10-23 15:51:00,51.1,25.7,30.24,West,270,2.7,10.7,37,0.00,,SKC,0.04,VWS V14.01,2013-10-23 20:51:00,
2013-10-23 15:52:00,51.1,25.7,30.24,West,270,3.1,12.5,37,0.00,,SKC,0.04,VWS V14.01,2013-10-23 20:52:00,
2013-10-23 15:53:00,50.5,25.9,30.24,West,270,2.0,8.1,38,0.00,,SKC,0.04,VWS V14.01,2013-10-23 20:53:00,
2013-10-23 15:54:00,51.1,25.7,30.24,NNW,338,0.0,0.0,37,0.00,,SKC,0.04,VWS V14.01,2013-10-23 20:54:00,
2013-10-23 15:55:00,50.9,25.6,30.24,WSW,248,2.0,8.1,37,0.00,,SKC,0.04,VWS V14.01,2013-10-23 20:55:00,
2013-10-23 15:56:00,50.9,25.6,30.24,SSW,202,2.5,9.8,37,0.00,,SKC,0.04,VWS V14.01,2013-10-23 20:56:00,
2013-10-23 15:57:00,50.9,25.6,30.24,WSW,248,3.4,13.4,37,0.00,,SKC,0.04,VWS V14.01,2013-10-23 20:57:00,
2013-10-23 15:58:00,50.9,26.2,30.24,SSE,158,2.7,10.7,38,0.00,,SKC,0.04,VWS V14.01,2013-10-23 20:58:00,
2013-10-23 15:59:00,50.9,25.6,30.24,WSW,248,2.5,9.8,37,0.00,,SKC,0.04,VWS V14.01,2013-10-23 20:59:00,
2013-10-23 16:00:00,50.9,25.6,30.24,WSW,248,4.9,19.7,37,0.00,,SKC,0.04,VWS V14.01,2013-10-23 21:00:00,
2013-10-23 16:01:00,50.9,25.6,30.24,WSW,248,4.9,19.7,37,0.00,,SKC,0.04,VWS V14.01,2013-10-23 21:01:00,
2013-10-23 16:02:00,50.7,25.4,30.24,WSW,248,0.0,0.0,37,0.00,,SKC,0.04,VWS V14.01,2013-10-23 21:02:00,
2013-10-23 16:03:00,50.9,26.2,30.24,NW,315,1.3,5.4,38,0.00,,SKC,0.04,VWS V14.01,2013-10-23 21:03:00,
2013-10-23 16:04:00,50.7,25.4,30.24,West,270,3.8,15.2,37,0.00,,SKC,0.04,VWS V14.01,2013-10-23 21:04:00,
2013-10-23 16:05:00,50.7,25.4,30.24,West,270,1.1,4.5,37,0.00,,SKC,0.04,VWS V14.01,2013-10-23 21:05:00,
2013-10-23 16:06:00,50.5,25.2,30.24,WSW,248,2.2,9.0,37,0.00,,SKC,0.04,VWS V14.01,2013-10-23 21:06:00,
2013-10-23 16:07:00,50.5,25.2,30.24,SSW,202,0.0,0.0,37,0.00,,SKC,0.04,VWS V14.01,2013-10-23 21:07:00,
2013-10-23 16:08:00,50.9,26.8,30.24,WSW,248,1.6,6.3,39,0.00,,SKC,0.04,VWS V14.01,2013-10-23 21:08:00,
2013-10-23 16:09:00,50.7,25.4,30.24,ESE,112,0.0,0.0,37,0.00,,SKC,0.04,VWS V14.01,2013-10-23 21:09:00,
2013-10-23 16:10:00,50.7,25.4,30.24,WSW,248,0.0,0.0,37,0.00,,SKC,0.04,VWS V14.01,2013-10-23 21:10:00,
2013-10-23 16:11:00,50.7,25.4,30.24,NW,315,2.2,9.0,37,0.00,,SKC,0.04,VWS V14.01,2013-10-23 21:11:00,
2013-10-23 16:12:00,50.7,25.4,30.24,West,270,0.9,3.6,37,0.00,,SKC,0.04,VWS V14.01,2013-10-23 21:12:00,
2013-10-23 16:13:00,50.9,26.2,30.24,South,180,0.0,0.0,38,0.00,,SKC,0.04,VWS V14.01,2013-10-23 21:13:00,
2013-10-23 16:14:00,50.7,25.4,30.24,West,270,0.0,0.0,37,0.00,,SKC,0.04,VWS V14.01,2013-10-23 21:14:00,
2013-10-23 16:15:00,50.7,25.4,30.24,WSW,248,1.3,5.4,37,0.00,,SKC,0.04,VWS V14.01,2013-10-23 21:15:00,
2013-10-23 16:16:00,50.7,25.4,30.24,WSW,248,0.0,0.0,37,0.00,,SKC,0.04,VWS V14.01,2013-10-23 21:16:00,
2013-10-23 16:17:00,50.9,26.2,30.24,SW,225,0.0,0.0,38,0.00,,SKC,0.04,VWS V14.01,2013-10-23 21:17:00,
2013-10-23 16:18:00,51.3,26.5,30.24,SW,225,2.5,9.8,38,0.00,,SKC,0.04,VWS V14.01,2013-10-23 21:18:00,
2013-10-23 16:19:00,51.1,26.4,30.24,NW,315,2.2,9.0,38,0.00,,SKC,0.04,VWS V14.01,2013-10-23 21:19:00,
2013-10-23 16:20:00,51.1,26.4,30.24,WNW,292,0.0,0.0,38,0.00,,SKC,0.04,VWS V14.01,2013-10-23 21:20:00,
2013-10-23 16:21:00,51.1,26.4,30.24,West,270,3.4,13.4,38,0.00,,SKC,0.04,VWS V14.01,2013-10-23 21:21:00,
2013-10-23 16:22:00,51.1,26.4,30.24,WSW,248,0.9,3.6,38,0.00,,SKC,0.04,VWS V14.01,2013-10-23 21:22:00,
2013-10-23 16:23:00,50.9,26.2,30.24,SW,225,3.4,13.4,38,0.00,,SKC,0.04,VWS V14.01,2013-10-23 21:23:00,
2013-10-23 16:24:00,51.1,26.4,30.24,WSW,248,2.7,10.7,38,0.00,,SKC,0.04,VWS V14.01,2013-10-23 21:24:00,
2013-10-23 16:25:00,51.1,26.4,30.24,SSW,202,0.0,0.0,38,0.00,,SKC,0.04,VWS V14.01,2013-10-23 21:25:00,
2013-10-23 16:26:00,51.1,26.4,30.24,SW,225,3.1,12.5,38,0.00,,SKC,0.04,VWS V14.01,2013-10-23 21:26:00,
2013-10-23 16:27:00,51.1,26.4,30.24,WSW,248,1.6,6.3,38,0.00,,SKC,0.04,VWS V14.01,2013-10-23 21:27:00,
2013-10-23 16:28:00,50.5,25.9,30.24,SSE,158,0.0,0.0,38,0.00,,SKC,0.04,VWS V14.01,2013-10-23 21:28:00,
2013-10-23 16:29:00,50.7,25.4,30.24,West,270,2.0,8.1,37,0.00,,SKC,0.04,VWS V14.01,2013-10-23 21:29:00,
2013-10-23 16:30:00,50.7,26.1,30.24,WNW,292,0.9,3.6,38,0.00,,SKC,0.04,VWS V14.01,2013-10-23 21:30:00,
2013-10-23 16:31:00,50.7,26.1,30.24,West,270,1.3,5.4,38,0.00,,SKC,0.04,VWS V14.01,2013-10-23 21:31:00,
2013-10-23 16:33:00,50.2,25.6,30.24,WNW,292,2.0,8.1,38,0.00,,SKC,0.04,VWS V14.01,2013-10-23 21:33:00,
2013-10-23 16:34:00,50.7,26.1,30.24,West,270,2.2,9.0,38,0.00,,SKC,0.04,VWS V14.01,2013-10-23 21:34:00,
2013-10-23 16:35:00,50.5,25.9,30.24,WSW,248,0.9,3.6,38,0.00,,SKC,0.04,VWS V14.01,2013-10-23 21:35:00,
2013-10-23 16:36:00,50.4,25.7,30.24,NNW,338,1.3,5.4,38,0.00,,SKC,0.04,VWS V14.01,2013-10-23 21:36:00,
2013-10-23 16:37:00,50.4,25.7,30.24,West,270,2.5,9.8,38,0.00,,SKC,0.04,VWS V14.01,2013-10-23 21:37:00,
2013-10-23 16:38:00,49.8,25.2,30.24,WSW,248,1.6,6.3,38,0.00,,SKC,0.04,VWS V14.01,2013-10-23 21:38:00,
2013-10-23 16:39:00,50.2,25.6,30.24,North,0,0.0,0.0,38,0.00,,SKC,0.04,VWS V14.01,2013-10-23 21:39:00,
2013-10-23 16:40:00,50.2,25.6,30.24,WSW,248,3.6,14.3,38,0.00,,SKC,0.04,VWS V14.01,2013-10-23 21:40:00,
2013-10-23 16:41:00,50.0,25.4,30.24,NNW,338,1.3,5.4,38,0.00,,SKC,0.04,VWS V14.01,2013-10-23 21:41:00,
2013-10-23 16:42:00,50.0,25.4,30.24,WNW,292,1.3,5.4,38,0.00,,SKC,0.04,VWS V14.01,2013-10-23 21:42:00,
2013-10-23 16:43:00,50.0,25.4,30.24,SW,225,0.0,0.0,38,0.00,,SKC,0.04,VWS V14.01,2013-10-23 21:43:00,
2013-10-23 16:44:00,49.8,25.2,30.24,SSE,158,1.3,5.4,38,0.00,,SKC,0.04,VWS V14.01,2013-10-23 21:44:00,
2013-10-23 16:45:00,49.8,25.9,30.24,SSE,158,1.1,4.5,39,0.00,,SKC,0.04,VWS V14.01,2013-10-23 21:45:00,
2013-10-23 16:46:00,49.6,25.7,30.24,SSW,202,0.0,0.0,39,0.00,,SKC,0.04,VWS V14.01,2013-10-23 21:46:00,
2013-10-23 16:47:00,49.6,25.7,30.24,SW,225,0.0,0.0,39,0.00,,SKC,0.04,VWS V14.01,2013-10-23 21:47:00,
2013-10-23 16:48:00,49.6,25.7,30.21,WSW,248,0.0,0.0,39,0.00,,SKC,0.04,VWS V14.01,2013-10-23 21:48:00,
2013-10-23 16:49:00,49.6,25.7,30.24,SW,225,2.2,9.0,39,0.00,,SKC,0.04,VWS V14.01,2013-10-23 21:49:00,
2013-10-23 16:50:00,49.6,25.7,30.24,West,270,1.1,4.5,39,0.00,,SKC,0.04,VWS V14.01,2013-10-23 21:50:00,
2013-10-23 16:51:00,49.6,25.7,30.24,North,0,0.0,0.0,39,0.00,,SKC,0.04,VWS V14.01,2013-10-23 21:51:00,
2013-10-23 16:52:00,49.8,25.9,30.24,NNW,338,1.3,5.4,39,0.00,,SKC,0.04,VWS V14.01,2013-10-23 21:52:00,
2013-10-23 16:53:00,49.6,25.7,30.21,NE,45,0.0,0.0,39,0.00,,SKC,0.04,VWS V14.01,2013-10-23 21:53:00,
2013-10-23 16:54:00,50.0,25.4,30.24,WSW,248,3.4,13.4,38,0.00,,SKC,0.04,VWS V14.01,2013-10-23 21:54:00,
2013-10-23 16:55:00,50.0,25.4,30.24,WNW,292,0.0,0.0,38,0.00,,SKC,0.04,VWS V14.01,2013-10-23 21:55:00,
2013-10-23 16:56:00,50.0,25.4,30.24,WSW,248,1.1,4.5,38,0.00,,SKC,0.04,VWS V14.01,2013-10-23 21:56:00,
2013-10-23 16:57:00,50.2,25.6,30.24,SW,225,0.0,0.0,38,0.00,,SKC,0.04,VWS V14.01,2013-10-23 21:57:00,
2013-10-23 16:58:00,49.6,25.7,30.21,WSW,248,0.0,0.0,39,0.00,,SKC,0.04,VWS V14.01,2013-10-23 21:58:00,
2013-10-23 16:59:00,50.2,25.6,30.24,WSW,248,0.0,0.0,38,0.00,,SKC,0.04,VWS V14.01,2013-10-23 21:59:00,
2013-10-23 17:00:00,50.2,25.6,30.24,West,270,1.6,6.3,38,0.00,,SKC,0.04,VWS V14.01,2013-10-23 22:00:00,
2013-10-23 17:01:00,50.4,25.7,30.24,SW,225,0.0,0.0,38,0.00,,SKC,0.04,VWS V14.01,2013-10-23 22:01:00,
2013-10-23 17:02:00,49.6,25.7,30.21,WSW,248,0.0,0.0,39,0.00,,SKC,0.04,VWS V14.01,2013-10-23 22:02:00,
2013-10-23 17:03:00,50.5,25.9,30.24,WSW,248,2.5,9.8,38,0.00,,SKC,0.04,VWS V14.01,2013-10-23 22:03:00,
2013-10-23 17:04:00,50.5,25.9,30.24,WSW,248,0.9,3.6,38,0.00,,SKC,0.04,VWS V14.01,2013-10-23 22:04:00,
2013-10-23 17:05:00,50.7,26.7,30.24,WSW,248,0.9,3.6,39,0.00,,SKC,0.04,VWS V14.01,2013-10-23 22:05:00,
2013-10-23 17:06:00,50.7,26.1,30.24,West,270,2.7,10.7,38,0.00,,SKC,0.04,VWS V14.01,2013-10-23 22:06:00,
2013-10-23 17:07:00,50.9,26.2,30.24,South,180,1.3,5.4,38,0.00,,SKC,0.04,VWS V14.01,2013-10-23 22:07:00,
2013-10-23 17:08:00,49.5,25.5,30.24,WSW,248,0.0,0.0,39,0.00,,SKC,0.04,VWS V14.01,2013-10-23 22:08:00,
2013-10-23 17:09:00,50.9,26.8,30.24,WNW,292,1.6,6.3,39,0.00,,SKC,0.04,VWS V14.01,2013-10-23 22:09:00,
2013-10-23 17:10:00,50.9,26.2,30.24,SSW,202,1.3,5.4,38,0.00,,SKC,0.04,VWS V14.01,2013-10-23 22:10:00,
2013-10-23 17:11:00,50.9,26.2,30.24,SW,225,2.0,8.1,38,0.00,,SKC,0.04,VWS V14.01,2013-10-23 22:11:00,
2013-10-23 17:12:00,50.9,26.2,30.24,SW,225,2.0,8.1,38,0.00,,SKC,0.04,VWS V14.01,2013-10-23 22:12:00,
2013-10-23 17:13:00,49.3,25.4,30.24,NW,315,0.0,0.0,39,0.00,,SKC,0.04,VWS V14.01,2013-10-23 22:13:00,
2013-10-23 17:14:00,50.7,26.1,30.24,ESE,112,1.1,4.5,38,0.00,,SKC,0.04,VWS V14.01,2013-10-23 22:14:00,
2013-10-23 17:15:00,50.7,26.1,30.24,WSW,248,0.0,0.0,38,0.00,,SKC,0.04,VWS V14.01,2013-10-23 22:15:00,
2013-10-23 17:16:00,50.7,26.1,30.24,ESE,112,0.9,3.6,38,0.00,,SKC,0.04,VWS V14.01,2013-10-23 22:16:00,
2013-10-23 17:17:00,50.7,26.1,30.24,SW,225,0.0,0.0,38,0.00,,SKC,0.04,VWS V14.01,2013-10-23 22:17:00,
2013-10-23 17:18:00,48.9,25.1,30.21,SSW,202,0.0,0.0,39,0.00,,SKC,0.04,VWS V14.01,2013-10-23 22:18:00,
2013-10-23 17:19:00,50.9,26.8,30.24,WSW,248,2.9,11.6,39,0.00,,SKC,0.04,VWS V14.01,2013-10-23 22:19:00,
2013-10-23 17:20:00,51.1,26.4,30.24,West,270,2.5,9.8,38,0.00,,SKC,0.04,VWS V14.01,2013-10-23 22:20:00,
2013-10-23 17:21:00,50.9,26.2,30.24,WSW,248,2.5,9.8,38,0.00,,SKC,0.04,VWS V14.01,2013-10-23 22:21:00,
2013-10-23 17:22:00,50.9,26.2,30.24,SSW,202,0.0,0.0,38,0.00,,SKC,0.04,VWS V14.01,2013-10-23 22:22:00,
2013-10-23 17:23:00,48.9,25.1,30.21,SW,225,0.0,0.0,39,0.00,,SKC,0.04,VWS V14.01,2013-10-23 22:23:00,
2013-10-23 17:24:00,51.1,26.4,30.24,South,180,0.0,0.0,38,0.00,,SKC,0.04,VWS V14.01,2013-10-23 22:24:00,
2013-10-23 17:25:00,51.1,27.0,30.24,West,270,0.0,0.0,39,0.00,,SKC,0.04,VWS V14.01,2013-10-23 22:25:00,
2013-10-23 17:26:00,51.3,26.5,30.24,WSW,248,3.1,12.5,38,0.00,,SKC,0.04,VWS V14.01,2013-10-23 22:26:00,
2013-10-23 17:27:00,51.3,26.5,30.24,SW,225,0.0,0.0,38,0.00,,SKC,0.04,VWS V14.01,2013-10-23 22:27:00,
2013-10-23 17:28:00,48.7,24.9,30.21,WSW,248,0.0,0.0,39,0.00,,SKC,0.04,VWS V14.01,2013-10-23 22:28:00,
2013-10-23 17:29:00,51.3,26.5,30.24,SW,225,0.0,0.0,38,0.00,,SKC,0.04,VWS V14.01,2013-10-23 22:29:00,
2013-10-23 17:30:00,51.3,26.5,30.24,WSW,248,1.3,5.4,38,0.00,,SKC,0.04,VWS V14.01,2013-10-23 22:30:00,
2013-10-23 17:31:00,51.3,26.5,30.24,South,180,0.0,0.0,38,0.00,,SKC,0.04,VWS V14.01,2013-10-23 22:31:00,
2013-10-23 17:32:00,51.1,26.4,30.24,West,270,0.0,0.0,38,0.00,,SKC,0.04,VWS V14.01,2013-10-23 22:32:00,
2013-10-23 17:33:00,48.7,25.5,30.21,West,270,0.0,0.0,40,0.00,,SKC,0.04,VWS V14.01,2013-10-23 22:33:00,
2013-10-23 17:34:00,50.9,26.2,30.24,WSW,248,0.9,3.6,38,0.00,,SKC,0.04,VWS V14.01,2013-10-23 22:34:00,
2013-10-23 17:35:00,50.7,26.1,30.24,SSW,202,0.0,0.0,38,0.00,,SKC,0.04,VWS V14.01,2013-10-23 22:35:00,
2013-10-23 17:36:00,50.7,26.1,30.24,South,180,0.0,0.0,38,0.00,,SKC,0.04,VWS V14.01,2013-10-23 22:36:00,
2013-10-23 17:37:00,50.5,25.9,30.24,West,270,0.0,0.0,38,0.00,,SKC,0.04,VWS V14.01,2013-10-23 22:37:00,
2013-10-23 17:38:00,48.6,25.4,30.21,WNW,292,2.5,9.8,40,0.00,,SKC,0.04,VWS V14.01,2013-10-23 22:38:00,
2013-10-23 17:39:00,50.4,25.7,30.24,West,270,0.9,3.6,38,0.00,,SKC,0.04,VWS V14.01,2013-10-23 22:39:00,
2013-10-23 17:40:00,50.4,25.7,30.24,WSW,248,0.0,0.0,38,0.00,,SKC,0.04,VWS V14.01,2013-10-23 22:40:00,
2013-10-23 17:41:00,50.4,25.7,30.24,SW,225,0.0,0.0,38,0.00,,SKC,0.04,VWS V14.01,2013-10-23 22:41:00,
2013-10-23 17:42:00,50.2,25.6,30.24,SW,225,0.0,0.0,38,0.00,,SKC,0.04,VWS V14.01,2013-10-23 22:42:00,
2013-10-23 17:43:00,48.6,24.7,30.21,WNW,292,0.9,3.6,39,0.00,,SKC,0.04,VWS V14.01,2013-10-23 22:43:00,
2013-10-23 17:44:00,50.2,25.6,30.24,NNW,338,3.4,13.4,38,0.00,,SKC,0.04,VWS V14.01,2013-10-23 22:44:00,
2013-10-23 17:45:00,50.0,25.4,30.24,North,0,2.5,9.8,38,0.00,,SKC,0.04,VWS V14.01,2013-10-23 22:45:00,
2013-10-23 17:46:00,49.8,25.2,30.24,WNW,292,1.3,5.4,38,0.00,,SKC,0.04,VWS V14.01,2013-10-23 22:46:00,
2013-10-23 17:47:00,49.8,25.2,30.24,NNW,338,1.6,6.3,38,0.00,,SKC,0.04,VWS V14.01,2013-10-23 22:47:00,
2013-10-23 17:48:00,48.4,25.2,30.21,SW,225,0.0,0.0,40,0.00,,SKC,0.04,VWS V14.01,2013-10-23 22:48:00,
2013-10-23 17:49:00,49.8,25.2,30.24,WSW,248,0.0,0.0,38,0.00,,SKC,0.04,VWS V14.01,2013-10-23 22:49:00,
2013-10-23 17:50:00,49.8,25.2,30.24,WSW,248,0.0,0.0,38,0.00,,SKC,0.04,VWS V14.01,2013-10-23 22:50:00,
2013-10-23 17:51:00,49.8,25.2,30.24,West,270,0.0,0.0,38,0.00,,SKC,0.04,VWS V14.01,2013-10-23 22:51:00,
2013-10-23 17:52:00,50.0,25.4,30.24,West,270,0.9,3.6,38,0.00,,SKC,0.04,VWS V14.01,2013-10-23 22:52:00,
2013-10-23 17:53:00,48.2,25.0,30.21,NNE,22,0.0,0.0,40,0.00,,SKC,0.04,VWS V14.01,2013-10-23 22:53:00,
2013-10-23 17:54:00,49.8,25.9,30.24,WSW,248,0.0,0.0,39,0.00,,SKC,0.04,VWS V14.01,2013-10-23 22:54:00,
2013-10-23 17:55:00,49.8,25.9,30.24,West,270,0.0,0.0,39,0.00,,SKC,0.04,VWS V14.01,2013-10-23 22:55:00,
2013-10-23 17:56:00,49.8,25.9,30.24,SW,225,0.0,0.0,39,0.00,,SKC,0.04,VWS V14.01,2013-10-23 22:56:00,
2013-10-23 17:57:00,49.8,25.9,30.24,SSE,158,2.7,10.7,39,0.00,,SKC,0.04,VWS V14.01,2013-10-23 22:57:00,
2013-10-23 17:58:00,48.0,25.5,30.21,WSW,248,1.1,4.5,41,0.00,,SKC,0.04,VWS V14.01,2013-10-23 22:58:00,
2013-10-23 17:59:00,49.6,25.7,30.21,West,270,0.0,0.0,39,0.00,,SKC,0.04,VWS V14.01,2013-10-23 22:59:00,
2013-10-23 18:00:00,49.6,25.7,30.21,WSW,248,0.0,0.0,39,0.00,,SKC,0.04,VWS V14.01,2013-10-23 23:00:00,
2013-10-23 18:01:00,49.6,25.7,30.21,WNW,292,0.9,3.6,39,0.00,,SKC,0.04,VWS V14.01,2013-10-23 23:01:00,
2013-10-23 18:02:00,48.0,25.5,30.21,WSW,248,0.0,0.0,41,0.00,,SKC,0.04,VWS V14.01,2013-10-23 23:02:00,
2013-10-23 18:03:00,49.6,25.7,30.21,West,270,0.0,0.0,39,0.00,,SKC,0.04,VWS V14.01,2013-10-23 23:03:00,
2013-10-23 18:05:00,49.6,25.7,30.21,WNW,292,0.0,0.0,39,0.00,,SKC,0.04,VWS V14.01,2013-10-23 23:05:00,
2013-10-23 18:06:00,49.6,25.7,30.21,West,270,2.7,10.7,39,0.00,,SKC,0.04,VWS V14.01,2013-10-23 23:06:00,
2013-10-23 18:07:00,47.8,25.3,30.18,WSW,248,0.0,0.0,41,0.00,,SKC,0.04,VWS V14.01,2013-10-23 23:07:00,
2013-10-23 18:08:00,49.6,25.7,30.21,WSW,248,0.0,0.0,39,0.00,,SKC,0.04,VWS V14.01,2013-10-23 23:08:00,
2013-10-23 18:09:00,49.6,25.7,30.21,NW,315,1.1,4.5,39,0.00,,SKC,0.04,VWS V14.01,2013-10-23 23:09:00,
2013-10-23 18:10:00,49.6,25.7,30.21,West,270,0.0,0.0,39,0.00,,SKC,0.04,VWS V14.01,2013-10-23 23:10:00,
2013-10-23 18:11:00,49.6,25.7,30.21,NE,45,0.0,0.0,39,0.00,,SKC,0.04,VWS V14.01,2013-10-23 23:11:00,
2013-10-23 18:12:00,49.6,25.7,30.21,West,270,0.0,0.0,39,0.00,,SKC,0.04,VWS V14.01,2013-10-23 23:12:00,
2013-10-23 18:13:00,47.7,25.7,30.18,WSW,248,0.0,0.0,42,0.00,,SKC,0.04,VWS V14.01,2013-10-23 23:13:00,
2013-10-23 18:14:00,49.5,25.5,30.24,WSW,248,0.0,0.0,39,0.00,,SKC,0.04,VWS V14.01,2013-10-23 23:14:00,
2013-10-23 18:15:00,49.5,25.5,30.24,West,270,0.0,0.0,39,0.00,,SKC,0.04,VWS V14.01,2013-10-23 23:15:00,
2013-10-23 18:16:00,49.5,25.5,30.24,SW,225,0.0,0.0,39,0.00,,SKC,0.04,VWS V14.01,2013-10-23 23:16:00,
2013-10-23 18:17:00,49.5,25.5,30.24,WNW,292,0.0,0.0,39,0.00,,SKC,0.04,VWS V14.01,2013-10-23 23:17:00,
2013-10-23 18:18:00,47.3,25.4,30.21,West,270,0.0,0.0,42,0.00,,SKC,0.04,VWS V14.01,2013-10-23 23:18:00,
2013-10-23 18:19:00,49.5,25.5,30.24,WSW,248,0.0,0.0,39,0.00,,SKC,0.04,VWS V14.01,2013-10-23 23:19:00,
2013-10-23 18:20:00,49.5,25.5,30.24,West,270,2.5,9.8,39,0.00,,SKC,0.04,VWS V14.01,2013-10-23 23:20:00,
2013-10-23 18:21:00,49.3,25.4,30.24,West,270,1.1,4.5,39,0.00,,SKC,0.04,VWS V14.01,2013-10-23 23:21:00,
2013-10-23 18:22:00,49.3,25.4,30.24,West,270,0.9,3.6,39,0.00,,SKC,0.04,VWS V14.01,2013-10-23 23:22:00,
2013-10-23 18:23:00,47.3,25.4,30.21,West,270,0.0,0.0,42,0.00,,SKC,0.04,VWS V14.01,2013-10-23 23:23:00,
2013-10-23 18:24:00,49.3,25.4,30.24,WNW,292,0.0,0.0,39,0.00,,SKC,0.04,VWS V14.01,2013-10-23 23:24:00,
2013-10-23 18:25:00,49.1,25.2,30.24,West,270,0.0,0.0,39,0.00,,SKC,0.04,VWS V14.01,2013-10-23 23:25:00,
2013-10-23 18:26:00,49.1,25.2,30.24,SW,225,0.0,0.0,39,0.00,,SKC,0.04,VWS V14.01,2013-10-23 23:26:00,
2013-10-23 18:27:00,47.1,25.2,30.21,West,270,0.0,0.0,42,0.00,,SKC,0.04,VWS V14.01,2013-10-23 23:27:00,
2013-10-23 18:28:00,49.1,25.2,30.24,South,180,0.0,0.0,39,0.00,,SKC,0.04,VWS V14.01,2013-10-23 23:28:00,
2013-10-23 18:29:00,48.9,25.1,30.21,SSW,202,0.0,0.0,39,0.00,,SKC,0.04,VWS V14.01,2013-10-23 23:29:00,
2013-10-23 18:30:00,48.9,25.1,30.21,WSW,248,1.3,5.4,39,0.00,,SKC,0.04,VWS V14.01,2013-10-23 23:30:00,
2013-10-23 18:32:00,48.9,25.1,30.21,West,270,0.0,0.0,39,0.00,,SKC,0.04,VWS V14.01,2013-10-23 23:32:00,
2013-10-23 18:33:00,47.1,25.8,30.21,West,270,0.0,0.0,43,0.00,,SKC,0.04,VWS V14.01,2013-10-23 23:33:00,
2013-10-23 18:34:00,48.9,25.1,30.21,SW,225,0.0,0.0,39,0.00,,SKC,0.04,VWS V14.01,2013-10-23 23:34:00,
2013-10-23 18:35:00,48.9,25.1,30.21,WNW,292,0.0,0.0,39,0.00,,SKC,0.04,VWS V14.01,2013-10-23 23:35:00,
2013-10-23 18:36:00,48.9,25.1,30.21,West,270,0.9,3.6,39,0.00,,SKC,0.04,VWS V14.01,2013-10-23 23:36:00,
2013-10-23 18:37:00,48.7,24.9,30.21,West,270,0.0,0.0,39,0.00,,SKC,0.04,VWS V14.01,2013-10-23 23:37:00,
2013-10-23 18:38:00,47.1,25.8,30.21,West,270,0.0,0.0,43,0.00,,SKC,0.04,VWS V14.01,2013-10-23 23:38:00,
2013-10-23 18:39:00,48.7,24.9,30.21,SW,225,0.0,0.0,39,0.00,,SKC,0.04,VWS V14.01,2013-10-23 23:39:00,
2013-10-23 18:40:00,48.7,24.9,30.21,WSW,248,0.0,0.0,39,0.00,,SKC,0.04,VWS V14.01,2013-10-23 23:40:00,
2013-10-23 18:41:00,48.7,24.9,30.21,WNW,292,0.0,0.0,39,0.00,,SKC,0.04,VWS V14.01,2013-10-23 23:41:00,
2013-10-23 18:42:00,48.7,25.5,30.21,South,180,0.0,0.0,40,0.00,,SKC,0.04,VWS V14.01,2013-10-23 23:42:00,
2013-10-23 18:43:00,46.9,25.6,30.21,West,270,0.0,0.0,43,0.00,,SKC,0.04,VWS V14.01,2013-10-23 23:43:00,
2013-10-23 18:44:00,48.7,25.5,30.21,WSW,248,0.0,0.0,40,0.00,,SKC,0.04,VWS V14.01,2013-10-23 23:44:00,
2013-10-23 18:45:00,48.7,25.5,30.21,WSW,248,0.0,0.0,40,0.00,,SKC,0.04,VWS V14.01,2013-10-23 23:45:00,
2013-10-23 18:46:00,48.7,25.5,30.21,SSW,202,0.0,0.0,40,0.00,,SKC,0.04,VWS V14.01,2013-10-23 23:46:00,
2013-10-23 18:47:00,48.6,25.4,30.21,SSW,202,0.0,0.0,40,0.00,,SKC,0.04,VWS V14.01,2013-10-23 23:47:00,
2013-10-23 18:48:00,46.9,25.6,30.21,North,0,0.0,0.0,43,0.00,,SKC,0.04,VWS V14.01,2013-10-23 23:48:00,
2013-10-23 18:49:00,48.6,25.4,30.21,WSW,248,1.6,6.3,40,0.00,,SKC,0.04,VWS V14.01,2013-10-23 23:49:00,
2013-10-23 18:50:00,48.6,25.4,30.21,SW,225,0.0,0.0,40,0.00,,SKC,0.04,VWS V14.01,2013-10-23 23:50:00,
2013-10-23 18:52:00,48.6,25.4,30.21,SW,225,0.0,0.0,40,0.00,,SKC,0.04,VWS V14.01,2013-10-23 23:52:00,
2013-10-23 18:53:00,46.9,26.2,30.24,WNW,292,1.1,4.5,44,0.00,,SKC,0.04,VWS V14.01,2013-10-23 23:53:00,
2013-10-23 18:54:00,48.6,25.4,30.21,North,0,0.0,0.0,40,0.00,,SKC,0.04,VWS V14.01,2013-10-23 23:54:00,
2013-10-23 18:55:00,48.6,25.4,30.21,South,180,0.0,0.0,40,0.00,,SKC,0.04,VWS V14.01,2013-10-23 23:55:00,
2013-10-23 18:56:00,48.4,25.2,30.21,West,270,0.0,0.0,40,0.00,,SKC,0.04,VWS V14.01,2013-10-23 23:56:00,
2013-10-23 18:57:00,48.4,25.2,30.21,SW,225,0.0,0.0,40,0.00,,SKC,0.04,VWS V14.01,2013-10-23 23:57:00,
2013-10-23 18:58:00,47.1,26.3,30.24,North,0,2.7,10.7,44,0.00,,SKC,0.04,VWS V14.01,2013-10-23 23:58:00,
2013-10-23 18:59:00,48.4,25.2,30.21,SW,225,0.0,0.0,40,0.00,,SKC,0.04,VWS V14.01,2013-10-23 23:59:00,
2013-10-23 19:00:00,48.4,25.2,30.21,SW,225,0.0,0.0,40,0.00,,SKC,0.04,VWS V14.01,2013-10-24 00:00:00,
2013-10-23 19:01:00,48.4,25.2,30.21,SSW,202,0.0,0.0,40,0.00,,SKC,0.04,VWS V14.01,2013-10-24 00:01:00,
2013-10-23 19:02:00,48.4,25.2,30.21,SSW,202,0.0,0.0,40,0.00,,SKC,0.04,VWS V14.01,2013-10-24 00:02:00,
2013-10-23 19:03:00,46.9,27.3,30.21,NNE,22,1.1,4.5,46,0.00,,SKC,0.04,VWS V14.01,2013-10-24 00:03:00,
2013-10-23 19:04:00,48.2,25.0,30.21,SSE,158,0.0,0.0,40,0.00,,SKC,0.04,VWS V14.01,2013-10-24 00:04:00,
2013-10-23 19:05:00,48.2,25.0,30.21,SW,225,0.0,0.0,40,0.00,,SKC,0.04,VWS V14.01,2013-10-24 00:05:00,
2013-10-23 19:06:00,48.2,25.0,30.21,SW,225,0.0,0.0,40,0.00,,SKC,0.04,VWS V14.01,2013-10-24 00:06:00,
2013-10-23 19:07:00,48.0,25.5,30.21,SW,225,0.0,0.0,41,0.00,,SKC,0.04,VWS V14.01,2013-10-24 00:07:00,
2013-10-23 19:08:00,46.8,27.1,30.21,North,0,0.0,0.0,46,0.00,,SKC,0.04,VWS V14.01,2013-10-24 00:08:00,
2013-10-23 19:09:00,48.0,25.5,30.21,West,270,0.0,0.0,41,0.00,,SKC,0.04,VWS V14.01,2013-10-24 00:09:00,
2013-10-23 19:10:00,48.0,25.5,30.21,West,270,0.0,0.0,41,0.00,,SKC,0.04,VWS V14.01,2013-10-24 00:10:00,
2013-10-23 19:11:00,48.0,25.5,30.21,WSW,248,0.0,0.0,41,0.00,,SKC,0.04,VWS V14.01,2013-10-24 00:11:00,
2013-10-23 19:12:00,48.0,25.5,30.21,WSW,248,0.0,0.0,41,0.00,,SKC,0.04,VWS V14.01,2013-10-24 00:12:00,
2013-10-23 19:13:00,46.4,27.3,30.21,North,0,0.0,0.0,47,0.00,,SKC,0.04,VWS V14.01,2013-10-24 00:13:00,
2013-10-23 19:14:00,48.0,25.5,30.18,WSW,248,0.0,0.0,41,0.00,,SKC,0.04,VWS V14.01,2013-10-24 00:14:00,
2013-10-23 19:15:00,47.8,25.3,30.18,WSW,248,0.0,0.0,41,0.00,,SKC,0.04,VWS V14.01,2013-10-24 00:15:00,
2013-10-23 19:16:00,47.8,25.3,30.18,WSW,248,0.0,0.0,41,0.00,,SKC,0.04,VWS V14.01,2013-10-24 00:16:00,
2013-10-23 19:17:00,47.8,25.3,30.18,WSW,248,0.0,0.0,41,0.00,,SKC,0.04,VWS V14.01,2013-10-24 00:17:00,
2013-10-23 19:18:00,46.2,27.6,30.24,ENE,68,1.1,4.5,48,0.00,,SKC,0.04,VWS V14.01,2013-10-24 00:18:00,
2013-10-23 19:19:00,47.7,25.7,30.18,WSW,248,0.0,0.0,42,0.00,,SKC,0.04,VWS V14.01,2013-10-24 00:19:00,
2013-10-23 19:20:00,47.7,25.7,30.18,WSW,248,0.0,0.0,42,0.00,,SKC,0.04,VWS V14.01,2013-10-24 00:20:00,
2013-10-23 19:21:00,47.7,25.7,30.18,WSW,248,0.0,0.0,42,0.00,,SKC,0.04,VWS V14.01,2013-10-24 00:21:00,
2013-10-23 19:22:00,47.7,25.7,30.18,WSW,248,0.0,0.0,42,0.00,,SKC,0.04,VWS V14.01,2013-10-24 00:22:00,
2013-10-23 19:23:00,46.0,28.0,30.24,NNE,22,0.0,0.0,49,0.00,,SKC,0.04,VWS V14.01,2013-10-24 00:23:00,
2013-10-23 19:24:00,47.7,25.7,30.18,WSW,248,0.0,0.0,42,0.00,,SKC,0.04,VWS V14.01,2013-10-24 00:24:00,
2013-10-23 19:25:00,47.3,25.4,30.18,WSW,248,0.0,0.0,42,0.00,,SKC,0.04,VWS V14.01,2013-10-24 00:25:00,
2013-10-23 19:26:00,47.3,25.4,30.18,WSW,248,0.0,0.0,42,0.00,,SKC,0.04,VWS V14.01,2013-10-24 00:26:00,
2013-10-23 19:27:00,47.3,25.4,30.18,WSW,248,0.0,0.0,42,0.00,,SKC,0.04,VWS V14.01,2013-10-24 00:27:00,
2013-10-23 19:28:00,45.7,28.6,30.24,WNW,292,2.5,9.8,51,0.00,,SKC,0.04,VWS V14.01,2013-10-24 00:28:00,
2013-10-23 19:29:00,47.3,25.4,30.21,West,270,0.0,0.0,42,0.00,,SKC,0.04,VWS V14.01,2013-10-24 00:29:00,
2013-10-23 19:30:00,47.3,25.4,30.21,West,270,0.0,0.0,42,0.00,,SKC,0.04,VWS V14.01,2013-10-24 00:30:00,
2013-10-23 19:31:00,47.3,25.4,30.21,West,270,0.0,0.0,42,0.00,,SKC,0.04,VWS V14.01,2013-10-24 00:31:00,
2013-10-23 19:32:00,47.3,25.4,30.21,West,270,0.0,0.0,42,0.00,,SKC,0.04,VWS V14.01,2013-10-24 00:32:00,
2013-10-23 19:33:00,45.3,28.8,30.24,WNW,292,3.1,12.5,52,0.00,,SKC,0.04,VWS V14.01,2013-10-24 00:33:00,
2013-10-23 19:34:00,47.3,25.4,30.21,West,270,0.0,0.0,42,0.00,,SKC,0.04,VWS V14.01,2013-10-24 00:34:00,
2013-10-23 19:35:00,47.3,25.4,30.21,West,270,0.0,0.0,42,0.00,,SKC,0.04,VWS V14.01,2013-10-24 00:35:00,
2013-10-23 19:36:00,47.3,25.4,30.21,West,270,0.0,0.0,42,0.00,,SKC,0.04,VWS V14.01,2013-10-24 00:36:00,
2013-10-23 19:37:00,47.3,25.4,30.21,West,270,0.0,0.0,42,0.00,,SKC,0.04,VWS V14.01,2013-10-24 00:37:00,
2013-10-23 19:38:00,45.3,28.8,30.24,WSW,248,0.0,0.0,52,0.00,,SKC,0.04,VWS V14.01,2013-10-24 00:38:00,
2013-10-23 19:39:00,47.1,25.8,30.21,West,270,0.0,0.0,43,0.00,,SKC,0.04,VWS V14.01,2013-10-24 00:39:00,
2013-10-23 19:40:00,47.1,25.8,30.21,West,270,0.0,0.0,43,0.00,,SKC,0.04,VWS V14.01,2013-10-24 00:40:00,
2013-10-23 19:42:00,47.1,25.8,30.21,West,270,0.0,0.0,43,0.00,,SKC,0.04,VWS V14.01,2013-10-24 00:42:00,
2013-10-23 19:43:00,45.1,28.6,30.24,WNW,292,1.1,4.5,52,0.00,,SKC,0.04,VWS V14.01,2013-10-24 00:43:00,
2013-10-23 19:44:00,47.1,25.8,30.21,West,270,0.0,0.0,43,0.00,,SKC,0.04,VWS V14.01,2013-10-24 00:44:00,
2013-10-23 19:45:00,47.1,25.8,30.21,West,270,0.0,0.0,43,0.00,,SKC,0.04,VWS V14.01,2013-10-24 00:45:00,
2013-10-23 19:46:00,47.1,25.8,30.21,West,270,0.0,0.0,43,0.00,,SKC,0.04,VWS V14.01,2013-10-24 00:46:00,
2013-10-23 19:48:00,45.1,29.0,30.27,NNE,22,0.0,0.0,53,0.00,,SKC,0.04,VWS V14.01,2013-10-24 00:48:00,
2013-10-23 19:49:00,47.1,25.8,30.21,West,270,0.0,0.0,43,0.00,,SKC,0.04,VWS V14.01,2013-10-24 00:49:00,
2013-10-23 19:50:00,46.9,25.6,30.21,West,270,0.0,0.0,43,0.00,,SKC,0.04,VWS V14.01,2013-10-24 00:50:00,
2013-10-23 19:51:00,46.9,25.6,30.21,West,270,0.0,0.0,43,0.00,,SKC,0.04,VWS V14.01,2013-10-24 00:51:00,
2013-10-23 19:52:00,46.9,25.6,30.21,West,270,0.0,0.0,43,0.00,,SKC,0.04,VWS V14.01,2013-10-24 00:52:00,
2013-10-23 19:53:00,45.1,29.5,30.27,North,0,2.9,11.6,54,0.00,,SKC,0.04,VWS V14.01,2013-10-24 00:53:00,
2013-10-23 19:54:00,46.9,25.6,30.21,West,270,0.0,0.0,43,0.00,,SKC,0.04,VWS V14.01,2013-10-24 00:54:00,
2013-10-23 19:55:00,46.9,25.6,30.21,West,270,0.0,0.0,43,0.00,,SKC,0.04,VWS V14.01,2013-10-24 00:55:00,
2013-10-23 19:56:00,46.9,25.6,30.21,NNW,338,0.0,0.0,43,0.00,,SKC,0.04,VWS V14.01,2013-10-24 00:56:00,
2013-10-23 19:57:00,46.9,25.6,30.21,NNW,338,0.0,0.0,43,0.00,,SKC,0.04,VWS V14.01,2013-10-24 00:57:00,
2013-10-23 19:58:00,44.8,29.6,30.27,East,90,1.3,5.4,55,0.00,,SKC,0.04,VWS V14.01,2013-10-24 00:58:00,
2013-10-23 19:59:00,46.9,25.6,30.21,North,0,0.0,0.0,43,0.00,,SKC,0.04,VWS V14.01,2013-10-24 00:59:00,
2013-10-23 20:00:00,46.9,26.2,30.24,WNW,292,0.9,3.6,44,0.00,,SKC,0.04,VWS V14.01,2013-10-24 01:00:00,
2013-10-23 20:01:00,46.9,25.6,30.24,NNW,338,1.3,5.4,43,0.00,,SKC,0.04,VWS V14.01,2013-10-24 01:01:00,
2013-10-23 20:02:00,46.9,26.2,30.24,North,0,0.0,0.0,44,0.00,,SKC,0.04,VWS V14.01,2013-10-24 01:02:00,
2013-10-23 20:03:00,44.6,29.5,30.27,NNW,338,3.4,13.4,55,0.00,,SKC,0.04,VWS V14.01,2013-10-24 01:03:00,
2013-10-23 20:04:00,46.9,26.2,30.24,NNE,22,0.0,0.0,44,0.00,,SKC,0.04,VWS V14.01,2013-10-24 01:04:00,
2013-10-23 20:05:00,47.1,26.3,30.24,North,0,0.0,0.0,44,0.00,,SKC,0.04,VWS V14.01,2013-10-24 01:05:00,
2013-10-23 20:06:00,47.1,26.3,30.24,North,0,0.9,3.6,44,0.00,,SKC,0.04,VWS V14.01,2013-10-24 01:06:00,
2013-10-23 20:07:00,47.1,26.3,30.24,East,90,1.6,6.3,44,0.00,,SKC,0.04,VWS V14.01,2013-10-24 01:07:00,
2013-10-23 20:08:00,44.4,30.2,30.27,NNE,22,0.0,0.0,57,0.00,,SKC,0.04,VWS V14.01,2013-10-24 01:08:00,
2013-10-23 20:09:00,46.9,26.7,30.24,North,0,3.4,13.4,45,0.00,,SKC,0.04,VWS V14.01,2013-10-24 01:09:00,
2013-10-23 20:10:00,46.9,26.7,30.24,NNW,338,1.1,4.5,45,0.00,,SKC,0.04,VWS V14.01,2013-10-24 01:10:00,
2013-10-23 20:11:00,46.9,26.7,30.24,WNW,292,4.3,17.0,45,0.00,,SKC,0.04,VWS V14.01,2013-10-24 01:11:00,
2013-10-23 20:12:00,46.9,26.7,30.24,ENE,68,2.9,11.6,45,0.00,,SKC,0.04,VWS V14.01,2013-10-24 01:12:00,
2013-10-23 20:13:00,44.1,30.7,30.27,West,270,1.6,6.3,59,0.00,,SKC,0.04,VWS V14.01,2013-10-24 01:13:00,
2013-10-23 20:14:00,46.9,27.2,30.21,NNE,22,2.7,10.7,46,0.00,,SKC,0.04,VWS V14.01,2013-10-24 01:14:00,
2013-10-23 20:15:00,46.8,27.1,30.21,NW,315,0.0,0.0,46,0.00,,SKC,0.04,VWS V14.01,2013-10-24 01:15:00,
2013-10-23 20:16:00,46.8,27.1,30.21,NE,45,0.0,0.0,46,0.00,,SKC,0.04,VWS V14.01,2013-10-24 01:16:00,
2013-10-23 20:17:00,46.8,27.1,30.21,NW,315,2.5,9.8,46,0.00,,SKC,0.04,VWS V14.01,2013-10-24 01:17:00,
2013-10-23 20:18:00,43.9,31.3,30.27,NNW,338,3.1,12.5,61,0.00,,SKC,0.04,VWS V14.01,2013-10-24 01:18:00,
2013-10-23 20:19:00,46.8,27.1,30.21,WSW,248,0.0,0.0,46,0.00,,SKC,0.04,VWS V14.01,2013-10-24 01:19:00,
2013-10-23 20:20:00,46.8,27.1,30.21,NNW,338,1.3,5.4,46,0.00,,SKC,0.04,VWS V14.01,2013-10-24 01:20:00,
2013-10-23 20:21:00,46.8,27.1,30.21,North,0,0.9,3.6,46,0.00,,SKC,0.04,VWS V14.01,2013-10-24 01:21:00,
2013-10-23 20:22:00,46.8,27.1,30.21,NNW,338,2.0,8.1,46,0.00,,SKC,0.04,VWS V14.01,2013-10-24 01:22:00,
2013-10-23 20:23:00,43.5,31.8,30.27,North,0,2.0,8.1,63,0.00,,SKC,0.04,VWS V14.01,2013-10-24 01:23:00,
2013-10-23 20:24:00,46.4,27.8,30.21,West,270,5.4,21.5,48,0.00,,SKC,0.04,VWS V14.01,2013-10-24 01:24:00,
2013-10-23 20:25:00,46.4,27.8,30.21,NE,45,2.2,9.0,48,0.00,,SKC,0.04,VWS V14.01,2013-10-24 01:25:00,
2013-10-23 20:26:00,46.4,27.8,30.21,WSW,248,0.0,0.0,48,0.00,,SKC,0.04,VWS V14.01,2013-10-24 01:26:00,
2013-10-23 20:27:00,46.2,27.6,30.21,SW,225,1.3,5.4,48,0.00,,SKC,0.04,VWS V14.01,2013-10-24 01:27:00,
2013-10-23 20:28:00,43.3,31.6,30.27,NW,315,1.3,5.4,63,0.00,,SKC,0.04,VWS V14.01,2013-10-24 01:28:00,
2013-10-23 20:29:00,46.2,28.1,30.24,ENE,68,0.9,3.6,49,0.00,,SKC,0.04,VWS V14.01,2013-10-24 01:29:00,
2013-10-23 20:30:00,46.2,28.1,30.24,WSW,248,0.0,0.0,49,0.00,,SKC,0.04,VWS V14.01,2013-10-24 01:30:00,
2013-10-23 20:31:00,46.0,28.0,30.24,West,270,0.0,0.0,49,0.00,,SKC,0.04,VWS V14.01,2013-10-24 01:31:00,
2013-10-23 20:32:00,46.0,28.0,30.24,NW,315,0.0,0.0,49,0.00,,SKC,0.04,VWS V14.01,2013-10-24 01:32:00,
2013-10-23 20:33:00,43.2,31.8,30.27,NNW,338,1.1,4.5,64,0.00,,SKC,0.04,VWS V14.01,2013-10-24 01:33:00,
2013-10-23 20:34:00,46.0,28.0,30.24,SSW,202,1.6,6.3,49,0.00,,SKC,0.04,VWS V14.01,2013-10-24 01:34:00,
2013-10-23 20:35:00,45.9,28.3,30.24,North,0,0.0,0.0,50,0.00,,SKC,0.04,VWS V14.01,2013-10-24 01:35:00,
2013-10-23 20:36:00,45.9,28.3,30.24,NNW,338,0.0,0.0,50,0.00,,SKC,0.04,VWS V14.01,2013-10-24 01:36:00,
2013-10-23 20:37:00,45.9,28.3,30.24,NNW,338,1.3,5.4,50,0.00,,SKC,0.04,VWS V14.01,2013-10-24 01:37:00,
2013-10-23 20:38:00,43.0,31.6,30.27,West,270,0.9,3.6,64,0.00,,SKC,0.04,VWS V14.01,2013-10-24 01:38:00,
2013-10-23 20:39:00,45.5,28.4,30.24,WSW,248,2.5,9.8,51,0.00,,SKC,0.04,VWS V14.01,2013-10-24 01:39:00,
2013-10-23 20:40:00,45.5,28.4,30.24,NNW,338,0.9,3.6,51,0.00,,SKC,0.04,VWS V14.01,2013-10-24 01:40:00,
2013-10-23 20:41:00,45.5,28.4,30.24,WSW,248,0.9,3.6,51,0.00,,SKC,0.04,VWS V14.01,2013-10-24 01:41:00,
2013-10-23 20:42:00,45.5,28.4,30.24,West,270,1.1,4.5,51,0.00,,SKC,0.04,VWS V14.01,2013-10-24 01:42:00,
2013-10-23 20:43:00,42.8,31.9,30.27,NW,315,0.0,0.0,65,0.00,,SKC,0.04,VWS V14.01,2013-10-24 01:43:00,
2013-10-23 20:44:00,45.3,28.8,30.24,WNW,292,0.0,0.0,52,0.00,,SKC,0.04,VWS V14.01,2013-10-24 01:44:00,
2013-10-23 20:45:00,45.3,28.8,30.24,NE,45,2.2,9.0,52,0.00,,SKC,0.04,VWS V14.01,2013-10-24 01:45:00,
2013-10-23 20:46:00,45.3,28.8,30.24,NNE,22,2.2,9.0,52,0.00,,SKC,0.04,VWS V14.01,2013-10-24 01:46:00,
2013-10-23 20:47:00,45.3,28.8,30.24,NW,315,2.0,8.1,52,0.00,,SKC,0.04,VWS V14.01,2013-10-24 01:47:00,
2013-10-23 20:48:00,42.8,31.9,30.27,WNW,292,0.0,0.0,65,0.00,,SKC,0.04,VWS V14.01,2013-10-24 01:48:00,
2013-10-23 20:49:00,45.3,28.8,30.24,SSW,202,2.2,9.0,52,0.00,,SKC,0.04,VWS V14.01,2013-10-24 01:49:00,
2013-10-23 20:50:00,45.3,28.8,30.24,SSW,202,2.2,9.0,52,0.00,,SKC,0.04,VWS V14.01,2013-10-24 01:50:00,
2013-10-23 20:51:00,45.1,29.0,30.24,West,270,0.0,0.0,53,0.00,,SKC,0.04,VWS V14.01,2013-10-24 01:51:00,
2013-10-23 20:52:00,45.1,28.6,30.24,West,270,0.0,0.0,52,0.00,,SKC,0.04,VWS V14.01,2013-10-24 01:52:00,
2013-10-23 20:53:00,42.6,32.1,30.27,West,270,0.0,0.0,66,0.00,,SKC,0.04,VWS V14.01,2013-10-24 01:53:00,
2013-10-23 20:54:00,45.1,29.0,30.24,WNW,292,3.1,12.5,53,0.00,,SKC,0.04,VWS V14.01,2013-10-24 01:54:00,
2013-10-23 20:55:00,45.1,29.0,30.24,NW,315,1.6,6.3,53,0.00,,SKC,0.04,VWS V14.01,2013-10-24 01:55:00,
2013-10-23 20:56:00,45.1,29.0,30.24,NNW,338,1.3,5.4,53,0.00,,SKC,0.04,VWS V14.01,2013-10-24 01:56:00,
2013-10-23 20:57:00,45.1,29.0,30.24,West,270,0.0,0.0,53,0.00,,SKC,0.04,VWS V14.01,2013-10-24 01:57:00,
2013-10-23 20:58:00,42.6,32.4,30.27,WSW,248,1.3,5.4,67,0.00,,SKC,0.04,VWS V14.01,2013-10-24 01:58:00,
2013-10-23 20:59:00,45.1,29.0,30.27,North,0,0.0,0.0,53,0.00,,SKC,0.04,VWS V14.01,2013-10-24 01:59:00,
2013-10-23 21:00:00,45.1,29.0,30.27,East,90,0.0,0.0,53,0.00,,SKC,0.04,VWS V14.01,2013-10-24 02:00:00,
2013-10-23 21:01:00,45.1,29.0,30.27,NW,315,3.4,13.4,53,0.00,,SKC,0.04,VWS V14.01,2013-10-24 02:01:00,
2013-10-23 21:02:00,45.1,29.5,30.27,West,270,3.1,12.5,54,0.00,,SKC,0.04,VWS V14.01,2013-10-24 02:02:00,
2013-10-23 21:03:00,42.4,32.6,30.27,WSW,248,1.1,4.5,68,0.00,,SKC,0.04,VWS V14.01,2013-10-24 02:03:00,
2013-10-23 21:04:00,45.0,29.3,30.27,NNW,338,1.6,6.3,54,0.00,,SKC,0.04,VWS V14.01,2013-10-24 02:04:00,
2013-10-23 21:05:00,45.0,29.3,30.27,North,0,2.5,9.8,54,0.00,,SKC,0.04,VWS V14.01,2013-10-24 02:05:00,
2013-10-23 21:06:00,45.0,29.3,30.27,WSW,248,0.0,0.0,54,0.00,,SKC,0.04,VWS V14.01,2013-10-24 02:06:00,
2013-10-23 21:07:00,45.0,29.3,30.27,ENE,68,0.0,0.0,54,0.00,,SKC,0.04,VWS V14.01,2013-10-24 02:07:00,
2013-10-23 21:08:00,42.4,32.6,30.27,NNW,338,0.0,0.0,68,0.00,,SKC,0.04,VWS V14.01,2013-10-24 02:08:00,
2013-10-23 21:09:00,44.8,29.6,30.27,North,0,4.3,17.0,55,0.00,,SKC,0.04,VWS V14.01,2013-10-24 02:09:00,
2013-10-23 21:10:00,44.8,29.6,30.27,WNW,292,0.0,0.0,55,0.00,,SKC,0.04,VWS V14.01,2013-10-24 02:10:00,
2013-10-23 21:11:00,44.8,29.6,30.27,NE,45,2.2,9.0,55,0.00,,SKC,0.04,VWS V14.01,2013-10-24 02:11:00,
2013-10-23 21:12:00,44.8,29.6,30.27,North,0,1.1,4.5,55,0.00,,SKC,0.04,VWS V14.01,2013-10-24 02:12:00,
2013-10-23 21:13:00,42.4,32.6,30.27,WNW,292,0.0,0.0,68,0.00,,SKC,0.04,VWS V14.01,2013-10-24 02:13:00,
2013-10-23 21:14:00,44.6,29.9,30.27,West,270,1.3,5.4,56,0.00,,SKC,0.04,VWS V14.01,2013-10-24 02:14:00,
2013-10-23 21:15:00,44.6,29.9,30.27,NNW,338,2.5,9.8,56,0.00,,SKC,0.04,VWS V14.01,2013-10-24 02:15:00,
2013-10-23 21:16:00,44.4,30.2,30.27,NNW,338,1.3,5.4,57,0.00,,SKC,0.04,VWS V14.01,2013-10-24 02:16:00,
2013-10-23 21:17:00,44.4,30.2,30.27,SE,135,1.1,4.5,57,0.00,,SKC,0.04,VWS V14.01,2013-10-24 02:17:00,
2013-10-23 21:18:00,42.3,32.5,30.30,SW,225,0.0,0.0,68,0.00,,SKC,0.04,VWS V14.01,2013-10-24 02:18:00,
2013-10-23 21:19:00,44.2,30.0,30.27,NE,45,4.9,19.7,57,0.00,,SKC,0.04,VWS V14.01,2013-10-24 02:19:00,
2013-10-23 21:20:00,44.2,30.4,30.27,NE,45,1.3,5.4,58,0.00,,SKC,0.04,VWS V14.01,2013-10-24 02:20:00,
2013-10-23 21:21:00,44.2,30.4,30.27,NE,45,0.9,3.6,58,0.00,,SKC,0.04,VWS V14.01,2013-10-24 02:21:00,
2013-10-23 21:22:00,44.2,30.4,30.27,North,0,2.9,11.6,58,0.00,,SKC,0.04,VWS V14.01,2013-10-24 02:22:00,
2013-10-23 21:23:00,42.3,32.5,30.30,West,270,0.9,3.6,68,0.00,,SKC,0.04,VWS V14.01,2013-10-24 02:23:00,
2013-10-23 21:24:00,44.1,30.7,30.27,West,270,1.3,5.4,59,0.00,,SKC,0.04,VWS V14.01,2013-10-24 02:24:00,
2013-10-23 21:25:00,44.1,31.1,30.27,NE,45,2.0,8.1,60,0.00,,SKC,0.04,VWS V14.01,2013-10-24 02:25:00,
2013-10-23 21:26:00,44.1,31.1,30.27,East,90,3.6,14.3,60,0.00,,SKC,0.04,VWS V14.01,2013-10-24 02:26:00,
2013-10-23 21:27:00,43.9,31.3,30.27,North,0,0.0,0.0,61,0.00,,SKC,0.04,VWS V14.01,2013-10-24 02:27:00,
2013-10-23 21:28:00,42.3,32.5,30.30,SW,225,0.0,0.0,68,0.00,,SKC,0.04,VWS V14.01,2013-10-24 02:28:00,
2013-10-23 21:30:00,43.7,31.9,30.27,North,0,2.7,10.7,63,0.00,,SKC,0.04,VWS V14.01,2013-10-24 02:30:00,
2013-10-23 21:31:00,43.7,31.9,30.27,North,0,2.0,8.1,63,0.00,,SKC,0.04,VWS V14.01,2013-10-24 02:31:00,
2013-10-23 21:32:00,43.5,31.8,30.27,NNE,22,3.4,13.4,63,0.00,,SKC,0.04,VWS V14.01,2013-10-24 02:32:00,
2013-10-23 21:33:00,42.3,32.5,30.27,SW,225,0.0,0.0,68,0.00,,SKC,0.04,VWS V14.01,2013-10-24 02:33:00,
2013-10-23 21:34:00,43.5,31.8,30.27,NNE,22,1.3,5.4,63,0.00,,SKC,0.04,VWS V14.01,2013-10-24 02:34:00,
2013-10-23 21:35:00,43.5,32.2,30.27,WSW,248,1.6,6.3,64,0.00,,SKC,0.04,VWS V14.01,2013-10-24 02:35:00,
2013-10-23 21:36:00,43.3,31.6,30.27,WNW,292,2.2,9.0,63,0.00,,SKC,0.04,VWS V14.01,2013-10-24 02:36:00,
2013-10-23 21:37:00,43.3,32.0,30.27,NNW,338,0.0,0.0,64,0.00,,SKC,0.04,VWS V14.01,2013-10-24 02:37:00,
2013-10-23 21:38:00,42.1,33.0,30.27,WNW,292,1.1,4.5,70,0.00,,SKC,0.04,VWS V14.01,2013-10-24 02:38:00,
2013-10-23 21:39:00,43.2,31.8,30.27,West,270,0.0,0.0,64,0.00,,SKC,0.04,VWS V14.01,2013-10-24 02:39:00,
2013-10-23 21:40:00,43.2,31.8,30.27,NW,315,1.1,4.5,64,0.00,,SKC,0.04,VWS V14.01,2013-10-24 02:40:00,
2013-10-23 21:41:00,43.2,31.8,30.27,NW,315,1.6,6.3,64,0.00,,SKC,0.04,VWS V14.01,2013-10-24 02:41:00,
2013-10-23 21:42:00,43.2,31.8,30.27,WNW,292,0.0,0.0,64,0.00,,SKC,0.04,VWS V14.01,2013-10-24 02:42:00,
2013-10-23 21:43:00,42.1,33.0,30.27,West,270,0.0,0.0,70,0.00,,SKC,0.04,VWS V14.01,2013-10-24 02:43:00,
2013-10-23 21:44:00,43.0,31.6,30.27,WSW,248,0.0,0.0,64,0.00,,SKC,0.04,VWS V14.01,2013-10-24 02:44:00,
2013-10-23 21:45:00,43.0,31.6,30.27,NW,315,0.0,0.0,64,0.00,,SKC,0.04,VWS V14.01,2013-10-24 02:45:00,
2013-10-23 21:46:00,43.0,31.6,30.27,NW,315,2.9,11.6,64,0.00,,SKC,0.04,VWS V14.01,2013-10-24 02:46:00,
2013-10-23 21:47:00,43.0,31.6,30.27,WSW,248,0.9,3.6,64,0.00,,SKC,0.04,VWS V14.01,2013-10-24 02:47:00,
2013-10-23 21:48:00,42.1,33.0,30.30,SW,225,0.0,0.0,70,0.00,,SKC,0.04,VWS V14.01,2013-10-24 02:48:00,
2013-10-23 21:49:00,43.0,31.6,30.27,NNW,338,0.0,0.0,64,0.00,,SKC,0.04,VWS V14.01,2013-10-24 02:49:00,
2013-10-23 21:50:00,43.0,31.6,30.27,WNW,292,2.0,8.1,64,0.00,,SKC,0.04,VWS V14.01,2013-10-24 02:50:00,
2013-10-23 21:51:00,42.8,31.5,30.27,WNW,292,0.0,0.0,64,0.00,,SKC,0.04,VWS V14.01,2013-10-24 02:51:00,
2013-10-23 21:52:00,42.8,31.5,30.27,West,270,1.3,5.4,64,0.00,,SKC,0.04,VWS V14.01,2013-10-24 02:52:00,
2013-10-23 21:53:00,42.1,33.0,30.30,NW,315,0.0,0.0,70,0.00,,SKC,0.04,VWS V14.01,2013-10-24 02:53:00,
2013-10-23 21:54:00,42.8,31.9,30.27,North,0,0.0,0.0,65,0.00,,SKC,0.04,VWS V14.01,2013-10-24 02:54:00,
2013-10-23 21:55:00,42.8,31.9,30.27,NE,45,0.0,0.0,65,0.00,,SKC,0.04,VWS V14.01,2013-10-24 02:55:00,
2013-10-23 21:56:00,42.8,31.9,30.27,SE,135,1.1,4.5,65,0.00,,SKC,0.04,VWS V14.01,2013-10-24 02:56:00,
2013-10-23 21:57:00,42.8,31.9,30.27,NW,315,0.0,0.0,65,0.00,,SKC,0.04,VWS V14.01,2013-10-24 02:57:00,
2013-10-23 21:58:00,42.1,33.4,30.30,West,270,0.0,0.0,71,0.00,,SKC,0.04,VWS V14.01,2013-10-24 02:58:00,
2013-10-23 21:59:00,42.8,31.9,30.27,West,270,1.1,4.5,65,0.00,,SKC,0.04,VWS V14.01,2013-10-24 02:59:00,
2013-10-23 22:00:00,42.8,31.9,30.27,WNW,292,0.0,0.0,65,0.00,,SKC,0.04,VWS V14.01,2013-10-24 03:00:00,
2013-10-23 22:01:00,42.8,31.9,30.27,NW,315,0.0,0.0,65,0.00,,SKC,0.04,VWS V14.01,2013-10-24 03:01:00,
2013-10-23 22:02:00,42.6,32.1,30.27,SW,225,0.0,0.0,66,0.00,,SKC,0.04,VWS V14.01,2013-10-24 03:02:00,
2013-10-23 22:03:00,42.1,33.4,30.30,West,270,0.0,0.0,71,0.00,,SKC,0.04,VWS V14.01,2013-10-24 03:03:00,
2013-10-23 22:04:00,42.6,32.1,30.27,WSW,248,1.1,4.5,66,0.00,,SKC,0.04,VWS V14.01,2013-10-24 03:04:00,
2013-10-23 22:05:00,42.6,32.1,30.27,NNW,338,1.6,6.3,66,0.00,,SKC,0.04,VWS V14.01,2013-10-24 03:05:00,
2013-10-23 22:06:00,42.6,32.1,30.27,NNE,22,0.0,0.0,66,0.00,,SKC,0.04,VWS V14.01,2013-10-24 03:06:00,
2013-10-23 22:07:00,42.6,32.1,30.27,West,270,0.0,0.0,66,0.00,,SKC,0.04,VWS V14.01,2013-10-24 03:07:00,
2013-10-23 22:08:00,42.1,33.7,30.30,WSW,248,2.9,11.6,72,0.00,,SKC,0.04,VWS V14.01,2013-10-24 03:08:00,
2013-10-23 22:09:00,42.6,32.8,30.27,SW,225,0.0,0.0,68,0.00,,SKC,0.04,VWS V14.01,2013-10-24 03:09:00,
2013-10-23 22:10:00,42.4,32.6,30.27,West,270,0.0,0.0,68,0.00,,SKC,0.04,VWS V14.01,2013-10-24 03:10:00,
2013-10-23 22:11:00,42.4,32.6,30.27,SW,225,0.0,0.0,68,0.00,,SKC,0.04,VWS V14.01,2013-10-24 03:11:00,
2013-10-23 22:12:00,42.4,32.6,30.27,WNW,292,0.0,0.0,68,0.00,,SKC,0.04,VWS V14.01,2013-10-24 03:12:00,
2013-10-23 22:13:00,42.1,33.7,30.30,North,0,1.3,5.4,72,0.00,,SKC,0.04,VWS V14.01,2013-10-24 03:13:00,
2013-10-23 22:14:00,42.4,32.6,30.27,WSW,248,1.1,4.5,68,0.00,,SKC,0.04,VWS V14.01,2013-10-24 03:14:00,
2013-10-23 22:15:00,42.4,32.6,30.27,WSW,248,0.0,0.0,68,0.00,,SKC,0.04,VWS V14.01,2013-10-24 03:15:00,
2013-10-23 22:16:00,42.4,32.6,30.27,WNW,292,0.0,0.0,68,0.00,,SKC,0.04,VWS V14.01,2013-10-24 03:16:00,
2013-10-23 22:17:00,42.4,32.6,30.27,North,0,0.0,0.0,68,0.00,,SKC,0.04,VWS V14.01,2013-10-24 03:17:00,
2013-10-23 22:18:00,42.1,33.4,30.27,WSW,248,0.0,0.0,71,0.00,,SKC,0.04,VWS V14.01,2013-10-24 03:18:00,
2013-10-23 22:19:00,42.4,32.6,30.27,NNW,338,0.0,0.0,68,0.00,,SKC,0.04,VWS V14.01,2013-10-24 03:19:00,
2013-10-23 22:20:00,42.4,32.6,30.27,North,0,0.0,0.0,68,0.00,,SKC,0.04,VWS V14.01,2013-10-24 03:20:00,
2013-10-23 22:21:00,42.4,32.6,30.27,NNW,338,1.1,4.5,68,0.00,,SKC,0.04,VWS V14.01,2013-10-24 03:21:00,
2013-10-23 22:22:00,42.4,32.6,30.27,WNW,292,1.1,4.5,68,0.00,,SKC,0.04,VWS V14.01,2013-10-24 03:22:00,
2013-10-23 22:23:00,42.1,33.4,30.27,WSW,248,0.0,0.0,71,0.00,,SKC,0.04,VWS V14.01,2013-10-24 03:23:00,
2013-10-23 22:24:00,42.4,32.6,30.27,NNW,338,2.5,9.8,68,0.00,,SKC,0.04,VWS V14.01,2013-10-24 03:24:00,
2013-10-23 22:25:00,42.3,32.5,30.27,NW,315,0.0,0.0,68,0.00,,SKC,0.04,VWS V14.01,2013-10-24 03:25:00,
2013-10-23 22:27:00,42.3,32.5,30.27,NW,315,0.0,0.0,68,0.00,,SKC,0.04,VWS V14.01,2013-10-24 03:27:00,
2013-10-23 22:28:00,42.1,33.4,30.27,WSW,248,0.0,0.0,71,0.00,,SKC,0.04,VWS V14.01,2013-10-24 03:28:00,
2013-10-23 22:29:00,42.3,32.5,30.30,WNW,292,0.0,0.0,68,0.00,,SKC,0.04,VWS V14.01,2013-10-24 03:29:00,
2013-10-23 22:30:00,42.3,32.5,30.30,WSW,248,0.0,0.0,68,0.00,,SKC,0.04,VWS V14.01,2013-10-24 03:30:00,
2013-10-23 22:31:00,42.3,32.5,30.30,West,270,0.0,0.0,68,0.00,,SKC,0.04,VWS V14.01,2013-10-24 03:31:00,
2013-10-23 22:32:00,42.3,32.5,30.30,West,270,0.0,0.0,68,0.00,,SKC,0.04,VWS V14.01,2013-10-24 03:32:00,
2013-10-23 22:33:00,42.1,33.7,30.27,WSW,248,0.0,0.0,72,0.00,,SKC,0.04,VWS V14.01,2013-10-24 03:33:00,
2013-10-23 22:34:00,42.3,32.5,30.30,WSW,248,2.5,9.8,68,0.00,,SKC,0.04,VWS V14.01,2013-10-24 03:34:00,
2013-10-23 22:35:00,42.3,32.5,30.30,West,270,0.0,0.0,68,0.00,,SKC,0.04,VWS V14.01,2013-10-24 03:35:00,
2013-10-23 22:36:00,42.3,32.5,30.30,WNW,292,0.0,0.0,68,0.00,,SKC,0.04,VWS V14.01,2013-10-24 03:36:00,
2013-10-23 22:37:00,42.3,32.5,30.30,WSW,248,0.0,0.0,68,0.00,,SKC,0.04,VWS V14.01,2013-10-24 03:37:00,
2013-10-23 22:38:00,42.1,33.7,30.27,NW,315,0.0,0.0,72,0.00,,SKC,0.04,VWS V14.01,2013-10-24 03:38:00,
2013-10-23 22:39:00,42.3,32.5,30.30,WSW,248,0.0,0.0,68,0.00,,SKC,0.04,VWS V14.01,2013-10-24 03:39:00,
2013-10-23 22:41:00,42.3,32.5,30.30,WSW,248,0.0,0.0,68,0.00,,SKC,0.04,VWS V14.01,2013-10-24 03:41:00,
2013-10-23 22:42:00,42.3,32.5,30.30,NNE,22,0.0,0.0,68,0.00,,SKC,0.04,VWS V14.01,2013-10-24 03:42:00,
2013-10-23 22:43:00,42.1,33.7,30.27,West,270,0.0,0.0,72,0.00,,SKC,0.04,VWS V14.01,2013-10-24 03:43:00,
2013-10-23 22:44:00,42.3,32.5,30.27,SSW,202,1.3,5.4,68,0.00,,SKC,0.04,VWS V14.01,2013-10-24 03:44:00,
2013-10-23 22:45:00,42.3,32.8,30.27,NW,315,1.1,4.5,69,0.00,,SKC,0.04,VWS V14.01,2013-10-24 03:45:00,
2013-10-23 22:46:00,42.3,32.8,30.27,NW,315,2.9,11.6,69,0.00,,SKC,0.04,VWS V14.01,2013-10-24 03:46:00,
2013-10-23 22:47:00,42.1,33.0,30.27,NW,315,0.0,0.0,70,0.00,,SKC,0.04,VWS V14.01,2013-10-24 03:47:00,
2013-10-23 22:48:00,42.1,33.7,30.27,West,270,0.0,0.0,72,0.00,,SKC,0.04,VWS V14.01,2013-10-24 03:48:00,
2013-10-23 22:49:00,42.1,33.0,30.27,WNW,292,2.0,8.1,70,0.00,,SKC,0.04,VWS V14.01,2013-10-24 03:49:00,
2013-10-23 22:50:00,42.1,33.0,30.27,North,0,0.0,0.0,70,0.00,,SKC,0.04,VWS V14.01,2013-10-24 03:50:00,
2013-10-23 22:51:00,42.1,33.0,30.27,North,0,0.0,0.0,70,0.00,,SKC,0.04,VWS V14.01,2013-10-24 03:51:00,
2013-10-23 22:52:00,42.1,33.0,30.27,WSW,248,0.0,0.0,70,0.00,,SKC,0.04,VWS V14.01,2013-10-24 03:52:00,
2013-10-23 22:53:00,42.1,33.7,30.27,West,270,0.0,0.0,72,0.00,,SKC,0.04,VWS V14.01,2013-10-24 03:53:00,
2013-10-23 22:54:00,42.1,33.0,30.27,WSW,248,0.0,0.0,70,0.00,,SKC,0.04,VWS V14.01,2013-10-24 03:54:00,
2013-10-23 22:55:00,42.1,33.0,30.27,WSW,248,0.0,0.0,70,0.00,,SKC,0.04,VWS V14.01,2013-10-24 03:55:00,
2013-10-23 22:56:00,42.1,33.0,30.27,NW,315,0.0,0.0,70,0.00,,SKC,0.04,VWS V14.01,2013-10-24 03:56:00,
2013-10-23 22:57:00,42.1,33.0,30.27,West,270,0.0,0.0,70,0.00,,SKC,0.04,VWS V14.01,2013-10-24 03:57:00,
2013-10-23 22:58:00,42.1,33.7,30.27,WNW,292,0.0,0.0,72,0.00,,SKC,0.04,VWS V14.01,2013-10-24 03:58:00,
2013-10-23 22:59:00,42.1,33.0,30.30,WSW,248,0.0,0.0,70,0.00,,SKC,0.04,VWS V14.01,2013-10-24 03:59:00,
2013-10-23 23:00:00,42.1,33.0,30.30,WSW,248,0.0,0.0,70,0.00,,SKC,0.04,VWS V14.01,2013-10-24 04:00:00,
2013-10-23 23:01:00,42.1,33.7,30.27,WSW,248,0.0,0.0,72,0.00,,SKC,0.04,VWS V14.01,2013-10-24 04:01:00,
2013-10-23 23:02:00,42.1,33.7,30.27,SW,225,0.0,0.0,72,0.00,,SKC,0.04,VWS V14.01,2013-10-24 04:02:00,
2013-10-23 23:03:00,42.1,33.0,30.30,NNW,338,0.0,0.0,70,0.00,,SKC,0.04,VWS V14.01,2013-10-24 04:03:00,
2013-10-23 23:04:00,42.1,33.0,30.30,West,270,0.0,0.0,70,0.00,,SKC,0.04,VWS V14.01,2013-10-24 04:04:00,
2013-10-23 23:05:00,42.1,33.0,30.30,WNW,292,0.0,0.0,70,0.00,,SKC,0.04,VWS V14.01,2013-10-24 04:05:00,
2013-10-23 23:06:00,42.1,33.0,30.30,NW,315,0.0,0.0,70,0.00,,SKC,0.04,VWS V14.01,2013-10-24 04:06:00,
2013-10-23 23:07:00,42.1,33.7,30.27,WNW,292,0.0,0.0,72,0.00,,SKC,0.04,VWS V14.01,2013-10-24 04:07:00,
2013-10-23 23:08:00,42.1,33.4,30.30,North,0,1.3,5.4,71,0.00,,SKC,0.04,VWS V14.01,2013-10-24 04:08:00,
2013-10-23 23:09:00,42.1,33.4,30.30,NW,315,0.9,3.6,71,0.00,,SKC,0.04,VWS V14.01,2013-10-24 04:09:00,
2013-10-23 23:10:00,42.1,33.4,30.30,WSW,248,0.0,0.0,71,0.00,,SKC,0.04,VWS V14.01,2013-10-24 04:10:00,
2013-10-23 23:11:00,42.1,33.4,30.30,WSW,248,2.5,9.8,71,0.00,,SKC,0.04,VWS V14.01,2013-10-24 04:11:00,
2013-10-23 23:12:00,42.1,34.1,30.27,West,270,0.0,0.0,73,0.00,,SKC,0.04,VWS V14.01,2013-10-24 04:12:00,
2013-10-23 23:13:00,42.1,33.4,30.30,West,270,0.0,0.0,71,0.00,,SKC,0.04,VWS V14.01,2013-10-24 04:13:00,
2013-10-23 23:14:00,42.1,33.4,30.30,WSW,248,0.0,0.0,71,0.00,,SKC,0.04,VWS V14.01,2013-10-24 04:14:00,
2013-10-23 23:15:00,42.1,33.4,30.30,West,270,0.0,0.0,71,0.00,,SKC,0.04,VWS V14.01,2013-10-24 04:15:00,
2013-10-23 23:16:00,42.1,33.4,30.30,NNE,22,0.0,0.0,71,0.00,,SKC,0.04,VWS V14.01,2013-10-24 04:16:00,
2013-10-23 23:17:00,42.1,33.7,30.27,NW,315,0.0,0.0,72,0.00,,SKC,0.04,VWS V14.01,2013-10-24 04:17:00,
2013-10-23 23:18:00,42.1,33.7,30.30,SW,225,0.9,3.6,72,0.00,,SKC,0.04,VWS V14.01,2013-10-24 04:18:00,
2013-10-23 23:19:00,42.1,33.7,30.30,WSW,248,0.0,0.0,72,0.00,,SKC,0.04,VWS V14.01,2013-10-24 04:19:00,
2013-10-23 23:20:00,42.1,33.7,30.30,NNW,338,0.0,0.0,72,0.00,,SKC,0.04,VWS V14.01,2013-10-24 04:20:00,
2013-10-23 23:21:00,42.1,33.7,30.30,West,270,0.0,0.0,72,0.00,,SKC,0.04,VWS V14.01,2013-10-24 04:21:00,
2013-10-23 23:22:00,42.1,33.7,30.27,WSW,248,0.0,0.0,72,0.00,,SKC,0.04,VWS V14.01,2013-10-24 04:22:00,
2013-10-23 23:23:00,42.1,33.7,30.30,North,0,1.3,5.4,72,0.00,,SKC,0.04,VWS V14.01,2013-10-24 04:23:00,
2013-10-23 23:24:00,42.1,33.7,30.30,North,0,1.3,5.4,72,0.00,,SKC,0.04,VWS V14.01,2013-10-24 04:24:00,
2013-10-23 23:25:00,42.1,33.4,30.30,WSW,248,0.0,0.0,71,0.00,,SKC,0.04,VWS V14.01,2013-10-24 04:25:00,
2013-10-23 23:26:00,42.1,33.4,30.30,SW,225,0.0,0.0,71,0.00,,SKC,0.04,VWS V14.01,2013-10-24 04:26:00,
2013-10-23 23:27:00,42.1,33.7,30.27,West,270,0.0,0.0,72,0.00,,SKC,0.04,VWS V14.01,2013-10-24 04:27:00,
2013-10-23 23:28:00,42.1,33.4,30.30,WSW,248,0.0,0.0,71,0.00,,SKC,0.04,VWS V14.01,2013-10-24 04:28:00,
2013-10-23 23:29:00,42.1,33.4,30.27,SW,225,0.0,0.0,71,0.00,,SKC,0.04,VWS V14.01,2013-10-24 04:29:00,
2013-10-23 23:30:00,42.1,33.4,30.27,West,270,0.0,0.0,71,0.00,,SKC,0.04,VWS V14.01,2013-10-24 04:30:00,
2013-10-23 23:31:00,42.1,33.4,30.27,NNW,338,2.0,8.1,71,0.00,,SKC,0.04,VWS V14.01,2013-10-24 04:31:00,
2013-10-23 23:32:00,42.1,33.7,30.27,NW,315,0.0,0.0,72,0.00,,SKC,0.04,VWS V14.01,2013-10-24 04:32:00,
2013-10-23 23:33:00,42.1,33.4,30.27,WSW,248,2.2,9.0,71,0.00,,SKC,0.04,VWS V14.01,2013-10-24 04:33:00,
2013-10-23 23:34:00,42.1,33.7,30.27,West,270,0.0,0.0,72,0.00,,SKC,0.04,VWS V14.01,2013-10-24 04:34:00,
2013-10-23 23:35:00,42.1,33.7,30.27,West,270,0.0,0.0,72,0.00,,SKC,0.04,VWS V14.01,2013-10-24 04:35:00,
2013-10-23 23:36:00,42.1,33.4,30.27,West,270,0.0,0.0,71,0.00,,SKC,0.04,VWS V14.01,2013-10-24 04:36:00,
2013-10-23 23:37:00,42.1,33.7,30.27,North,0,0.0,0.0,72,0.00,,SKC,0.04,VWS V14.01,2013-10-24 04:37:00,
2013-10-23 23:38:00,42.1,33.4,30.27,WSW,248,0.0,0.0,71,0.00,,SKC,0.04,VWS V14.01,2013-10-24 04:38:00,
2013-10-23 23:39:00,42.1,33.4,30.27,West,270,0.0,0.0,71,0.00,,SKC,0.04,VWS V14.01,2013-10-24 04:39:00,
2013-10-23 23:40:00,42.1,33.4,30.27,SW,225,0.0,0.0,71,0.00,,SKC,0.04,VWS V14.01,2013-10-24 04:40:00,
2013-10-23 23:41:00,42.1,33.4,30.27,SW,225,0.0,0.0,71,0.00,,SKC,0.04,VWS V14.01,2013-10-24 04:41:00,
2013-10-23 23:42:00,41.9,33.9,30.27,NNW,338,0.0,0.0,73,0.00,,SKC,0.04,VWS V14.01,2013-10-24 04:42:00,
2013-10-23 23:43:00,42.1,33.7,30.27,WSW,248,0.0,0.0,72,0.00,,SKC,0.04,VWS V14.01,2013-10-24 04:43:00,
2013-10-23 23:44:00,42.1,33.7,30.27,West,270,0.0,0.0,72,0.00,,SKC,0.04,VWS V14.01,2013-10-24 04:44:00,
2013-10-23 23:45:00,42.1,33.7,30.27,West,270,0.0,0.0,72,0.00,,SKC,0.04,VWS V14.01,2013-10-24 04:45:00,
2013-10-23 23:47:00,41.7,33.7,30.27,WSW,248,0.0,0.0,73,0.00,,SKC,0.04,VWS V14.01,2013-10-24 04:47:00,
2013-10-23 23:48:00,42.1,33.7,30.27,WSW,248,0.0,0.0,72,0.00,,SKC,0.04,VWS V14.01,2013-10-24 04:48:00,
2013-10-23 23:49:00,42.1,33.7,30.27,WNW,292,0.0,0.0,72,0.00,,SKC,0.04,VWS V14.01,2013-10-24 04:49:00,
2013-10-23 23:50:00,42.1,33.7,30.27,WNW,292,0.0,0.0,72,0.00,,SKC,0.04,VWS V14.01,2013-10-24 04:50:00,
2013-10-23 23:51:00,42.1,33.7,30.27,West,270,0.0,0.0,72,0.00,,SKC,0.04,VWS V14.01,2013-10-24 04:51:00,
2013-10-23 23:52:00,41.7,33.4,30.27,WSW,248,0.0,0.0,72,0.00,,SKC,0.00,VWS V14.01,2013-10-24 04:52:00,
2013-10-23 23:53:00,42.1,33.7,30.27,West,270,0.0,0.0,72,0.00,,SKC,0.04,VWS V14.01,2013-10-24 04:53:00,
2013-10-23 23:54:00,42.1,33.7,30.27,West,270,0.0,0.0,72,0.00,,SKC,0.04,VWS V14.01,2013-10-24 04:54:00,
2013-10-23 23:55:00,42.1,33.7,30.27,West,270,0.0,0.0,72,0.00,,SKC,0.04,VWS V14.01,2013-10-24 04:55:00,
2013-10-23 23:56:00,42.1,33.4,30.27,WSW,248,0.0,0.0,71,0.00,,SKC,0.04,VWS V14.01,2013-10-24 04:56:00,
2013-10-23 23:57:00,41.7,33.7,30.27,West,270,0.0,0.0,73,0.00,,SKC,0.00,VWS V14.01,2013-10-24 04:57:00,
2013-10-23 23:58:00,42.1,33.7,30.27,West,270,0.0,0.0,72,0.00,,SKC,0.04,VWS V14.01,2013-10-24 04:58:00,
2013-10-23 23:59:00,42.1,33.7,30.27,West,270,0.0,0.0,72,0.00,,SKC,0.04,VWS V14.01,2013-10-24 04:59:00,